Provisional Data: Sing Sing Creek near Big Flats, NY


Please select a monitoring station.
Please select start date.
Please select start date.

Toggle Unit: C/F Toggle Unit: C/F
Sample Time Temperature (C) Temperature (F) Specific Conductivity (mS/cm) pH   Turbidity (NTU+) DO (mg/L)
10/22/2021 12:00:00 AM 14.31 57.758 0.429 7.84 20.99 8.84
10/22/2021 12:15:00 AM 14.29 57.722 0.425 7.82 19.99 8.76
10/22/2021 12:30:00 AM 14.26 57.668 0.422 7.79 20.53 8.73
10/22/2021 12:45:00 AM 14.23 57.614 0.42 7.72 20.82 8.74
10/22/2021 1:00:00 AM 14.21 57.578 0.418 7.75 48.99 8.76
10/22/2021 1:15:00 AM 14.18 57.524 0.417 7.78 21.07 8.7
10/22/2021 1:30:00 AM 14.15 57.47 0.416 7.75 21.31 8.62
10/22/2021 1:45:00 AM 14.11 57.398 0.415 7.77 21.09 8.75
10/22/2021 2:00:00 AM 14.08 57.344 0.41 7.77 22.07 8.85
10/22/2021 2:15:00 AM 14.05 57.29 0.403 7.77 22.49 8.9
10/22/2021 2:30:00 AM 14.03 57.254 0.396 7.77 22.58 8.95
10/22/2021 2:45:00 AM 14.01 57.218 0.391 7.75 24.7 8.97
10/22/2021 3:00:00 AM 14 57.2 0.387 7.74 24.63 8.9
10/22/2021 3:15:00 AM 14 57.2 0.379 7.73 24.37 8.91
10/22/2021 3:30:00 AM 14.01 57.218 0.367 7.74 25.6 8.89
10/22/2021 3:45:00 AM 14.04 57.272 0.35 7.7 29.76 8.87
10/22/2021 4:00:00 AM 14.07 57.326 0.334 7.68 37.93 8.9
10/22/2021 4:15:00 AM 14.07 57.326 0.324 7.64 42.14 8.91
10/22/2021 4:30:00 AM 14.07 57.326 0.32 7.65 63.5 8.92
10/22/2021 4:45:00 AM 14.08 57.344 0.32 7.62 87.36 8.89
10/22/2021 5:00:00 AM 14.09 57.362 0.309 7.62 57.77 8.88
10/22/2021 5:15:00 AM 14.11 57.398 0.297 7.59 338.88 8.88
10/22/2021 5:30:00 AM 14.14 57.452 0.284 7.62 56.58 8.9
10/22/2021 5:45:00 AM 14.17 57.506 0.267 7.6 51.88 8.93
10/22/2021 6:00:00 AM 14.17 57.506 0.25 7.56 53.3 8.98
10/22/2021 6:15:00 AM 14.16 57.488 0.231 7.5 56.99 9.05
10/22/2021 6:30:00 AM 14.15 57.47 0.216 7.54 58.99 9.13
10/22/2021 6:45:00 AM 14.09 57.362 0.211 7.45 58.23 9.21
10/22/2021 7:00:00 AM 13.98 57.164 0.21 7.55 55.68 9.3
10/22/2021 7:15:00 AM 13.86 56.948 0.208 7.51 54.21 9.36
10/22/2021 7:30:00 AM 13.75 56.75 0.205 7.48 54.94 9.4
10/22/2021 7:45:00 AM 13.65 56.57 0.201 7.44 56.85 9.43
10/22/2021 8:00:00 AM 13.57 56.426 0.197 7.46 58.92 9.43
10/22/2021 8:15:00 AM 13.52 56.336 0.194 7.42 61.63 9.44
10/22/2021 8:30:00 AM 13.47 56.246 0.19 7.45 61.77 9.45
10/22/2021 8:45:00 AM 13.43 56.174 0.189 7.38 58.12 9.46
10/22/2021 9:00:00 AM 13.39 56.102 0.188 7.45 66.98 9.46
10/22/2021 9:15:00 AM 13.37 56.066 0.188 7.4 64.4 9.48
10/22/2021 9:30:00 AM 13.35 56.03 0.188 7.41 60.82 9.5
10/22/2021 9:45:00 AM 13.34 56.012 0.189 7.39 61.93 9.49
10/22/2021 10:00:00 AM 13.32 55.976 0.196 7.47 60.89 9.51
10/22/2021 10:15:00 AM 13.29 55.922 0.19 7.47 60.39 9.53
10/22/2021 10:30:00 AM 13.28 55.904 0.191 7.46 59.96 9.55
10/22/2021 10:45:00 AM 13.26 55.868 0.193 7.41 55.53 9.53
10/22/2021 11:00:00 AM 13.25 55.85 0.204 7.51 53.69 9.57
10/22/2021 11:15:00 AM 13.25 55.85 0.197 7.47 51.6 9.59
10/22/2021 11:30:00 AM 13.26 55.868 0.199 7.51 52.36 9.62
10/22/2021 11:45:00 AM 13.27 55.886 0.202 7.52 49.22 9.63
10/22/2021 12:00:00 PM 13.29 55.922 0.204 7.52 50.68 9.67
10/22/2021 12:15:00 PM 13.32 55.976 0.207 7.53 51.23 9.69
10/22/2021 12:30:00 PM 13.36 56.048 0.209 7.5 47.57 9.74
10/22/2021 12:45:00 PM 13.39 56.102 0.213 7.55 49.09 9.77
10/22/2021 1:00:00 PM 13.44 56.192 0.216 7.52 45.39 9.8
10/22/2021 1:15:00 PM 13.45 56.21 0.219 7.53 45.63 9.87
10/22/2021 1:30:00 PM 13.53 56.354 0.223 7.59 53.68 9.92
10/22/2021 1:45:00 PM 13.59 56.462 0.227 7.57 59.32 10.05
10/22/2021 2:00:00 PM 13.64 56.552 0.231 7.56 46.22 10.1
10/22/2021 2:15:00 PM 13.69 56.642 0.235 7.59 44.95 10.19
10/22/2021 2:30:00 PM 13.72 56.696 0.239 7.64 47.57 10.24
10/22/2021 2:45:00 PM 13.77 56.786 0.243 7.56 25.04 10.3
10/22/2021 3:00:00 PM 13.8 56.84 0.246 7.62 41.42 10.37
10/22/2021 3:15:00 PM 13.85 56.93 0.249 7.67 40.94 10.45
10/22/2021 3:30:00 PM 13.87 56.966 0.252 7.65 39.26 10.49
10/22/2021 3:45:00 PM 13.89 57.002 0.254 7.72 39.52 10.52
10/22/2021 4:00:00 PM 13.89 57.002 0.261 7.68 1211.09 10.54
10/22/2021 4:15:00 PM 13.89 57.002 0.259 7.75 39.36 10.57
10/22/2021 4:30:00 PM 13.88 56.984 0.261 7.75 162.46 10.61
10/22/2021 4:45:00 PM 13.86 56.948 0.263 7.76 32.42 10.61
10/22/2021 5:00:00 PM 13.84 56.912 0.265 7.75 30.91 10.61
10/22/2021 5:15:00 PM 13.81 56.858 0.266 7.77 30.79 10.61
10/22/2021 5:30:00 PM 13.78 56.804 0.268 7.75 29.93 10.59
10/22/2021 5:45:00 PM 13.75 56.75 0.269 7.77 30.74 10.58
10/22/2021 6:00:00 PM 13.71 56.678 0.271 7.8 29.64 10.56
10/22/2021 6:15:00 PM 13.66 56.588 0.272 7.77 29.49 10.52
10/22/2021 6:30:00 PM 13.62 56.516 0.274 7.76 30.12 10.45
10/22/2021 6:45:00 PM 13.57 56.426 0.275 7.77 29.65 10.41
10/22/2021 7:00:00 PM 13.53 56.354 0.276 7.75 29.52 10.36
10/22/2021 7:15:00 PM 13.49 56.282 0.278 7.78 28.84 10.26
10/22/2021 7:30:00 PM 13.45 56.21 0.279 7.75 29.34 10.23
10/22/2021 7:45:00 PM 13.4 56.12 0.279 7.77 32.42 10.18
10/22/2021 8:00:00 PM 13.36 56.048 0.283 7.74 29.62 10.13
10/22/2021 8:15:00 PM 13.32 55.976 0.282 7.76 29.04 10.07
10/22/2021 8:30:00 PM 13.28 55.904 0.284 7.73 29.08 9.99
10/22/2021 8:45:00 PM 13.24 55.832 0.284 7.7 29.46 9.96
10/22/2021 9:00:00 PM 13.2 55.76 0.286 7.66 394.79 9.92
10/22/2021 9:15:00 PM 13.16 55.688 0.287 7.7 28.31 9.85
10/22/2021 9:30:00 PM 13.12 55.616 0.287 7.7 28.81 9.81
10/22/2021 9:45:00 PM 13.07 55.526 0.289 7.66 312.78 9.76
10/22/2021 10:00:00 PM 13.02 55.436 0.29 7.7 27.69 9.73
10/22/2021 10:15:00 PM 12.97 55.346 0.291 7.68 28.11 9.7
10/22/2021 10:30:00 PM 12.92 55.256 0.293 7.68 27.04 9.67
10/22/2021 10:45:00 PM 12.87 55.166 0.31 7.68 26.84 9.66
10/22/2021 11:00:00 PM 12.82 55.076 0.294 7.66 28.35 9.65
10/22/2021 11:15:00 PM 12.77 54.986 0.295 7.67 28.02 9.64
10/22/2021 11:30:00 PM 12.72 54.896 0.321 7.66 27.8 9.64
10/22/2021 11:45:00 PM 12.66 54.788 0.299 7.66 26.84 9.64
10/23/2021 12:00:00 AM 12.61 54.698 0.299 7.66 27.02 9.63
10/23/2021 12:15:00 AM 12.56 54.608 0.315 7.67 26.99 9.64
10/23/2021 12:30:00 AM 12.52 54.536 0.301 7.61 27.47 9.63
10/23/2021 12:45:00 AM 12.47 54.446 0.302 7.65 28.19 9.62
10/23/2021 1:00:00 AM 12.42 54.356 0.303 7.66 27.3 9.62
10/23/2021 1:15:00 AM 12.37 54.266 0.325 7.63 154.41 9.62
10/23/2021 1:30:00 AM 12.33 54.194 0.327 7.67 26.15 9.63
10/23/2021 1:45:00 AM 12.28 54.104 0.328 7.63 322.37 9.62
10/23/2021 2:00:00 AM 12.24 54.032 0.334 7.64 26.47 9.62
10/23/2021 2:15:00 AM 12.19 53.942 0.338 7.63 26.1 9.65
10/23/2021 2:30:00 AM 12.14 53.852 0.308 7.66 26.13 9.63
10/23/2021 2:45:00 AM 12.09 53.762 0.351 7.61 341.52 9.65
10/23/2021 3:00:00 AM 12.05 53.69 0.335 7.68 26.45 9.63
10/23/2021 3:15:00 AM 12 53.6 0.347 7.65 27.73 9.65
10/23/2021 3:30:00 AM 11.96 53.528 0.34 7.66 25.67 9.67
10/23/2021 3:45:00 AM 11.92 53.456 0.354 7.63 25.86 9.68
10/23/2021 4:00:00 AM 11.88 53.384 0.346 7.66 26.39 9.65
10/23/2021 4:15:00 AM 11.84 53.312 0.343 7.63 26.04 9.66
10/23/2021 4:30:00 AM 11.8 53.24 0.353 7.65 27.22 9.67
10/23/2021 4:45:00 AM 11.76 53.168 0.348 7.65 25.59 9.69
10/23/2021 5:00:00 AM 11.72 53.096 0.353 7.62 25.65 9.69
10/23/2021 5:15:00 AM 11.69 53.042 0.356 7.66 25.58 9.67
10/23/2021 5:30:00 AM 11.66 52.988 0.357 7.65 25.28 9.72
10/23/2021 5:45:00 AM 11.63 52.934 0.349 7.63 26.27 9.71
10/23/2021 6:00:00 AM 11.6 52.88 0.361 7.67 25.45 9.72
10/23/2021 6:15:00 AM 11.56 52.808 0.36 7.67 25.52 9.71
10/23/2021 6:30:00 AM 11.53 52.754 0.367 7.64 22.29 9.73
10/23/2021 6:45:00 AM 11.5 52.7 0.37 7.6 25.86 9.74
10/23/2021 7:00:00 AM 11.46 52.628 0.362 7.66 23.28 9.79
10/23/2021 7:15:00 AM 11.43 52.574 0.374 7.61 20.55 9.78
10/23/2021 7:30:00 AM 11.4 52.52 0.372 7.65 23.11 9.81
10/23/2021 7:45:00 AM 11.37 52.466 0.379 7.61 23.35 9.81
10/23/2021 8:00:00 AM 11.34 52.412 0.369 7.66 27.53 9.83
10/23/2021 8:15:00 AM 11.32 52.376 0.378 7.65 23.31 9.89
10/23/2021 8:30:00 AM 11.31 52.358 0.375 7.67 24.1 9.94
10/23/2021 8:45:00 AM 11.29 52.322 0.377 7.67 23.86 9.94
10/23/2021 9:00:00 AM 11.27 52.286 0.378 7.69 23.05 9.98
10/23/2021 9:15:00 AM 11.25 52.25 0.378 7.68 25.01 10.02
10/23/2021 9:30:00 AM 11.23 52.214 0.385 7.61 85.78 10.03
10/23/2021 9:45:00 AM 11.21 52.178 0.385 7.68 23.02 10.1
10/23/2021 10:00:00 AM 11.2 52.16 0.383 7.7 23.3 10.2
10/23/2021 10:15:00 AM 11.19 52.142 0.392 7.68 210.66 10.3
10/23/2021 10:30:00 AM 11.19 52.142 0.384 7.72 22.61 10.39
10/23/2021 10:45:00 AM 11.2 52.16 0.388 7.71 23.01 10.46
10/23/2021 11:00:00 AM 11.21 52.178 0.381 7.74 22.9 10.61
10/23/2021 11:15:00 AM 11.23 52.214 0.383 7.76 22.48 10.64
10/23/2021 11:30:00 AM 11.25 52.25 0.384 7.76 23.97 10.76
10/23/2021 11:45:00 AM 11.28 52.304 0.387 7.74 29.77 10.95
10/23/2021 12:00:00 PM 11.29 52.322 0.39 7.78 244.18 11.08
10/23/2021 12:15:00 PM 11.29 52.322 0.394 7.75 26.74 11.12
10/23/2021 12:30:00 PM 11.29 52.322 0.389 7.82 26.68 11.2
10/23/2021 12:45:00 PM 11.32 52.376 0.391 7.83 28.43 11.35
10/23/2021 1:00:00 PM 11.35 52.43 0.393 7.85 27.54 11.49
10/23/2021 1:15:00 PM 11.37 52.466 0.393 7.87 28.77 11.6
10/23/2021 1:30:00 PM 11.4 52.52 0.391 7.92 206.4 11.7
10/23/2021 1:45:00 PM 11.44 52.592 0.392 7.91 33.73 11.83
10/23/2021 2:00:00 PM 11.44 52.592 0.39 7.93 28.79 11.81
10/23/2021 2:15:00 PM 11.44 52.592 0.392 7.9 178.98 11.8
10/23/2021 2:30:00 PM 11.45 52.61 0.391 7.89 27.36 11.83
10/23/2021 2:45:00 PM 11.46 52.628 0.389 7.97 27.35 11.91
10/23/2021 3:00:00 PM 11.48 52.664 0.39 7.96 27.52 11.92
10/23/2021 3:15:00 PM 11.52 52.736 0.39 7.97 27.74 12
10/23/2021 3:30:00 PM 11.57 52.826 0.391 7.98 280.91 12.09
10/23/2021 3:45:00 PM 11.58 52.844 0.389 7.99 27.25 12.11
10/23/2021 4:00:00 PM 11.58 52.844 0.393 8 27.15 12.04
10/23/2021 4:15:00 PM 11.6 52.88 0.391 8.02 27.73 12.03
10/23/2021 4:30:00 PM 11.62 52.916 0.389 8.03 27.8 12.03
10/23/2021 4:45:00 PM 11.64 52.952 0.385 8.05 27.79 12.05
10/23/2021 5:00:00 PM 11.65 52.97 0.389 8.06 11.72 12.05
10/23/2021 5:15:00 PM 11.65 52.97 0.373 8.06 5.11 12.04
10/23/2021 5:30:00 PM 11.65 52.97 0.388 8.06 27.67 11.99
10/23/2021 5:45:00 PM 11.65 52.97 0.391 8 27.57 11.91
10/23/2021 6:00:00 PM 11.63 52.934 0.393 8.02 27.34 11.8
10/23/2021 6:15:00 PM 11.59 52.862 0.393 8.03 27.21 11.68
10/23/2021 6:30:00 PM 11.56 52.808 0.391 7.99 27.47 11.56
10/23/2021 6:45:00 PM 11.53 52.754 0.39 7.99 34.54 11.48
10/23/2021 7:00:00 PM 11.49 52.682 0.392 7.96 27.37 11.38
10/23/2021 7:15:00 PM 11.47 52.646 0.393 7.97 75.79 11.28
10/23/2021 7:30:00 PM 11.44 52.592 0.386 7.96 27.86 11.19
10/23/2021 7:45:00 PM 11.41 52.538 0.4 7.92 27.23 11.09
10/23/2021 8:00:00 PM 11.37 52.466 0.396 7.93 27.69 11.01
10/23/2021 8:15:00 PM 11.34 52.412 0.396 7.89 27.84 10.92
10/23/2021 8:30:00 PM 11.31 52.358 0.401 7.89 27.87 10.85
10/23/2021 8:45:00 PM 11.29 52.322 0.399 7.85 28.34 10.78
10/23/2021 9:00:00 PM 11.26 52.268 0.399 7.89 28.5 10.71
10/23/2021 9:15:00 PM 11.23 52.214 0.397 7.88 28.1 10.63
10/23/2021 9:30:00 PM 11.21 52.178 0.403 7.82 28.08 10.55
10/23/2021 9:45:00 PM 11.19 52.142 0.4 7.84 254.21 10.5
10/23/2021 10:00:00 PM 11.17 52.106 0.401 7.82 28.35 10.45
10/23/2021 10:15:00 PM 11.15 52.07 0.406 7.81 27.29 10.33
10/23/2021 10:30:00 PM 11.13 52.034 0.414 7.76 28.29 10.31
10/23/2021 10:45:00 PM 11.11 51.998 0.406 7.8 27.59 10.24
10/23/2021 11:00:00 PM 11.09 51.962 0.406 7.77 27.19 10.22
10/23/2021 11:15:00 PM 11.08 51.944 0.403 7.78 27.59 10.17
10/23/2021 11:30:00 PM 11.06 51.908 0.402 7.77 27.55 10.15
10/23/2021 11:45:00 PM 11.04 51.872 0.409 7.74 27.64 10.13
10/24/2021 12:00:00 AM 11.02 51.836 0.415 7.74 27.71 10.1
10/24/2021 12:15:00 AM 11 51.8 0.406 7.75 27.52 10.07
10/24/2021 12:30:00 AM 10.98 51.764 0.407 7.75 271.01 10.07
10/24/2021 12:45:00 AM 10.96 51.728 0.408 7.73 28.61 10.05
10/24/2021 1:00:00 AM 10.95 51.71 0.41 7.69 27.74 10.03
10/24/2021 1:15:00 AM 10.94 51.692 0.41 7.74 28.18 10.03
10/24/2021 1:30:00 AM 10.92 51.656 0.409 7.7 27.99 10.03
10/24/2021 1:45:00 AM 10.9 51.62 0.413 7.7 27.75 10.02
10/24/2021 2:00:00 AM 10.88 51.584 0.409 7.69 28.19 10
10/24/2021 2:15:00 AM 10.87 51.566 0.406 7.71 27.47 9.99
10/24/2021 2:30:00 AM 10.85 51.53 0.41 7.7 27.44 9.99
10/24/2021 2:45:00 AM 10.82 51.476 0.411 7.68 27.77 9.99
10/24/2021 3:00:00 AM 10.81 51.458 0.405 7.73 27.54 9.99
10/24/2021 3:15:00 AM 10.79 51.422 0.409 7.71 27.61 9.99
10/24/2021 3:30:00 AM 10.78 51.404 0.41 7.69 27.63 9.97
10/24/2021 3:45:00 AM 10.78 51.404 0.409 7.73 27.95 9.98
10/24/2021 4:00:00 AM 10.77 51.386 0.411 7.69 27.89 9.99
10/24/2021 4:15:00 AM 10.76 51.368 0.41 7.67 27.84 9.98
10/24/2021 4:30:00 AM 10.75 51.35 0.421 7.69 27.71 9.99
10/24/2021 4:45:00 AM 10.74 51.332 0.412 7.71 27.63 9.96
10/24/2021 5:00:00 AM 10.74 51.332 0.417 7.72 28.71 9.98
10/24/2021 5:15:00 AM 10.74 51.332 0.415 7.68 27.87 9.96
10/24/2021 5:30:00 AM 10.74 51.332 0.42 7.68 28.11 9.96
10/24/2021 5:45:00 AM 10.74 51.332 0.419 7.73 28.79 9.94
10/24/2021 6:00:00 AM 10.73 51.314 0.42 7.68 28.29 9.94
10/24/2021 6:15:00 AM 10.73 51.314 0.422 7.68 27.96 9.94
10/24/2021 6:30:00 AM 10.72 51.296 0.421 7.71 28.05 9.95
10/24/2021 6:45:00 AM 10.72 51.296 0.423 7.69 27.92 9.94
10/24/2021 7:00:00 AM 10.71 51.278 0.424 7.66 111.41 9.95
10/24/2021 7:15:00 AM 10.71 51.278 0.427 7.64 28.65 9.95
10/24/2021 7:30:00 AM 10.71 51.278 0.421 7.68 33.6 9.95
10/24/2021 7:45:00 AM 10.7 51.26 0.425 7.68 28.07 9.94
10/24/2021 8:00:00 AM 10.7 51.26 0.418 7.68 39.74 9.93
10/24/2021 8:15:00 AM 10.68 51.224 0.423 7.67 31.98 10
10/24/2021 8:30:00 AM 10.68 51.224 0.418 7.72 29.3 10.04
10/24/2021 8:45:00 AM 10.67 51.206 0.414 7.7 28.57 10.08
10/24/2021 9:00:00 AM 10.67 51.206 0.423 7.7 29.17 10.12
10/24/2021 9:15:00 AM 10.66 51.188 0.422 7.7 30.89 10.19
10/24/2021 9:30:00 AM 10.68 51.224 0.422 7.72 28.75 10.29
10/24/2021 9:45:00 AM 10.7 51.26 0.419 7.73 28.69 10.38
10/24/2021 10:00:00 AM 10.7 51.26 0.417 7.74 28.93 10.44
10/24/2021 10:15:00 AM 10.71 51.278 0.421 7.75 28.56 10.52
10/24/2021 10:30:00 AM 10.74 51.332 0.42 7.76 28.55 10.65
10/24/2021 10:45:00 AM 10.75 51.35 0.416 7.76 28.65 10.74
10/24/2021 11:00:00 AM 10.8 51.44 0.421 7.77 28.39 10.87
10/24/2021 11:15:00 AM 10.84 51.512 0.421 7.76 28.44 11
10/24/2021 11:30:00 AM 10.87 51.566 0.421 7.8 28.16 11.13
10/24/2021 11:45:00 AM 10.95 51.71 0.422 7.79 234.66 11.29
10/24/2021 12:00:00 PM 11.04 51.872 0.421 7.83 27.91 11.47
10/24/2021 12:15:00 PM 11.07 51.926 0.415 7.89 28.08 11.59
10/24/2021 12:30:00 PM 11.15 52.07 0.42 7.87 18.82 11.76
10/24/2021 12:45:00 PM 11.23 52.214 0.419 7.85 52.88 11.92
10/24/2021 1:00:00 PM 11.29 52.322 0.419 7.92 27.82 12.06
10/24/2021 1:15:00 PM 11.32 52.376 0.418 7.94 27.78 12.15
10/24/2021 1:30:00 PM 11.35 52.43 0.418 7.98 27.64 12.22
10/24/2021 1:45:00 PM 11.37 52.466 0.413 7.99 27.7 12.25
10/24/2021 2:00:00 PM 11.44 52.592 0.418 8.02 27.55 12.4
10/24/2021 2:15:00 PM 11.54 52.772 0.414 8.04 27.69 12.59
10/24/2021 2:30:00 PM 11.63 52.934 0.413 8.07 27.4 12.67
10/24/2021 2:45:00 PM 11.69 53.042 0.411 8.13 27.68 12.74
10/24/2021 3:00:00 PM 11.75 53.15 0.41 8.14 27.39 12.78
10/24/2021 3:15:00 PM 11.79 53.222 0.409 8.12 27.39 12.74
10/24/2021 3:30:00 PM 11.83 53.294 0.41 8.12 27.34 12.73
10/24/2021 3:45:00 PM 11.89 53.402 0.41 8.14 27.38 12.79
10/24/2021 4:00:00 PM 11.94 53.492 0.41 8.16 27.22 12.78
10/24/2021 4:15:00 PM 11.97 53.546 0.404 8.18 27.06 12.75
10/24/2021 4:30:00 PM 12 53.6 0.407 8.18 27.74 12.7
10/24/2021 4:45:00 PM 12.02 53.636 0.41 8.16 271.93 12.61
10/24/2021 5:00:00 PM 12.02 53.636 0.398 8.17 28.08 12.5
10/24/2021 5:15:00 PM 12.01 53.618 0.413 8.12 27.16 12.38
10/24/2021 5:30:00 PM 12 53.6 0.416 8.13 27.37 12.24
10/24/2021 5:45:00 PM 11.98 53.564 0.407 8.13 27.21 12.11
10/24/2021 6:00:00 PM 11.98 53.564 0.412 8.07 21.45 12.01
10/24/2021 6:15:00 PM 11.97 53.546 0.408 8.1 27.67 11.77
10/24/2021 6:30:00 PM 11.96 53.528 0.414 8.05 27.64 11.77
10/24/2021 6:45:00 PM 11.95 53.51 0.409 8.03 27.49 11.61
10/24/2021 7:00:00 PM 11.93 53.474 0.419 8 27.9 11.47
10/24/2021 7:15:00 PM 11.91 53.438 0.416 7.99 28.01 11.3
10/24/2021 7:30:00 PM 11.89 53.402 0.41 8 28.23 11.22
10/24/2021 7:45:00 PM 11.88 53.384 0.414 7.95 28.85 11.08
10/24/2021 8:00:00 PM 11.86 53.348 0.415 7.93 28.27 10.97
10/24/2021 8:15:00 PM 11.85 53.33 0.413 7.94 28.62 10.87
10/24/2021 8:30:00 PM 11.82 53.276 0.411 7.93 202.65 10.76
10/24/2021 8:45:00 PM 11.81 53.258 0.406 7.91 29.15 10.66
10/24/2021 9:00:00 PM 11.79 53.222 0.416 7.86 28.86 10.51
10/24/2021 9:15:00 PM 11.77 53.186 0.416 7.87 28.91 10.44
10/24/2021 9:30:00 PM 11.76 53.168 0.413 7.84 28.41 10.36
10/24/2021 9:45:00 PM 11.74 53.132 0.417 7.81 28.76 10.29
10/24/2021 10:00:00 PM 11.72 53.096 0.416 7.81 28.93 10.2
10/24/2021 10:15:00 PM 11.7 53.06 0.414 7.82 189.77 10.13
10/24/2021 10:30:00 PM 11.69 53.042 0.416 7.8 29.42 10.06
10/24/2021 10:45:00 PM 11.68 53.024 0.414 7.79 29.64 10.03
10/24/2021 11:00:00 PM 11.66 52.988 0.415 7.75 272.51 9.97
10/24/2021 11:15:00 PM 11.65 52.97 0.416 7.75 29.21 9.95
10/24/2021 11:30:00 PM 11.64 52.952 0.417 7.69 166.39 9.92
10/24/2021 11:45:00 PM 11.63 52.934 0.421 7.73 30.13 9.89
10/25/2021 12:00:00 AM 11.62 52.916 0.417 7.74 29.52 9.87
10/25/2021 12:15:00 AM 11.61 52.898 0.416 7.73 30.37 9.86
10/25/2021 12:30:00 AM 11.61 52.898 0.416 7.71 149.55 9.82
10/25/2021 12:45:00 AM 11.61 52.898 0.416 7.72 30.9 9.81
10/25/2021 1:00:00 AM 11.6 52.88 0.416 7.69 30.8 9.8
10/25/2021 1:15:00 AM 11.6 52.88 0.415 7.7 31.17 9.79
10/25/2021 1:30:00 AM 11.61 52.898 0.411 7.73 30.31 9.78
10/25/2021 1:45:00 AM 11.61 52.898 0.409 7.71 30.74 9.77
10/25/2021 2:00:00 AM 11.61 52.898 0.408 7.69 147.39 9.75
10/25/2021 2:15:00 AM 11.61 52.898 0.416 7.66 31.77 9.76
10/25/2021 2:30:00 AM 11.61 52.898 0.408 7.66 76.72 9.76
10/25/2021 2:45:00 AM 11.62 52.916 0.409 7.67 292.33 9.75
10/25/2021 3:00:00 AM 11.62 52.916 0.413 7.66 31.34 9.78
10/25/2021 3:15:00 AM 11.63 52.934 0.41 7.69 31.2 9.79
10/25/2021 3:30:00 AM 11.64 52.952 0.409 7.64 13.6 9.79
10/25/2021 3:45:00 AM 11.64 52.952 0.404 7.67 31.39 9.77
10/25/2021 4:00:00 AM 11.65 52.97 0.402 7.71 31.83 9.76
10/25/2021 4:15:00 AM 11.66 52.988 0.409 7.64 277.22 9.78
10/25/2021 4:30:00 AM 11.67 53.006 0.402 7.65 32.81 9.8
10/25/2021 4:45:00 AM 11.67 53.006 0.4 7.62 32.97 9.81
10/25/2021 5:00:00 AM 11.68 53.024 0.396 7.7 32.41 9.79
10/25/2021 5:15:00 AM 11.69 53.042 0.399 7.66 32.7 9.8
10/25/2021 5:30:00 AM 11.68 53.024 0.399 7.62 32.88 9.79
10/25/2021 5:45:00 AM 11.67 53.006 0.39 7.66 33.2 9.8
10/25/2021 6:00:00 AM 11.66 52.988 0.389 7.65 34.1 9.81
10/25/2021 6:15:00 AM 11.64 52.952 0.387 7.63 36.52 9.83
10/25/2021 6:30:00 AM 11.62 52.916 0.376 7.63 39.19 9.82
10/25/2021 6:45:00 AM 11.6 52.88 0.371 7.59 350.03 9.85
10/25/2021 7:00:00 AM 11.59 52.862 0.374 7.57 39.66 9.88
10/25/2021 7:15:00 AM 11.58 52.844 0.363 7.62 41.32 9.89
10/25/2021 7:30:00 AM 11.59 52.862 0.361 7.57 338.11 9.91
10/25/2021 7:45:00 AM 11.59 52.862 0.348 7.58 43.51 9.93
10/25/2021 8:00:00 AM 11.58 52.844 0.333 7.62 44.18 9.96
10/25/2021 8:15:00 AM 11.56 52.808 0.319 7.6 43.9 10
10/25/2021 8:30:00 AM 11.53 52.754 0.292 7.6 52.6 10.07
10/25/2021 8:45:00 AM 11.49 52.682 0.276 7.6 51.48 10.14
10/25/2021 9:00:00 AM 11.45 52.61 0.265 7.56 48.48 10.2
10/25/2021 9:15:00 AM 11.43 52.574 0.261 7.57 319.24 10.25
10/25/2021 9:30:00 AM 11.42 52.556 0.258 7.57 49.43 10.28
10/25/2021 9:45:00 AM 11.4 52.52 0.25 7.59 62.09 10.31
10/25/2021 10:00:00 AM 11.38 52.484 0.247 7.6 50.32 10.35
10/25/2021 10:15:00 AM 11.36 52.448 0.239 7.56 54.24 10.39
10/25/2021 10:30:00 AM 11.33 52.394 0.234 7.58 49.06 10.42
10/25/2021 10:45:00 AM 11.32 52.376 0.228 7.61 61.46 10.44
10/25/2021 11:00:00 AM 11.31 52.358 0.227 7.54 51.43 10.46
10/25/2021 11:15:00 AM 11.32 52.376 0.224 7.59 578.82 10.48
10/25/2021 11:30:00 AM 11.35 52.43 0.231 7.5 52.99 10.51
10/25/2021 11:45:00 AM 11.41 52.538 0.217 7.59 49.92 10.55
10/25/2021 12:00:00 PM 11.49 52.682 0.227 7.52 48.21 10.57
10/25/2021 12:15:00 PM 11.59 52.862 0.221 7.57 46.07 10.61
10/25/2021 12:30:00 PM 11.69 53.042 0.221 7.59 399.25 10.64
10/25/2021 12:45:00 PM 11.79 53.222 0.221 7.6 47.37 10.67
10/25/2021 1:00:00 PM 11.9 53.42 0.221 7.58 47.75 10.71
10/25/2021 1:15:00 PM 12.01 53.618 0.22 7.59 50.91 10.74
10/25/2021 1:30:00 PM 12.13 53.834 0.218 7.62 49.79 10.79
10/25/2021 1:45:00 PM 12.25 54.05 0.216 7.63 47.8 10.83
10/25/2021 2:00:00 PM 12.36 54.248 0.215 7.63 47.67 10.87
10/25/2021 2:15:00 PM 12.48 54.464 0.216 7.61 50.71 10.91
10/25/2021 2:30:00 PM 12.56 54.608 0.222 7.65 511.58 10.94
10/25/2021 2:45:00 PM 12.63 54.734 0.224 7.65 48.28 10.96
10/25/2021 3:00:00 PM 12.7 54.86 0.225 7.68 52.5 10.99
10/25/2021 3:15:00 PM 12.77 54.986 0.224 7.6 47.2 11.01
10/25/2021 3:30:00 PM 12.83 55.094 0.226 7.67 2746.24 11.01
10/25/2021 3:45:00 PM 12.89 55.202 0.221 7.67 50.33 11.01
10/25/2021 4:00:00 PM 12.94 55.292 0.225 7.74 47.48 10.89
10/25/2021 4:15:00 PM 12.99 55.382 0.226 7.73 565.27 10.98
10/25/2021 4:30:00 PM 13.04 55.472 0.227 7.68 40.57 10.96
10/25/2021 4:45:00 PM 13.08 55.544 0.237 7.75 66.54 10.92
10/25/2021 5:00:00 PM 13.12 55.616 0.237 7.69 45.75 10.88
10/25/2021 5:15:00 PM 13.15 55.67 0.236 7.76 39.21 10.84
10/25/2021 5:30:00 PM 13.18 55.724 0.233 7.64 31.95 10.79
10/25/2021 5:45:00 PM 13.21 55.778 0.244 7.71 38.18 10.73
10/25/2021 6:00:00 PM 13.24 55.832 0.235 7.73 38.68 10.67
10/25/2021 6:15:00 PM 13.26 55.868 0.253 7.7 37.19 10.61
10/25/2021 6:30:00 PM 13.29 55.922 0.251 7.74 40.69 10.55
10/25/2021 6:45:00 PM 13.32 55.976 0.252 7.67 39.5 10.46
10/25/2021 7:00:00 PM 13.34 56.012 0.24 7.64 27.76 10.41
10/25/2021 7:15:00 PM 13.36 56.048 0.258 7.69 40.82 10.34
10/25/2021 7:30:00 PM 13.38 56.084 0.264 7.68 40.79 10.27
10/25/2021 7:45:00 PM 13.4 56.12 0.264 7.62 96.99 10.19
10/25/2021 8:00:00 PM 13.42 56.156 0.262 7.68 37.3 10.13
10/25/2021 8:15:00 PM 13.44 56.192 0.259 7.65 37.8 10.06
10/25/2021 8:30:00 PM 13.47 56.246 0.263 7.64 37.09 10
10/25/2021 8:45:00 PM 13.49 56.282 0.248 7.64 40.18 9.91
10/25/2021 9:00:00 PM 13.51 56.318 0.268 7.64 37.15 9.88
10/25/2021 9:15:00 PM 13.53 56.354 0.251 7.65 40.95 9.77
10/25/2021 9:30:00 PM 13.55 56.39 0.271 7.65 39.19 9.77
10/25/2021 9:45:00 PM 13.57 56.426 0.259 7.58 32.6 9.74
10/25/2021 10:00:00 PM 13.59 56.462 0.256 7.61 36.88 9.7
10/25/2021 10:15:00 PM 13.6 56.48 0.257 7.57 36.64 9.68
10/25/2021 10:30:00 PM 13.62 56.516 0.257 7.61 36.07 9.63
10/25/2021 10:45:00 PM 13.63 56.534 0.278 7.62 104.32 9.62
10/25/2021 11:00:00 PM 13.65 56.57 0.275 7.6 240.59 9.58
10/25/2021 11:15:00 PM 13.66 56.588 0.276 7.57 35.79 9.56
10/25/2021 11:30:00 PM 13.66 56.588 0.271 7.56 36.16 9.53
10/25/2021 11:45:00 PM 13.67 56.606 0.262 7.58 36.49 9.52
10/26/2021 12:00:00 AM 13.67 56.606 0.272 7.52 34.97 9.49
10/26/2021 12:15:00 AM 13.68 56.624 0.274 7.56 36.11 9.48
10/26/2021 12:30:00 AM 13.68 56.624 0.266 7.52 35.66 9.47
10/26/2021 12:45:00 AM 13.68 56.624 0.266 7.55 35.23 9.45
10/26/2021 1:00:00 AM 13.68 56.624 0.289 7.6 34.81 9.44
10/26/2021 1:15:00 AM 13.68 56.624 0.268 7.55 11.46 9.42
10/26/2021 1:30:00 AM 13.67 56.606 0.275 7.52 35.02 9.4
10/26/2021 1:45:00 AM 13.66 56.588 0.272 7.59 35.26 9.39
10/26/2021 2:00:00 AM 13.65 56.57 0.271 7.59 34.64 9.38
10/26/2021 2:15:00 AM 13.64 56.552 0.272 7.59 34.47 9.38
10/26/2021 2:30:00 AM 13.62 56.516 0.273 7.52 32.8 9.37
10/26/2021 2:45:00 AM 13.6 56.48 0.274 7.51 20.72 9.37
10/26/2021 3:00:00 AM 13.58 56.444 0.284 7.56 34.39 9.35
10/26/2021 3:15:00 AM 13.56 56.408 0.275 7.52 35.03 9.35
10/26/2021 3:30:00 AM 13.53 56.354 0.276 7.56 34.93 9.36
10/26/2021 3:45:00 AM 13.5 56.3 0.278 7.59 292.12 9.36
10/26/2021 4:00:00 AM 13.48 56.264 0.278 7.52 307.79 9.37
10/26/2021 4:15:00 AM 13.46 56.228 0.278 7.6 34.86 9.37
10/26/2021 4:30:00 AM 13.43 56.174 0.304 7.46 34.46 9.38
10/26/2021 4:45:00 AM 13.41 56.138 0.283 7.39 34.43 9.36
10/26/2021 5:00:00 AM 13.38 56.084 0.282 7.59 35.66 9.4
10/26/2021 5:15:00 AM 13.36 56.048 0.281 7.54 35.43 9.4
10/26/2021 5:30:00 AM 13.33 55.994 0.282 7.55 245.95 9.42
10/26/2021 5:45:00 AM 13.31 55.958 0.282 7.61 18.24 9.42
10/26/2021 6:00:00 AM 13.28 55.904 0.282 7.55 36.89 9.42
10/26/2021 6:15:00 AM 13.25 55.85 0.306 7.59 35.33 9.45
10/26/2021 6:30:00 AM 13.23 55.814 0.282 7.54 18.67 9.47
10/26/2021 6:45:00 AM 13.2 55.76 0.283 7.63 36.47 9.49
10/26/2021 7:00:00 AM 13.17 55.706 0.283 7.63 311.56 9.52
10/26/2021 7:15:00 AM 13.14 55.652 0.278 7.57 380.64 9.54
10/26/2021 7:30:00 AM 13.11 55.598 0.272 7.6 40.34 9.59
10/26/2021 7:45:00 AM 13.07 55.526 0.258 7.57 42.94 9.64
10/26/2021 8:00:00 AM 13.04 55.472 0.25 7.59 46.54 9.67
10/26/2021 8:15:00 AM 13.02 55.436 0.247 7.53 49.65 9.68
10/26/2021 8:30:00 AM 13.01 55.418 0.24 7.5 35.1 9.68
10/26/2021 8:45:00 AM 13.02 55.436 0.233 7.62 62.42 9.68
10/26/2021 9:00:00 AM 13.01 55.418 0.224 7.57 34.56 9.7
10/26/2021 9:15:00 AM 12.98 55.364 0.229 7.57 62.03 9.75
10/26/2021 9:30:00 AM 12.95 55.31 0.202 7.49 54.11 9.8
10/26/2021 9:45:00 AM 12.92 55.256 0.195 7.53 73.37 9.84
10/26/2021 10:00:00 AM 12.88 55.184 0.19 7.45 61.25 9.88
10/26/2021 10:15:00 AM 12.86 55.148 0.186 7.41 60.53 9.9
10/26/2021 10:30:00 AM 12.84 55.112 0.183 7.53 65.16 9.91
10/26/2021 10:45:00 AM 12.83 55.094 0.18 7.52 82.98 9.93
10/26/2021 11:00:00 AM 12.82 55.076 0.179 7.55 59.7 9.94
10/26/2021 11:15:00 AM 12.81 55.058 0.176 7.47 682.22 9.94
10/26/2021 11:30:00 AM 12.8 55.04 0.205 7.43 220.46 9.92
10/26/2021 11:45:00 AM 12.78 55.004 0.199 7.39 57.17 9.94
10/26/2021 12:00:00 PM 12.77 54.986 0.193 7.5 53.93 9.95
10/26/2021 12:15:00 PM 12.75 54.95 0.186 7.33 118.28 9.95
10/26/2021 12:30:00 PM 12.73 54.914 0.179 7.38 341.2 9.96
10/26/2021 12:45:00 PM 12.7 54.86 0.172 7.43 91.29 9.97
10/26/2021 1:00:00 PM 12.68 54.824 0.175 7.44 85.84 9.98
10/26/2021 1:15:00 PM 12.65 54.77 0.168 7.39 92.28 9.99
10/26/2021 1:30:00 PM 12.62 54.716 0.17 7.41 106.78 10.01
10/26/2021 1:45:00 PM 12.59 54.662 0.175 7.42 124.22 10.03
10/26/2021 2:00:00 PM 12.55 54.59 0.176 7.4 877.85 10
10/26/2021 2:15:00 PM 12.51 54.518 0.175 7.4 185.69 10.02
10/26/2021 2:30:00 PM 12.47 54.446 0.17 7.34 511.83 10.03
10/26/2021 2:45:00 PM 12.43 54.374 0.165 7.29 169.93 10.04
10/26/2021 3:00:00 PM 12.38 54.284 0.149 7.35 259.42 10.07
10/26/2021 3:15:00 PM 12.33 54.194 0.157 7.38 471.25 10.06
10/26/2021 3:30:00 PM 12.28 54.104 0.153 7.33 449.9 10.06
10/26/2021 3:45:00 PM 12.24 54.032 0.152 7.29 567.05 10.06
10/26/2021 4:00:00 PM 12.19 53.942 0.156 7.4 1074.79 10.08
10/26/2021 4:15:00 PM 12.14 53.852 0.119 7.3 559.19 10.08
10/26/2021 4:30:00 PM 12.09 53.762 0.121 7.25 416.04 10.1
10/26/2021 4:45:00 PM 12.04 53.672 0.108 7.21 409.98 10.11
10/26/2021 5:00:00 PM 12 53.6 0.107 7.31 321.82 10.11
10/26/2021 5:15:00 PM 11.95 53.51 0.106 7.29 560.11 10.16
10/26/2021 5:30:00 PM 11.9 53.42 0.108 7.33 763.52 10.15
10/26/2021 5:45:00 PM 11.86 53.348 0.109 7.36 533.73 10.16
10/26/2021 6:00:00 PM 11.81 53.258 0.108 7.33 388.77 10.15
10/26/2021 6:15:00 PM 11.77 53.186 0.1 7.28 473.88 10.14
10/26/2021 6:30:00 PM 11.73 53.114 0.102 7.25 441.84 10.12
10/26/2021 6:45:00 PM 11.69 53.042 0.101 7.11 480.97 10.11
10/26/2021 7:00:00 PM 11.66 52.988 0.1 7.25 332.94 10.13
10/26/2021 7:15:00 PM 11.63 52.934 0.099 7.11 281.38 10.13
10/26/2021 7:30:00 PM 11.6 52.88 0.098 7.16 290.94 10.12
10/26/2021 7:45:00 PM 11.57 52.826 0.097 7.21 461.8 10.12
10/26/2021 8:00:00 PM 11.54 52.772 0.098 7.16 19348.85 10.13
10/26/2021 8:15:00 PM 11.51 52.718 0.095 7.1 507.35 10.1
10/26/2021 8:30:00 PM 11.49 52.682 0.094 7.17 267.86 10.1
10/26/2021 8:45:00 PM 11.47 52.646 0.093 6.99 307.91 10.11
10/26/2021 9:00:00 PM 11.45 52.61 0.094 7.25 346.79 10.11
10/26/2021 9:15:00 PM 11.43 52.574 0.09 7.11 269.68 10.11
10/26/2021 9:30:00 PM 11.41 52.538 0.092 7.03 430.49 10.1
10/26/2021 9:45:00 PM 11.4 52.52 0.092 7.05 332.19 10.1
10/26/2021 10:00:00 PM 11.39 52.502 0.091 7.02 298.25 10.11
10/26/2021 10:15:00 PM 11.38 52.484 0.091 7.08 291.91 10.11
10/26/2021 10:30:00 PM 11.37 52.466 0.095 7.21 271.61 10.1
10/26/2021 10:45:00 PM 11.37 52.466 0.096 7.16 294.34 10.09
10/26/2021 11:00:00 PM 11.37 52.466 0.097 6.97 347.28 10.09
10/26/2021 11:15:00 PM 11.37 52.466 0.097 7.15 328.83 10.08
10/26/2021 11:30:00 PM 11.37 52.466 0.098 7.14 256.82 10.08
10/26/2021 11:45:00 PM 11.38 52.484 0.099 7.21 233.27 10.08
10/27/2021 12:00:00 AM 11.38 52.484 0.1 7.22 721.7 10.08
10/27/2021 12:15:00 AM 11.39 52.502 0.101 7.15 225.73 10.07
10/27/2021 12:30:00 AM 11.4 52.52 0.103 7.25 1243.45 10.08
10/27/2021 12:45:00 AM 11.41 52.538 0.104 7.16 251.53 10.08
10/27/2021 1:00:00 AM 11.42 52.556 0.106 7.2 191.4 10.07
10/27/2021 1:15:00 AM 11.43 52.574 0.108 7.22 272.3 10.09
10/27/2021 1:30:00 AM 11.44 52.592 0.11 7.2 209.53 10.08
10/27/2021 1:45:00 AM 11.45 52.61 0.112 7.19 161.09 10.09
10/27/2021 2:00:00 AM 11.46 52.628 0.112 7.22 151.79 10.1
10/27/2021 2:15:00 AM 11.47 52.646 0.114 7.18 222.77 10.1
10/27/2021 2:30:00 AM 11.48 52.664 0.114 7.24 195.18 10.1
10/27/2021 2:45:00 AM 11.49 52.682 0.115 7.18 159.42 10.11
10/27/2021 3:00:00 AM 11.5 52.7 0.115 7.16 149.53 10.12
10/27/2021 3:15:00 AM 11.5 52.7 0.115 7.19 176.95 10.12
10/27/2021 3:30:00 AM 11.51 52.718 0.116 7.17 245.22 10.12
10/27/2021 3:45:00 AM 11.52 52.736 0.117 7.2 149.92 10.12
10/27/2021 4:00:00 AM 11.53 52.754 0.118 7.02 139.52 10.13
10/27/2021 4:15:00 AM 11.54 52.772 0.118 7.2 121.38 10.13
10/27/2021 4:30:00 AM 11.54 52.772 0.119 7.2 156.06 10.13
10/27/2021 4:45:00 AM 11.55 52.79 0.121 7.23 169.31 10.13
10/27/2021 5:00:00 AM 11.56 52.808 0.122 7.21 124.24 10.14
10/27/2021 5:15:00 AM 11.56 52.808 0.123 7.01 149.9 10.13
10/27/2021 5:30:00 AM 11.57 52.826 0.124 7.24 115.15 10.13
10/27/2021 5:45:00 AM 11.58 52.844 0.125 7.21 127.44 10.14
10/27/2021 6:00:00 AM 11.59 52.862 0.126 7.25 217.06 10.13
10/27/2021 6:15:00 AM 11.59 52.862 0.127 7.2 134.44 10.13
10/27/2021 6:30:00 AM 11.6 52.88 0.127 7.2 120.39 10.13
10/27/2021 6:45:00 AM 11.6 52.88 0.129 7.2 125.3 10.14
10/27/2021 7:00:00 AM 11.61 52.898 0.13 7.19 124.77 10.14
10/27/2021 7:15:00 AM 11.61 52.898 0.132 6.98 166.43 10.14
10/27/2021 7:30:00 AM 11.61 52.898 0.132 7.25 103.92 10.14
10/27/2021 7:45:00 AM 11.62 52.916 0.133 7.12 220.99 10.15
10/27/2021 8:00:00 AM 11.62 52.916 0.135 7.22 127.98 10.15
10/27/2021 8:15:00 AM 11.62 52.916 0.136 7.19 172.01 10.16
10/27/2021 8:30:00 AM 11.62 52.916 0.137 7.25 131.18 10.17
10/27/2021 8:45:00 AM 11.62 52.916 0.138 7.23 155.34 10.18
10/27/2021 9:00:00 AM 11.62 52.916 0.139 7.22 127.86 10.18
10/27/2021 9:15:00 AM 11.62 52.916 0.139 7.16 140.35 10.19
10/27/2021 9:30:00 AM 11.62 52.916 0.139 7.29 181.04 10.21
10/27/2021 9:45:00 AM 11.61 52.898 0.139 7.24 133.51 10.22
10/27/2021 10:00:00 AM 11.6 52.88 0.14 7.27 140.96 10.22
10/27/2021 10:15:00 AM 11.6 52.88 0.141 7.25 112.42 10.24
10/27/2021 10:30:00 AM 11.6 52.88 0.142 7.3 199.34 10.25
10/27/2021 10:45:00 AM 11.6 52.88 0.143 7.25 133.2 10.26
10/27/2021 11:00:00 AM 11.61 52.898 0.146 7.29 147.33 10.27
10/27/2021 11:15:00 AM 11.62 52.916 0.146 7.1 101.28 10.29
10/27/2021 11:30:00 AM 11.65 52.97 0.147 7.3 101.93 10.3
10/27/2021 11:45:00 AM 11.67 53.006 0.146 7.3 120.88 10.3
10/27/2021 12:00:00 PM 11.71 53.078 0.148 7.01 78.34 10.31
10/27/2021 12:15:00 PM 11.74 53.132 0.147 7.3 96.24 10.32
10/27/2021 12:30:00 PM 11.79 53.222 0.149 7.2 85.66 10.34
10/27/2021 12:45:00 PM 11.84 53.312 0.149 7.09 106.65 10.34
10/27/2021 1:00:00 PM 11.89 53.402 0.15 7.36 97.32 10.35
10/27/2021 1:15:00 PM 11.94 53.492 0.151 7.33 148.84 10.37
10/27/2021 1:30:00 PM 11.99 53.582 0.151 7.31 101.18 10.38
10/27/2021 1:45:00 PM 12.04 53.672 0.151 7.3 88.17 10.39
10/27/2021 2:00:00 PM 12.09 53.762 0.152 7.32 117.84 10.4
10/27/2021 2:15:00 PM 12.14 53.852 0.153 7.32 88.88 10.42
10/27/2021 2:30:00 PM 12.2 53.96 0.153 7.12 70.93 10.42
10/27/2021 2:45:00 PM 12.26 54.068 0.153 7.4 91.86 10.43
10/27/2021 3:00:00 PM 12.32 54.176 0.155 7.38 87.15 10.42
10/27/2021 3:15:00 PM 12.37 54.266 0.157 7.25 94.03 10.43
10/27/2021 3:30:00 PM 12.42 54.356 0.158 7.37 89.93 10.42
10/27/2021 3:45:00 PM 12.47 54.446 0.159 7.39 92.66 10.42
10/27/2021 4:00:00 PM 12.52 54.536 0.159 7.34 90.82 10.41
10/27/2021 4:15:00 PM 12.56 54.608 0.159 7.4 51.63 10.38
10/27/2021 4:30:00 PM 12.59 54.662 0.161 7.4 98.13 10.39
10/27/2021 4:45:00 PM 12.62 54.716 0.16 7.4 94.73 10.37
10/27/2021 5:00:00 PM 12.65 54.77 0.161 7.38 99.67 10.36
10/27/2021 5:15:00 PM 12.67 54.806 0.162 7.4 87.17 10.33
10/27/2021 5:30:00 PM 12.68 54.824 0.162 7.41 91.8 10.33
10/27/2021 5:45:00 PM 12.69 54.842 0.163 7.37 143.83 10.31
10/27/2021 6:00:00 PM 12.7 54.86 0.162 7.38 71.16 10.29
10/27/2021 6:15:00 PM 12.72 54.896 0.163 7.43 82.78 10.28
10/27/2021 6:30:00 PM 12.73 54.914 0.164 7.42 113.03 10.23
10/27/2021 6:45:00 PM 12.75 54.95 0.163 7.36 51.27 10.21
10/27/2021 7:00:00 PM 12.75 54.95 0.164 7.42 90.55 10.2
10/27/2021 7:15:00 PM 12.75 54.95 0.165 7.41 85.2 10.18
10/27/2021 7:30:00 PM 12.74 54.932 0.165 7.42 101.8 10.16
10/27/2021 7:45:00 PM 12.73 54.914 0.165 7.31 65.87 10.16
10/27/2021 8:00:00 PM 12.7 54.86 0.166 7.43 83.77 10.13
10/27/2021 8:15:00 PM 12.68 54.824 0.167 7.43 67.84 10.12
10/27/2021 8:30:00 PM 12.65 54.77 0.168 7.39 72.16 10.13
10/27/2021 8:45:00 PM 12.61 54.698 0.169 7.31 85.85 10.12
10/27/2021 9:00:00 PM 12.56 54.608 0.169 7.41 73.26 10.09
10/27/2021 9:15:00 PM 12.52 54.536 0.169 7.42 95.37 10.06
10/27/2021 9:30:00 PM 12.47 54.446 0.171 7.21 74.05 10.1
10/27/2021 9:45:00 PM 12.41 54.338 0.171 7.43 93.14 10.09
10/27/2021 10:00:00 PM 12.34 54.212 0.17 7.43 52.55 10.11
10/27/2021 10:15:00 PM 12.27 54.086 0.169 7.42 46.18 10.09
10/27/2021 10:30:00 PM 12.2 53.96 0.171 7.41 65.79 10.08
10/27/2021 10:45:00 PM 12.12 53.816 0.172 7.42 84.69 10.14
10/27/2021 11:00:00 PM 12.04 53.672 0.173 7.42 84.07 10.18
10/27/2021 11:15:00 PM 11.96 53.528 0.175 7.4 79.23 10.16
10/27/2021 11:30:00 PM 11.89 53.402 0.175 7.39 72.02 10.15
10/27/2021 11:45:00 PM 11.81 53.258 0.176 7.39 96.47 10.21
10/28/2021 12:00:00 AM 11.73 53.114 0.175 7.38 79.29 10.23
10/28/2021 12:15:00 AM 11.66 52.988 0.176 7.31 73.21 10.21
10/28/2021 12:30:00 AM 11.59 52.862 0.175 7.41 61.54 10.26
10/28/2021 12:45:00 AM 11.52 52.736 0.175 7.43 90.54 10.28
10/28/2021 1:00:00 AM 11.45 52.61 0.176 7.43 74.86 10.28
10/28/2021 1:15:00 AM 11.38 52.484 0.177 7.08 62.56 10.33
10/28/2021 1:30:00 AM 11.31 52.358 0.177 7.43 69.28 10.34
10/28/2021 1:45:00 AM 11.25 52.25 0.178 7.43 65.83 10.36
10/28/2021 2:00:00 AM 11.19 52.142 0.178 7.43 72.22 10.36
10/28/2021 2:15:00 AM 11.13 52.034 0.177 7.42 83.35 10.37
10/28/2021 2:30:00 AM 11.07 51.926 0.179 7.42 59.87 10.39
10/28/2021 2:45:00 AM 11.02 51.836 0.181 7.42 75.5 10.4
10/28/2021 3:00:00 AM 10.96 51.728 0.18 7.42 86.6 10.41
10/28/2021 3:15:00 AM 10.91 51.638 0.18 7.43 62.04 10.43
10/28/2021 3:30:00 AM 10.86 51.548 0.181 7.41 69.31 10.43
10/28/2021 3:45:00 AM 10.81 51.458 0.182 7.44 65.63 10.43
10/28/2021 4:00:00 AM 10.76 51.368 0.182 7.44 66.13 10.46
10/28/2021 4:15:00 AM 10.71 51.278 0.181 7.42 67.19 10.47
10/28/2021 4:30:00 AM 10.67 51.206 0.183 7.43 79.24 10.47
10/28/2021 4:45:00 AM 10.62 51.116 0.185 7.41 89.28 10.49
10/28/2021 5:00:00 AM 10.58 51.044 0.186 7.42 48.13 10.51
10/28/2021 5:15:00 AM 10.54 50.972 0.186 7.4 57.65 10.5
10/28/2021 5:30:00 AM 10.51 50.918 0.187 7.4 57.83 10.52
10/28/2021 5:45:00 AM 10.47 50.846 0.187 7.38 59.15 10.54
10/28/2021 6:00:00 AM 10.44 50.792 0.187 7.42 79.31 10.54
10/28/2021 6:15:00 AM 10.41 50.738 0.187 7.45 70.97 10.55
10/28/2021 6:30:00 AM 10.37 50.666 0.186 7.34 70.97 10.56
10/28/2021 6:45:00 AM 10.34 50.612 0.187 7.44 55.01 10.57
10/28/2021 7:00:00 AM 10.31 50.558 0.187 7.46 66.91 10.58
10/28/2021 7:15:00 AM 10.29 50.522 0.188 7.45 89.31 10.59
10/28/2021 7:30:00 AM 10.25 50.45 0.188 7.44 60.56 10.6
10/28/2021 7:45:00 AM 10.23 50.414 0.189 7.46 102.4 10.61
10/28/2021 8:00:00 AM 10.2 50.36 0.19 7.44 84.1 10.61
10/28/2021 8:15:00 AM 10.18 50.324 0.186 7.44 48 10.63
10/28/2021 8:30:00 AM 10.16 50.288 0.189 7.3 67.72 10.63
10/28/2021 8:45:00 AM 10.14 50.252 0.19 7.47 94.08 10.63
10/28/2021 9:00:00 AM 10.11 50.198 0.188 7.45 63.96 10.66
10/28/2021 9:15:00 AM 10.09 50.162 0.189 7.46 77.74 10.67
10/28/2021 9:30:00 AM 10.08 50.144 0.191 7.43 111.65 10.68
10/28/2021 9:45:00 AM 10.07 50.126 0.192 7.46 103.23 10.69
10/28/2021 10:00:00 AM 10.06 50.108 0.191 7.46 75.21 10.7
10/28/2021 10:15:00 AM 10.06 50.108 0.192 7.46 65.08 10.73
10/28/2021 10:30:00 AM 10.06 50.108 0.192 7.48 86.66 10.75
10/28/2021 10:45:00 AM 10.06 50.108 0.193 7.5 78.95 10.79
10/28/2021 11:00:00 AM 10.08 50.144 0.194 7.47 81.01 10.81
10/28/2021 11:15:00 AM 10.1 50.18 0.196 7.46 97.87 10.85
10/28/2021 11:30:00 AM 10.12 50.216 0.196 7.51 96.8 10.87
10/28/2021 11:45:00 AM 10.16 50.288 0.195 7.5 160.65 10.96
10/28/2021 12:00:00 PM 10.21 50.378 0.197 7.5 75.32 10.99
10/28/2021 12:15:00 PM 10.25 50.45 0.198 7.5 116.33 10.95
10/28/2021 12:30:00 PM 10.3 50.54 0.198 7.51 75.64 11.03
10/28/2021 12:45:00 PM 10.36 50.648 0.198 7.52 110.79 11.08
10/28/2021 1:00:00 PM 10.41 50.738 0.198 7.53 113.64 11.12
10/28/2021 1:15:00 PM 10.48 50.864 0.197 7.51 126.03 11.15
10/28/2021 1:30:00 PM 10.57 51.026 0.196 7.54 146.52 11.16
10/28/2021 1:45:00 PM 10.68 51.224 0.196 7.55 65.04 11.19
10/28/2021 2:00:00 PM 10.78 51.404 0.196 7.54 478.73 11.21
10/28/2021 2:15:00 PM 10.88 51.584 0.198 7.55 62.7 11.22
10/28/2021 2:30:00 PM 10.97 51.746 0.197 7.55 94.24 11.22
10/28/2021 2:45:00 PM 11.05 51.89 0.199 7.42 112.11 11.21
10/28/2021 3:00:00 PM 11.12 52.016 0.199 7.57 78.73 11.21
10/28/2021 3:15:00 PM 11.19 52.142 0.199 7.56 71.1 11.16
10/28/2021 3:30:00 PM 11.25 52.25 0.2 7.56 66.97 11.14
10/28/2021 3:45:00 PM 11.31 52.358 0.199 7.57 78.96 11.15
10/28/2021 4:00:00 PM 11.36 52.448 0.202 7.58 76.84 11.04
10/28/2021 4:15:00 PM 11.41 52.538 0.202 7.58 67.21 11.08
10/28/2021 4:30:00 PM 11.46 52.628 0.203 7.56 53.28 11.04
10/28/2021 4:45:00 PM 11.49 52.682 0.206 7.58 75.93 10.98
10/28/2021 5:00:00 PM 11.53 52.754 0.207 7.56 56.15 10.93
10/28/2021 5:15:00 PM 11.56 52.808 0.207 7.58 53.53 10.89
10/28/2021 5:30:00 PM 11.59 52.862 0.207 7.57 62.64 10.87
10/28/2021 5:45:00 PM 11.61 52.898 0.208 7.56 71.04 10.83
10/28/2021 6:00:00 PM 11.63 52.934 0.209 7.56 70.55 10.76
10/28/2021 6:15:00 PM 11.65 52.97 0.21 7.57 52.83 10.7
10/28/2021 6:30:00 PM 11.68 53.024 0.211 7.53 73.31 10.64
10/28/2021 6:45:00 PM 11.7 53.06 0.21 7.54 84.04 10.62
10/28/2021 7:00:00 PM 11.72 53.096 0.211 7.56 62.05 10.55
10/28/2021 7:15:00 PM 11.75 53.15 0.211 7.56 61.2 10.5
10/28/2021 7:30:00 PM 11.77 53.186 0.211 7.57 74.64 10.46
10/28/2021 7:45:00 PM 11.8 53.24 0.212 7.55 86.44 10.43
10/28/2021 8:00:00 PM 11.81 53.258 0.213 7.55 63.69 10.39
10/28/2021 8:15:00 PM 11.83 53.294 0.213 7.53 59.05 10.35
10/28/2021 8:30:00 PM 11.84 53.312 0.212 7.53 54.84 10.29
10/28/2021 8:45:00 PM 11.84 53.312 0.213 7.52 95.12 10.3
10/28/2021 9:00:00 PM 11.84 53.312 0.213 7.43 81.84 10.25
10/28/2021 9:15:00 PM 11.84 53.312 0.215 7.53 118.14 10.24
10/28/2021 9:30:00 PM 11.83 53.294 0.216 7.53 71.57 10.2
10/28/2021 9:45:00 PM -99999.99 -179968 -99999.99 -99999.99 -99999.99 -99999.99
10/28/2021 10:00:00 PM -99999.99 -179968 -99999.99 -99999.99 -99999.99 -99999.99
10/28/2021 10:15:00 PM -99999.99 -179968 -99999.99 -99999.99 -99999.99 -99999.99
10/28/2021 10:30:00 PM -99999.99 -179968 -99999.99 -99999.99 -99999.99 -99999.99
10/28/2021 10:45:00 PM -99999.99 -179968 -99999.99 -99999.99 -99999.99 -99999.99
10/28/2021 11:00:00 PM -99999.99 -179968 -99999.99 -99999.99 -99999.99 -99999.99
10/28/2021 11:15:00 PM -99999.99 -179968 -99999.99 -99999.99 -99999.99 -99999.99
10/28/2021 11:30:00 PM -99999.99 -179968 -99999.99 -99999.99 -99999.99 -99999.99
10/28/2021 11:45:00 PM -99999.99 -179968 -99999.99 -99999.99 -99999.99 -99999.99
10/29/2021 12:00:00 AM -99999.99 -179968 -99999.99 -99999.99 -99999.99 -99999.99
10/29/2021 12:15:00 AM -99999.99 -179968 -99999.99 -99999.99 -99999.99 -99999.99
10/29/2021 12:30:00 AM -99999.99 -179968 -99999.99 -99999.99 -99999.99 -99999.99
10/29/2021 12:45:00 AM -99999.99 -179968 -99999.99 -99999.99 -99999.99 -99999.99
10/29/2021 1:00:00 AM -99999.99 -179968 -99999.99 -99999.99 -99999.99 -99999.99
10/29/2021 1:15:00 AM -99999.99 -179968 -99999.99 -99999.99 -99999.99 -99999.99
10/29/2021 1:30:00 AM -99999.99 -179968 -99999.99 -99999.99 -99999.99 -99999.99
10/29/2021 1:45:00 AM -99999.99 -179968 -99999.99 -99999.99 -99999.99 -99999.99
10/29/2021 2:00:00 AM -99999.99 -179968 -99999.99 -99999.99 -99999.99 -99999.99
10/29/2021 2:15:00 AM -99999.99 -179968 -99999.99 -99999.99 -99999.99 -99999.99
10/29/2021 2:30:00 AM -99999.99 -179968 -99999.99 -99999.99 -99999.99 -99999.99
10/29/2021 2:45:00 AM -99999.99 -179968 -99999.99 -99999.99 -99999.99 -99999.99
10/29/2021 3:00:00 AM -99999.99 -179968 -99999.99 -99999.99 -99999.99 -99999.99
10/29/2021 3:15:00 AM -99999.99 -179968 -99999.99 -99999.99 -99999.99 -99999.99
10/29/2021 3:30:00 AM -99999.99 -179968 -99999.99 -99999.99 -99999.99 -99999.99
10/29/2021 3:45:00 AM -99999.99 -179968 -99999.99 -99999.99 -99999.99 -99999.99
10/29/2021 4:00:00 AM -99999.99 -179968 -99999.99 -99999.99 -99999.99 -99999.99
10/29/2021 4:15:00 AM -99999.99 -179968 -99999.99 -99999.99 -99999.99 -99999.99
10/29/2021 4:30:00 AM -99999.99 -179968 -99999.99 -99999.99 -99999.99 -99999.99
10/29/2021 4:45:00 AM -99999.99 -179968 -99999.99 -99999.99 -99999.99 -99999.99
10/29/2021 5:00:00 AM -99999.99 -179968 -99999.99 -99999.99 -99999.99 -99999.99
10/29/2021 5:15:00 AM -99999.99 -179968 -99999.99 -99999.99 -99999.99 -99999.99
10/29/2021 5:30:00 AM -99999.99 -179968 -99999.99 -99999.99 -99999.99 -99999.99
10/29/2021 5:45:00 AM -99999.99 -179968 -99999.99 -99999.99 -99999.99 -99999.99
10/29/2021 6:00:00 AM -99999.99 -179968 -99999.99 -99999.99 -99999.99 -99999.99
10/29/2021 6:15:00 AM -99999.99 -179968 -99999.99 -99999.99 -99999.99 -99999.99
10/29/2021 6:30:00 AM -99999.99 -179968 -99999.99 -99999.99 -99999.99 -99999.99
10/29/2021 6:45:00 AM -99999.99 -179968 -99999.99 -99999.99 -99999.99 -99999.99
10/29/2021 7:00:00 AM -99999.99 -179968 -99999.99 -99999.99 -99999.99 -99999.99
10/29/2021 7:15:00 AM -99999.99 -179968 -99999.99 -99999.99 -99999.99 -99999.99
10/29/2021 7:30:00 AM -99999.99 -179968 -99999.99 -99999.99 -99999.99 -99999.99
10/29/2021 7:45:00 AM -99999.99 -179968 -99999.99 -99999.99 -99999.99 -99999.99
10/29/2021 8:00:00 AM -99999.99 -179968 -99999.99 -99999.99 -99999.99 -99999.99
10/29/2021 8:15:00 AM -99999.99 -179968 -99999.99 -99999.99 -99999.99 -99999.99
10/29/2021 8:30:00 AM -99999.99 -179968 -99999.99 -99999.99 -99999.99 -99999.99
10/29/2021 8:45:00 AM -99999.99 -179968 -99999.99 -99999.99 -99999.99 -99999.99
10/29/2021 9:00:00 AM -99999.99 -179968 -99999.99 -99999.99 -99999.99 -99999.99
10/29/2021 9:15:00 AM -99999.99 -179968 -99999.99 -99999.99 -99999.99 -99999.99
10/29/2021 9:30:00 AM -99999.99 -179968 -99999.99 -99999.99 -99999.99 -99999.99
10/29/2021 9:45:00 AM -99999.99 -179968 -99999.99 -99999.99 -99999.99 -99999.99
10/29/2021 10:00:00 AM -99999.99 -179968 -99999.99 -99999.99 -99999.99 -99999.99
10/29/2021 10:15:00 AM -99999.99 -179968 -99999.99 -99999.99 -99999.99 -99999.99
10/29/2021 10:30:00 AM -99999.99 -179968 -99999.99 -99999.99 -99999.99 -99999.99
10/29/2021 10:45:00 AM -99999.99 -179968 -99999.99 -99999.99 -99999.99 -99999.99
10/29/2021 11:00:00 AM -99999.99 -179968 -99999.99 -99999.99 -99999.99 -99999.99
10/29/2021 11:15:00 AM -99999.99 -179968 -99999.99 -99999.99 -99999.99 -99999.99
10/29/2021 11:30:00 AM -99999.99 -179968 -99999.99 -99999.99 -99999.99 -99999.99
10/29/2021 11:45:00 AM -99999.99 -179968 -99999.99 -99999.99 -99999.99 -99999.99
10/29/2021 12:00:00 PM -99999.99 -179968 -99999.99 -99999.99 -99999.99 -99999.99
10/29/2021 12:15:00 PM -99999.99 -179968 -99999.99 -99999.99 -99999.99 -99999.99
10/29/2021 12:30:00 PM -99999.99 -179968 -99999.99 -99999.99 -99999.99 -99999.99
10/29/2021 12:45:00 PM -99999.99 -179968 -99999.99 -99999.99 -99999.99 -99999.99
10/29/2021 1:00:00 PM -99999.99 -179968 -99999.99 -99999.99 -99999.99 -99999.99
10/29/2021 1:15:00 PM -99999.99 -179968 -99999.99 -99999.99 -99999.99 -99999.99
10/29/2021 1:30:00 PM -99999.99 -179968 -99999.99 -99999.99 -99999.99 -99999.99
10/29/2021 1:45:00 PM -99999.99 -179968 -99999.99 -99999.99 -99999.99 -99999.99
10/29/2021 2:00:00 PM -99999.99 -179968 -99999.99 -99999.99 -99999.99 -99999.99
10/29/2021 2:15:00 PM -99999.99 -179968 -99999.99 -99999.99 -99999.99 -99999.99
10/29/2021 2:30:00 PM -99999.99 -179968 -99999.99 -99999.99 -99999.99 -99999.99
10/29/2021 2:45:00 PM -99999.99 -179968 -99999.99 -99999.99 -99999.99 -99999.99
10/29/2021 3:00:00 PM -99999.99 -179968 -99999.99 -99999.99 -99999.99 -99999.99
10/29/2021 3:15:00 PM -99999.99 -179968 -99999.99 -99999.99 -99999.99 -99999.99
10/29/2021 3:30:00 PM -99999.99 -179968 -99999.99 -99999.99 -99999.99 -99999.99
10/29/2021 3:45:00 PM -99999.99 -179968 -99999.99 -99999.99 -99999.99 -99999.99
10/29/2021 4:00:00 PM -99999.99 -179968 -99999.99 -99999.99 -99999.99 -99999.99
10/29/2021 4:15:00 PM -99999.99 -179968 -99999.99 -99999.99 -99999.99 -99999.99
10/29/2021 4:30:00 PM -99999.99 -179968 -99999.99 -99999.99 -99999.99 -99999.99
10/29/2021 4:45:00 PM -99999.99 -179968 -99999.99 -99999.99 -99999.99 -99999.99
10/29/2021 5:00:00 PM -99999.99 -179968 -99999.99 -99999.99 -99999.99 -99999.99
10/29/2021 5:15:00 PM -99999.99 -179968 -99999.99 -99999.99 -99999.99 -99999.99
10/29/2021 5:30:00 PM -99999.99 -179968 -99999.99 -99999.99 -99999.99 -99999.99
10/29/2021 5:45:00 PM -99999.99 -179968 -99999.99 -99999.99 -99999.99 -99999.99
10/29/2021 6:00:00 PM -99999.99 -179968 -99999.99 -99999.99 -99999.99 -99999.99
10/29/2021 6:15:00 PM -99999.99 -179968 -99999.99 -99999.99 -99999.99 -99999.99
10/29/2021 6:30:00 PM -99999.99 -179968 -99999.99 -99999.99 -99999.99 -99999.99
10/29/2021 6:45:00 PM -99999.99 -179968 -99999.99 -99999.99 -99999.99 -99999.99
10/29/2021 7:00:00 PM -99999.99 -179968 -99999.99 -99999.99 -99999.99 -99999.99
10/29/2021 7:15:00 PM -99999.99 -179968 -99999.99 -99999.99 -99999.99 -99999.99
10/29/2021 7:30:00 PM -99999.99 -179968 -99999.99 -99999.99 -99999.99 -99999.99
10/29/2021 7:45:00 PM -99999.99 -179968 -99999.99 -99999.99 -99999.99 -99999.99
10/29/2021 8:00:00 PM -99999.99 -179968 -99999.99 -99999.99 -99999.99 -99999.99
10/29/2021 8:15:00 PM -99999.99 -179968 -99999.99 -99999.99 -99999.99 -99999.99
10/29/2021 8:30:00 PM -99999.99 -179968 -99999.99 -99999.99 -99999.99 -99999.99
10/29/2021 8:45:00 PM -99999.99 -179968 -99999.99 -99999.99 -99999.99 -99999.99
10/29/2021 9:00:00 PM -99999.99 -179968 -99999.99 -99999.99 -99999.99 -99999.99
10/29/2021 9:15:00 PM -99999.99 -179968 -99999.99 -99999.99 -99999.99 -99999.99
10/29/2021 9:30:00 PM -99999.99 -179968 -99999.99 -99999.99 -99999.99 -99999.99
10/29/2021 9:45:00 PM -99999.99 -179968 -99999.99 -99999.99 -99999.99 -99999.99
10/29/2021 10:00:00 PM -99999.99 -179968 -99999.99 -99999.99 -99999.99 -99999.99
10/29/2021 10:15:00 PM -99999.99 -179968 -99999.99 -99999.99 -99999.99 -99999.99
10/29/2021 10:30:00 PM -99999.99 -179968 -99999.99 -99999.99 -99999.99 -99999.99
10/29/2021 10:45:00 PM -99999.99 -179968 -99999.99 -99999.99 -99999.99 -99999.99
10/29/2021 11:00:00 PM -99999.99 -179968 -99999.99 -99999.99 -99999.99 -99999.99
10/29/2021 11:15:00 PM -99999.99 -179968 -99999.99 -99999.99 -99999.99 -99999.99
10/29/2021 11:30:00 PM -99999.99 -179968 -99999.99 -99999.99 -99999.99 -99999.99
10/29/2021 11:45:00 PM -99999.99 -179968 -99999.99 -99999.99 -99999.99 -99999.99
10/30/2021 12:00:00 AM -99999.99 -179968 -99999.99 -99999.99 -99999.99 -99999.99
10/30/2021 12:15:00 AM -99999.99 -179968 -99999.99 -99999.99 -99999.99 -99999.99
10/30/2021 12:30:00 AM -99999.99 -179968 -99999.99 -99999.99 -99999.99 -99999.99
10/30/2021 12:45:00 AM -99999.99 -179968 -99999.99 -99999.99 -99999.99 -99999.99
10/30/2021 1:00:00 AM -99999.99 -179968 -99999.99 -99999.99 -99999.99 -99999.99
10/30/2021 1:15:00 AM -99999.99 -179968 -99999.99 -99999.99 -99999.99 -99999.99
10/30/2021 1:30:00 AM -99999.99 -179968 -99999.99 -99999.99 -99999.99 -99999.99
10/30/2021 1:45:00 AM -99999.99 -179968 -99999.99 -99999.99 -99999.99 -99999.99
10/30/2021 2:00:00 AM -99999.99 -179968 -99999.99 -99999.99 -99999.99 -99999.99
10/30/2021 2:15:00 AM -99999.99 -179968 -99999.99 -99999.99 -99999.99 -99999.99
10/30/2021 2:30:00 AM -99999.99 -179968 -99999.99 -99999.99 -99999.99 -99999.99
10/30/2021 2:45:00 AM -99999.99 -179968 -99999.99 -99999.99 -99999.99 -99999.99
10/30/2021 3:00:00 AM -99999.99 -179968 -99999.99 -99999.99 -99999.99 -99999.99
10/30/2021 3:15:00 AM -99999.99 -179968 -99999.99 -99999.99 -99999.99 -99999.99
10/30/2021 3:30:00 AM -99999.99 -179968 -99999.99 -99999.99 -99999.99 -99999.99
10/30/2021 3:45:00 AM -99999.99 -179968 -99999.99 -99999.99 -99999.99 -99999.99
10/30/2021 4:00:00 AM -99999.99 -179968 -99999.99 -99999.99 -99999.99 -99999.99
10/30/2021 4:15:00 AM -99999.99 -179968 -99999.99 -99999.99 -99999.99 -99999.99
10/30/2021 4:30:00 AM -99999.99 -179968 -99999.99 -99999.99 -99999.99 -99999.99
10/30/2021 4:45:00 AM -99999.99 -179968 -99999.99 -99999.99 -99999.99 -99999.99
10/30/2021 5:00:00 AM -99999.99 -179968 -99999.99 -99999.99 -99999.99 -99999.99
10/30/2021 5:15:00 AM -99999.99 -179968 -99999.99 -99999.99 -99999.99 -99999.99
10/30/2021 5:30:00 AM -99999.99 -179968 -99999.99 -99999.99 -99999.99 -99999.99
10/30/2021 5:45:00 AM -99999.99 -179968 -99999.99 -99999.99 -99999.99 -99999.99
10/30/2021 6:00:00 AM -99999.99 -179968 -99999.99 -99999.99 -99999.99 -99999.99
10/30/2021 6:15:00 AM -99999.99 -179968 -99999.99 -99999.99 -99999.99 -99999.99
10/30/2021 6:30:00 AM -99999.99 -179968 -99999.99 -99999.99 -99999.99 -99999.99
10/30/2021 6:45:00 AM -99999.99 -179968 -99999.99 -99999.99 -99999.99 -99999.99
10/30/2021 7:00:00 AM -99999.99 -179968 -99999.99 -99999.99 -99999.99 -99999.99
10/30/2021 7:15:00 AM -99999.99 -179968 -99999.99 -99999.99 -99999.99 -99999.99
10/30/2021 7:30:00 AM -99999.99 -179968 -99999.99 -99999.99 -99999.99 -99999.99
10/30/2021 7:45:00 AM -99999.99 -179968 -99999.99 -99999.99 -99999.99 -99999.99
10/30/2021 8:00:00 AM -99999.99 -179968 -99999.99 -99999.99 -99999.99 -99999.99
10/30/2021 8:15:00 AM -99999.99 -179968 -99999.99 -99999.99 -99999.99 -99999.99
10/30/2021 8:30:00 AM -99999.99 -179968 -99999.99 -99999.99 -99999.99 -99999.99
10/30/2021 8:45:00 AM -99999.99 -179968 -99999.99 -99999.99 -99999.99 -99999.99
10/30/2021 9:00:00 AM -99999.99 -179968 -99999.99 -99999.99 -99999.99 -99999.99
10/30/2021 9:15:00 AM -99999.99 -179968 -99999.99 -99999.99 -99999.99 -99999.99
10/30/2021 9:30:00 AM -99999.99 -179968 -99999.99 -99999.99 -99999.99 -99999.99
10/30/2021 9:45:00 AM -99999.99 -179968 -99999.99 -99999.99 -99999.99 -99999.99
10/30/2021 10:00:00 AM -99999.99 -179968 -99999.99 -99999.99 -99999.99 -99999.99
10/30/2021 10:15:00 AM -99999.99 -179968 -99999.99 -99999.99 -99999.99 -99999.99
10/30/2021 10:30:00 AM -99999.99 -179968 -99999.99 -99999.99 -99999.99 -99999.99
10/30/2021 10:45:00 AM -99999.99 -179968 -99999.99 -99999.99 -99999.99 -99999.99
10/30/2021 11:00:00 AM -99999.99 -179968 -99999.99 -99999.99 -99999.99 -99999.99
10/30/2021 11:15:00 AM -99999.99 -179968 -99999.99 -99999.99 -99999.99 -99999.99
10/30/2021 11:30:00 AM -99999.99 -179968 -99999.99 -99999.99 -99999.99 -99999.99
10/30/2021 11:45:00 AM -99999.99 -179968 -99999.99 -99999.99 -99999.99 -99999.99
10/30/2021 12:00:00 PM -99999.99 -179968 -99999.99 -99999.99 -99999.99 -99999.99
10/30/2021 12:15:00 PM -99999.99 -179968 -99999.99 -99999.99 -99999.99 -99999.99
10/30/2021 12:30:00 PM -99999.99 -179968 -99999.99 -99999.99 -99999.99 -99999.99
10/30/2021 12:45:00 PM -99999.99 -179968 -99999.99 -99999.99 -99999.99 -99999.99
10/30/2021 1:00:00 PM -99999.99 -179968 -99999.99 -99999.99 -99999.99 -99999.99
10/30/2021 1:15:00 PM -99999.99 -179968 -99999.99 -99999.99 -99999.99 -99999.99
10/30/2021 1:30:00 PM -99999.99 -179968 -99999.99 -99999.99 -99999.99 -99999.99
10/30/2021 1:45:00 PM -99999.99 -179968 -99999.99 -99999.99 -99999.99 -99999.99
10/30/2021 2:00:00 PM -99999.99 -179968 -99999.99 -99999.99 -99999.99 -99999.99
10/30/2021 2:15:00 PM -99999.99 -179968 -99999.99 -99999.99 -99999.99 -99999.99
10/30/2021 2:30:00 PM -99999.99 -179968 -99999.99 -99999.99 -99999.99 -99999.99
10/30/2021 2:45:00 PM -99999.99 -179968 -99999.99 -99999.99 -99999.99 -99999.99
10/30/2021 3:00:00 PM -99999.99 -179968 -99999.99 -99999.99 -99999.99 -99999.99
10/30/2021 3:15:00 PM -99999.99 -179968 -99999.99 -99999.99 -99999.99 -99999.99
10/30/2021 3:30:00 PM -99999.99 -179968 -99999.99 -99999.99 -99999.99 -99999.99
10/30/2021 3:45:00 PM -99999.99 -179968 -99999.99 -99999.99 -99999.99 -99999.99
10/30/2021 4:00:00 PM -99999.99 -179968 -99999.99 -99999.99 -99999.99 -99999.99
10/30/2021 4:15:00 PM -99999.99 -179968 -99999.99 -99999.99 -99999.99 -99999.99
10/30/2021 4:30:00 PM -99999.99 -179968 -99999.99 -99999.99 -99999.99 -99999.99
10/30/2021 4:45:00 PM -99999.99 -179968 -99999.99 -99999.99 -99999.99 -99999.99
10/30/2021 5:00:00 PM -99999.99 -179968 -99999.99 -99999.99 -99999.99 -99999.99
10/30/2021 5:15:00 PM -99999.99 -179968 -99999.99 -99999.99 -99999.99 -99999.99
10/30/2021 5:30:00 PM -99999.99 -179968 -99999.99 -99999.99 -99999.99 -99999.99
10/30/2021 5:45:00 PM -99999.99 -179968 -99999.99 -99999.99 -99999.99 -99999.99
10/30/2021 6:00:00 PM -99999.99 -179968 -99999.99 -99999.99 -99999.99 -99999.99
10/30/2021 6:15:00 PM -99999.99 -179968 -99999.99 -99999.99 -99999.99 -99999.99
10/30/2021 6:30:00 PM -99999.99 -179968 -99999.99 -99999.99 -99999.99 -99999.99
10/30/2021 6:45:00 PM -99999.99 -179968 -99999.99 -99999.99 -99999.99 -99999.99
10/30/2021 7:00:00 PM -99999.99 -179968 -99999.99 -99999.99 -99999.99 -99999.99
10/30/2021 7:15:00 PM -99999.99 -179968 -99999.99 -99999.99 -99999.99 -99999.99
10/30/2021 7:30:00 PM -99999.99 -179968 -99999.99 -99999.99 -99999.99 -99999.99
10/30/2021 7:45:00 PM -99999.99 -179968 -99999.99 -99999.99 -99999.99 -99999.99
10/30/2021 8:00:00 PM -99999.99 -179968 -99999.99 -99999.99 -99999.99 -99999.99
10/30/2021 8:15:00 PM -99999.99 -179968 -99999.99 -99999.99 -99999.99 -99999.99
10/30/2021 8:30:00 PM -99999.99 -179968 -99999.99 -99999.99 -99999.99 -99999.99
10/30/2021 8:45:00 PM -99999.99 -179968 -99999.99 -99999.99 -99999.99 -99999.99
10/30/2021 9:00:00 PM -99999.99 -179968 -99999.99 -99999.99 -99999.99 -99999.99
10/30/2021 9:15:00 PM -99999.99 -179968 -99999.99 -99999.99 -99999.99 -99999.99
10/30/2021 9:30:00 PM -99999.99 -179968 -99999.99 -99999.99 -99999.99 -99999.99
10/30/2021 9:45:00 PM -99999.99 -179968 -99999.99 -99999.99 -99999.99 -99999.99
10/30/2021 10:00:00 PM -99999.99 -179968 -99999.99 -99999.99 -99999.99 -99999.99
10/30/2021 10:15:00 PM -99999.99 -179968 -99999.99 -99999.99 -99999.99 -99999.99
10/30/2021 10:30:00 PM -99999.99 -179968 -99999.99 -99999.99 -99999.99 -99999.99
10/30/2021 10:45:00 PM -99999.99 -179968 -99999.99 -99999.99 -99999.99 -99999.99
10/30/2021 11:00:00 PM -99999.99 -179968 -99999.99 -99999.99 -99999.99 -99999.99
10/30/2021 11:15:00 PM -99999.99 -179968 -99999.99 -99999.99 -99999.99 -99999.99
10/30/2021 11:30:00 PM -99999.99 -179968 -99999.99 -99999.99 -99999.99 -99999.99
10/30/2021 11:45:00 PM -99999.99 -179968 -99999.99 -99999.99 -99999.99 -99999.99
10/31/2021 12:00:00 AM -99999.99 -179968 -99999.99 -99999.99 -99999.99 -99999.99
10/31/2021 12:15:00 AM -99999.99 -179968 -99999.99 -99999.99 -99999.99 -99999.99
10/31/2021 12:30:00 AM -99999.99 -179968 -99999.99 -99999.99 -99999.99 -99999.99
10/31/2021 12:45:00 AM -99999.99 -179968 -99999.99 -99999.99 -99999.99 -99999.99
10/31/2021 1:00:00 AM -99999.99 -179968 -99999.99 -99999.99 -99999.99 -99999.99
10/31/2021 1:15:00 AM -99999.99 -179968 -99999.99 -99999.99 -99999.99 -99999.99
10/31/2021 1:30:00 AM -99999.99 -179968 -99999.99 -99999.99 -99999.99 -99999.99
10/31/2021 1:45:00 AM -99999.99 -179968 -99999.99 -99999.99 -99999.99 -99999.99
10/31/2021 2:00:00 AM -99999.99 -179968 -99999.99 -99999.99 -99999.99 -99999.99
10/31/2021 2:15:00 AM -99999.99 -179968 -99999.99 -99999.99 -99999.99 -99999.99
10/31/2021 2:30:00 AM -99999.99 -179968 -99999.99 -99999.99 -99999.99 -99999.99
10/31/2021 2:45:00 AM -99999.99 -179968 -99999.99 -99999.99 -99999.99 -99999.99
10/31/2021 3:00:00 AM -99999.99 -179968 -99999.99 -99999.99 -99999.99 -99999.99
10/31/2021 3:15:00 AM -99999.99 -179968 -99999.99 -99999.99 -99999.99 -99999.99
10/31/2021 3:30:00 AM -99999.99 -179968 -99999.99 -99999.99 -99999.99 -99999.99
10/31/2021 3:45:00 AM -99999.99 -179968 -99999.99 -99999.99 -99999.99 -99999.99
10/31/2021 4:00:00 AM -99999.99 -179968 -99999.99 -99999.99 -99999.99 -99999.99
10/31/2021 4:15:00 AM -99999.99 -179968 -99999.99 -99999.99 -99999.99 -99999.99
10/31/2021 4:30:00 AM -99999.99 -179968 -99999.99 -99999.99 -99999.99 -99999.99
10/31/2021 4:45:00 AM -99999.99 -179968 -99999.99 -99999.99 -99999.99 -99999.99
10/31/2021 5:00:00 AM -99999.99 -179968 -99999.99 -99999.99 -99999.99 -99999.99
10/31/2021 5:15:00 AM -99999.99 -179968 -99999.99 -99999.99 -99999.99 -99999.99
10/31/2021 5:30:00 AM -99999.99 -179968 -99999.99 -99999.99 -99999.99 -99999.99
10/31/2021 5:45:00 AM -99999.99 -179968 -99999.99 -99999.99 -99999.99 -99999.99
10/31/2021 6:00:00 AM -99999.99 -179968 -99999.99 -99999.99 -99999.99 -99999.99
10/31/2021 6:15:00 AM -99999.99 -179968 -99999.99 -99999.99 -99999.99 -99999.99
10/31/2021 6:30:00 AM -99999.99 -179968 -99999.99 -99999.99 -99999.99 -99999.99
10/31/2021 6:45:00 AM -99999.99 -179968 -99999.99 -99999.99 -99999.99 -99999.99
10/31/2021 7:00:00 AM -99999.99 -179968 -99999.99 -99999.99 -99999.99 -99999.99
10/31/2021 7:15:00 AM -99999.99 -179968 -99999.99 -99999.99 -99999.99 -99999.99
10/31/2021 7:30:00 AM -99999.99 -179968 -99999.99 -99999.99 -99999.99 -99999.99
10/31/2021 7:45:00 AM -99999.99 -179968 -99999.99 -99999.99 -99999.99 -99999.99
10/31/2021 8:00:00 AM -99999.99 -179968 -99999.99 -99999.99 -99999.99 -99999.99
10/31/2021 8:15:00 AM -99999.99 -179968 -99999.99 -99999.99 -99999.99 -99999.99
10/31/2021 8:30:00 AM -99999.99 -179968 -99999.99 -99999.99 -99999.99 -99999.99
10/31/2021 8:45:00 AM -99999.99 -179968 -99999.99 -99999.99 -99999.99 -99999.99
10/31/2021 9:00:00 AM -99999.99 -179968 -99999.99 -99999.99 -99999.99 -99999.99
10/31/2021 9:15:00 AM -99999.99 -179968 -99999.99 -99999.99 -99999.99 -99999.99
10/31/2021 9:30:00 AM -99999.99 -179968 -99999.99 -99999.99 -99999.99 -99999.99
10/31/2021 9:45:00 AM -99999.99 -179968 -99999.99 -99999.99 -99999.99 -99999.99
10/31/2021 10:00:00 AM -99999.99 -179968 -99999.99 -99999.99 -99999.99 -99999.99
10/31/2021 10:15:00 AM -99999.99 -179968 -99999.99 -99999.99 -99999.99 -99999.99
10/31/2021 10:30:00 AM -99999.99 -179968 -99999.99 -99999.99 -99999.99 -99999.99
10/31/2021 10:45:00 AM -99999.99 -179968 -99999.99 -99999.99 -99999.99 -99999.99
10/31/2021 11:00:00 AM -99999.99 -179968 -99999.99 -99999.99 -99999.99 -99999.99
10/31/2021 11:15:00 AM -99999.99 -179968 -99999.99 -99999.99 -99999.99 -99999.99
10/31/2021 11:30:00 AM -99999.99 -179968 -99999.99 -99999.99 -99999.99 -99999.99
10/31/2021 11:45:00 AM -99999.99 -179968 -99999.99 -99999.99 -99999.99 -99999.99
10/31/2021 12:00:00 PM -99999.99 -179968 -99999.99 -99999.99 -99999.99 -99999.99
10/31/2021 12:15:00 PM -99999.99 -179968 -99999.99 -99999.99 -99999.99 -99999.99
10/31/2021 12:30:00 PM -99999.99 -179968 -99999.99 -99999.99 -99999.99 -99999.99
10/31/2021 12:45:00 PM -99999.99 -179968 -99999.99 -99999.99 -99999.99 -99999.99
10/31/2021 1:00:00 PM -99999.99 -179968 -99999.99 -99999.99 -99999.99 -99999.99
10/31/2021 1:15:00 PM -99999.99 -179968 -99999.99 -99999.99 -99999.99 -99999.99
10/31/2021 1:30:00 PM -99999.99 -179968 -99999.99 -99999.99 -99999.99 -99999.99
10/31/2021 1:45:00 PM -99999.99 -179968 -99999.99 -99999.99 -99999.99 -99999.99
10/31/2021 2:00:00 PM -99999.99 -179968 -99999.99 -99999.99 -99999.99 -99999.99
10/31/2021 2:15:00 PM -99999.99 -179968 -99999.99 -99999.99 -99999.99 -99999.99
10/31/2021 2:30:00 PM -99999.99 -179968 -99999.99 -99999.99 -99999.99 -99999.99
10/31/2021 2:45:00 PM -99999.99 -179968 -99999.99 -99999.99 -99999.99 -99999.99
10/31/2021 3:00:00 PM -99999.99 -179968 -99999.99 -99999.99 -99999.99 -99999.99
10/31/2021 3:15:00 PM -99999.99 -179968 -99999.99 -99999.99 -99999.99 -99999.99
10/31/2021 3:30:00 PM -99999.99 -179968 -99999.99 -99999.99 -99999.99 -99999.99
10/31/2021 3:45:00 PM -99999.99 -179968 -99999.99 -99999.99 -99999.99 -99999.99
10/31/2021 4:00:00 PM -99999.99 -179968 -99999.99 -99999.99 -99999.99 -99999.99
10/31/2021 4:15:00 PM -99999.99 -179968 -99999.99 -99999.99 -99999.99 -99999.99
10/31/2021 4:30:00 PM -99999.99 -179968 -99999.99 -99999.99 -99999.99 -99999.99
10/31/2021 4:45:00 PM -99999.99 -179968 -99999.99 -99999.99 -99999.99 -99999.99
10/31/2021 5:00:00 PM -99999.99 -179968 -99999.99 -99999.99 -99999.99 -99999.99
10/31/2021 5:15:00 PM -99999.99 -179968 -99999.99 -99999.99 -99999.99 -99999.99
10/31/2021 5:30:00 PM -99999.99 -179968 -99999.99 -99999.99 -99999.99 -99999.99
10/31/2021 5:45:00 PM -99999.99 -179968 -99999.99 -99999.99 -99999.99 -99999.99
10/31/2021 6:00:00 PM -99999.99 -179968 -99999.99 -99999.99 -99999.99 -99999.99
10/31/2021 6:15:00 PM -99999.99 -179968 -99999.99 -99999.99 -99999.99 -99999.99
10/31/2021 6:30:00 PM -99999.99 -179968 -99999.99 -99999.99 -99999.99 -99999.99
10/31/2021 6:45:00 PM -99999.99 -179968 -99999.99 -99999.99 -99999.99 -99999.99
10/31/2021 7:00:00 PM -99999.99 -179968 -99999.99 -99999.99 -99999.99 -99999.99
10/31/2021 7:15:00 PM -99999.99 -179968 -99999.99 -99999.99 -99999.99 -99999.99
10/31/2021 7:30:00 PM -99999.99 -179968 -99999.99 -99999.99 -99999.99 -99999.99
10/31/2021 7:45:00 PM -99999.99 -179968 -99999.99 -99999.99 -99999.99 -99999.99
10/31/2021 8:00:00 PM -99999.99 -179968 -99999.99 -99999.99 -99999.99 -99999.99
10/31/2021 8:15:00 PM -99999.99 -179968 -99999.99 -99999.99 -99999.99 -99999.99
10/31/2021 8:30:00 PM -99999.99 -179968 -99999.99 -99999.99 -99999.99 -99999.99
10/31/2021 8:45:00 PM -99999.99 -179968 -99999.99 -99999.99 -99999.99 -99999.99
10/31/2021 9:00:00 PM -99999.99 -179968 -99999.99 -99999.99 -99999.99 -99999.99
10/31/2021 9:15:00 PM -99999.99 -179968 -99999.99 -99999.99 -99999.99 -99999.99
10/31/2021 9:30:00 PM -99999.99 -179968 -99999.99 -99999.99 -99999.99 -99999.99
10/31/2021 9:45:00 PM -99999.99 -179968 -99999.99 -99999.99 -99999.99 -99999.99
10/31/2021 10:00:00 PM -99999.99 -179968 -99999.99 -99999.99 -99999.99 -99999.99
10/31/2021 10:15:00 PM -99999.99 -179968 -99999.99 -99999.99 -99999.99 -99999.99
10/31/2021 10:30:00 PM -99999.99 -179968 -99999.99 -99999.99 -99999.99 -99999.99
10/31/2021 10:45:00 PM -99999.99 -179968 -99999.99 -99999.99 -99999.99 -99999.99
10/31/2021 11:00:00 PM -99999.99 -179968 -99999.99 -99999.99 -99999.99 -99999.99
10/31/2021 11:15:00 PM -99999.99 -179968 -99999.99 -99999.99 -99999.99 -99999.99
10/31/2021 11:30:00 PM -99999.99 -179968 -99999.99 -99999.99 -99999.99 -99999.99
10/31/2021 11:45:00 PM -99999.99 -179968 -99999.99 -99999.99 -99999.99 -99999.99
11/1/2021 12:00:00 AM -99999.99 -179968 -99999.99 -99999.99 -99999.99 -99999.99
11/1/2021 12:15:00 AM -99999.99 -179968 -99999.99 -99999.99 -99999.99 -99999.99
11/1/2021 12:30:00 AM -99999.99 -179968 -99999.99 -99999.99 -99999.99 -99999.99
11/1/2021 12:45:00 AM -99999.99 -179968 -99999.99 -99999.99 -99999.99 -99999.99
11/1/2021 1:00:00 AM -99999.99 -179968 -99999.99 -99999.99 -99999.99 -99999.99
11/1/2021 1:15:00 AM -99999.99 -179968 -99999.99 -99999.99 -99999.99 -99999.99
11/1/2021 1:30:00 AM -99999.99 -179968 -99999.99 -99999.99 -99999.99 -99999.99
11/1/2021 1:45:00 AM -99999.99 -179968 -99999.99 -99999.99 -99999.99 -99999.99
11/1/2021 2:00:00 AM -99999.99 -179968 -99999.99 -99999.99 -99999.99 -99999.99
11/1/2021 2:15:00 AM -99999.99 -179968 -99999.99 -99999.99 -99999.99 -99999.99
11/1/2021 2:30:00 AM -99999.99 -179968 -99999.99 -99999.99 -99999.99 -99999.99
11/1/2021 2:45:00 AM -99999.99 -179968 -99999.99 -99999.99 -99999.99 -99999.99
11/1/2021 3:00:00 AM -99999.99 -179968 -99999.99 -99999.99 -99999.99 -99999.99
11/1/2021 3:15:00 AM -99999.99 -179968 -99999.99 -99999.99 -99999.99 -99999.99
11/1/2021 3:30:00 AM -99999.99 -179968 -99999.99 -99999.99 -99999.99 -99999.99
11/1/2021 3:45:00 AM -99999.99 -179968 -99999.99 -99999.99 -99999.99 -99999.99
11/1/2021 4:00:00 AM -99999.99 -179968 -99999.99 -99999.99 -99999.99 -99999.99
11/1/2021 4:15:00 AM -99999.99 -179968 -99999.99 -99999.99 -99999.99 -99999.99
11/1/2021 4:30:00 AM -99999.99 -179968 -99999.99 -99999.99 -99999.99 -99999.99
11/1/2021 4:45:00 AM -99999.99 -179968 -99999.99 -99999.99 -99999.99 -99999.99
11/1/2021 5:00:00 AM -99999.99 -179968 -99999.99 -99999.99 -99999.99 -99999.99
11/1/2021 5:15:00 AM -99999.99 -179968 -99999.99 -99999.99 -99999.99 -99999.99
11/1/2021 5:30:00 AM -99999.99 -179968 -99999.99 -99999.99 -99999.99 -99999.99
11/1/2021 5:45:00 AM -99999.99 -179968 -99999.99 -99999.99 -99999.99 -99999.99
11/1/2021 6:00:00 AM -99999.99 -179968 -99999.99 -99999.99 -99999.99 -99999.99
11/1/2021 6:15:00 AM -99999.99 -179968 -99999.99 -99999.99 -99999.99 -99999.99
11/1/2021 6:30:00 AM -99999.99 -179968 -99999.99 -99999.99 -99999.99 -99999.99
11/1/2021 6:45:00 AM -99999.99 -179968 -99999.99 -99999.99 -99999.99 -99999.99
11/1/2021 7:00:00 AM -99999.99 -179968 -99999.99 -99999.99 -99999.99 -99999.99
11/1/2021 7:15:00 AM -99999.99 -179968 -99999.99 -99999.99 -99999.99 -99999.99
11/1/2021 7:30:00 AM -99999.99 -179968 -99999.99 -99999.99 -99999.99 -99999.99
11/1/2021 7:45:00 AM -99999.99 -179968 -99999.99 -99999.99 -99999.99 -99999.99
11/1/2021 8:00:00 AM -99999.99 -179968 -99999.99 -99999.99 -99999.99 -99999.99
11/1/2021 8:15:00 AM -99999.99 -179968 -99999.99 -99999.99 -99999.99 -99999.99
11/1/2021 8:30:00 AM -99999.99 -179968 -99999.99 -99999.99 -99999.99 -99999.99
11/1/2021 8:45:00 AM -99999.99 -179968 -99999.99 -99999.99 -99999.99 -99999.99
11/1/2021 9:00:00 AM -99999.99 -179968 -99999.99 -99999.99 -99999.99 -99999.99
11/1/2021 9:15:00 AM -99999.99 -179968 -99999.99 -99999.99 -99999.99 -99999.99
11/1/2021 9:30:00 AM -99999.99 -179968 -99999.99 -99999.99 -99999.99 -99999.99
11/1/2021 9:45:00 AM -99999.99 -179968 -99999.99 -99999.99 -99999.99 -99999.99
11/1/2021 10:00:00 AM -99999.99 -179968 -99999.99 -99999.99 -99999.99 -99999.99
11/1/2021 10:15:00 AM -99999.99 -179968 -99999.99 -99999.99 -99999.99 -99999.99
11/1/2021 10:30:00 AM -99999.99 -179968 -99999.99 -99999.99 -99999.99 -99999.99
11/1/2021 10:45:00 AM -99999.99 -179968 -99999.99 -99999.99 -99999.99 -99999.99
11/1/2021 11:00:00 AM -99999.99 -179968 -99999.99 -99999.99 -99999.99 -99999.99
11/1/2021 11:15:00 AM -99999.99 -179968 -99999.99 -99999.99 -99999.99 -99999.99
11/1/2021 11:30:00 AM -99999.99 -179968 -99999.99 -99999.99 -99999.99 -99999.99
11/1/2021 11:45:00 AM -99999.99 -179968 -99999.99 -99999.99 -99999.99 -99999.99
11/1/2021 12:00:00 PM -99999.99 -179968 -99999.99 -99999.99 -99999.99 -99999.99
11/1/2021 12:15:00 PM -99999.99 -179968 -99999.99 -99999.99 -99999.99 -99999.99
11/1/2021 12:30:00 PM -99999.99 -179968 -99999.99 -99999.99 -99999.99 -99999.99
11/1/2021 12:45:00 PM -99999.99 -179968 -99999.99 -99999.99 -99999.99 -99999.99
11/1/2021 1:00:00 PM -99999.99 -179968 -99999.99 -99999.99 -99999.99 -99999.99
11/1/2021 1:15:00 PM -99999.99 -179968 -99999.99 -99999.99 -99999.99 -99999.99
11/1/2021 1:30:00 PM -99999.99 -179968 -99999.99 -99999.99 -99999.99 -99999.99
11/1/2021 1:45:00 PM -99999.99 -179968 -99999.99 -99999.99 -99999.99 -99999.99
11/1/2021 2:00:00 PM -99999.99 -179968 -99999.99 -99999.99 -99999.99 -99999.99
11/1/2021 2:15:00 PM -99999.99 -179968 -99999.99 -99999.99 -99999.99 -99999.99
11/1/2021 2:30:00 PM -99999.99 -179968 -99999.99 -99999.99 -99999.99 -99999.99
11/1/2021 2:45:00 PM -99999.99 -179968 -99999.99 -99999.99 -99999.99 -99999.99
11/1/2021 3:00:00 PM -99999.99 -179968 -99999.99 -99999.99 -99999.99 -99999.99
11/1/2021 3:15:00 PM -99999.99 -179968 -99999.99 -99999.99 -99999.99 -99999.99
11/1/2021 3:30:00 PM -99999.99 -179968 -99999.99 -99999.99 -99999.99 -99999.99
11/1/2021 3:45:00 PM -99999.99 -179968 -99999.99 -99999.99 -99999.99 -99999.99
11/1/2021 4:00:00 PM -99999.99 -179968 -99999.99 -99999.99 -99999.99 -99999.99
11/1/2021 4:15:00 PM -99999.99 -179968 -99999.99 -99999.99 -99999.99 -99999.99
11/1/2021 4:30:00 PM -99999.99 -179968 -99999.99 -99999.99 -99999.99 -99999.99
11/1/2021 4:45:00 PM -99999.99 -179968 -99999.99 -99999.99 -99999.99 -99999.99
11/1/2021 5:00:00 PM -99999.99 -179968 -99999.99 -99999.99 -99999.99 -99999.99
11/1/2021 5:15:00 PM -99999.99 -179968 -99999.99 -99999.99 -99999.99 -99999.99
11/1/2021 5:30:00 PM -99999.99 -179968 -99999.99 -99999.99 -99999.99 -99999.99
11/1/2021 5:45:00 PM -99999.99 -179968 -99999.99 -99999.99 -99999.99 -99999.99
11/1/2021 6:00:00 PM -99999.99 -179968 -99999.99 -99999.99 -99999.99 -99999.99
11/1/2021 6:15:00 PM -99999.99 -179968 -99999.99 -99999.99 -99999.99 -99999.99
11/1/2021 6:30:00 PM -99999.99 -179968 -99999.99 -99999.99 -99999.99 -99999.99
11/1/2021 6:45:00 PM -99999.99 -179968 -99999.99 -99999.99 -99999.99 -99999.99
11/1/2021 7:00:00 PM -99999.99 -179968 -99999.99 -99999.99 -99999.99 -99999.99
11/1/2021 7:15:00 PM -99999.99 -179968 -99999.99 -99999.99 -99999.99 -99999.99
11/1/2021 7:30:00 PM -99999.99 -179968 -99999.99 -99999.99 -99999.99 -99999.99
11/1/2021 7:45:00 PM -99999.99 -179968 -99999.99 -99999.99 -99999.99 -99999.99
11/1/2021 8:00:00 PM -99999.99 -179968 -99999.99 -99999.99 -99999.99 -99999.99
11/1/2021 8:15:00 PM -99999.99 -179968 -99999.99 -99999.99 -99999.99 -99999.99
11/1/2021 8:30:00 PM -99999.99 -179968 -99999.99 -99999.99 -99999.99 -99999.99
11/1/2021 8:45:00 PM -99999.99 -179968 -99999.99 -99999.99 -99999.99 -99999.99
11/1/2021 9:00:00 PM -99999.99 -179968 -99999.99 -99999.99 -99999.99 -99999.99
11/1/2021 9:15:00 PM -99999.99 -179968 -99999.99 -99999.99 -99999.99 -99999.99
11/1/2021 9:30:00 PM -99999.99 -179968 -99999.99 -99999.99 -99999.99 -99999.99
11/1/2021 9:45:00 PM -99999.99 -179968 -99999.99 -99999.99 -99999.99 -99999.99
11/1/2021 10:00:00 PM -99999.99 -179968 -99999.99 -99999.99 -99999.99 -99999.99
11/1/2021 10:15:00 PM -99999.99 -179968 -99999.99 -99999.99 -99999.99 -99999.99
11/1/2021 10:30:00 PM -99999.99 -179968 -99999.99 -99999.99 -99999.99 -99999.99
11/1/2021 10:45:00 PM -99999.99 -179968 -99999.99 -99999.99 -99999.99 -99999.99
11/1/2021 11:00:00 PM -99999.99 -179968 -99999.99 -99999.99 -99999.99 -99999.99
11/1/2021 11:15:00 PM -99999.99 -179968 -99999.99 -99999.99 -99999.99 -99999.99
11/1/2021 11:30:00 PM -99999.99 -179968 -99999.99 -99999.99 -99999.99 -99999.99
11/1/2021 11:45:00 PM -99999.99 -179968 -99999.99 -99999.99 -99999.99 -99999.99
11/2/2021 12:00:00 AM -99999.99 -179968 -99999.99 -99999.99 -99999.99 -99999.99
11/2/2021 12:15:00 AM -99999.99 -179968 -99999.99 -99999.99 -99999.99 -99999.99
11/2/2021 12:30:00 AM -99999.99 -179968 -99999.99 -99999.99 -99999.99 -99999.99
11/2/2021 12:45:00 AM -99999.99 -179968 -99999.99 -99999.99 -99999.99 -99999.99
11/2/2021 1:00:00 AM -99999.99 -179968 -99999.99 -99999.99 -99999.99 -99999.99
11/2/2021 1:15:00 AM -99999.99 -179968 -99999.99 -99999.99 -99999.99 -99999.99
11/2/2021 1:30:00 AM -99999.99 -179968 -99999.99 -99999.99 -99999.99 -99999.99
11/2/2021 1:45:00 AM -99999.99 -179968 -99999.99 -99999.99 -99999.99 -99999.99
11/2/2021 2:00:00 AM -99999.99 -179968 -99999.99 -99999.99 -99999.99 -99999.99
11/2/2021 2:15:00 AM -99999.99 -179968 -99999.99 -99999.99 -99999.99 -99999.99
11/2/2021 2:30:00 AM -99999.99 -179968 -99999.99 -99999.99 -99999.99 -99999.99
11/2/2021 2:45:00 AM -99999.99 -179968 -99999.99 -99999.99 -99999.99 -99999.99
11/2/2021 3:00:00 AM -99999.99 -179968 -99999.99 -99999.99 -99999.99 -99999.99
11/2/2021 3:15:00 AM -99999.99 -179968 -99999.99 -99999.99 -99999.99 -99999.99
11/2/2021 3:30:00 AM -99999.99 -179968 -99999.99 -99999.99 -99999.99 -99999.99
11/2/2021 3:45:00 AM -99999.99 -179968 -99999.99 -99999.99 -99999.99 -99999.99
11/2/2021 4:00:00 AM -99999.99 -179968 -99999.99 -99999.99 -99999.99 -99999.99
11/2/2021 4:15:00 AM -99999.99 -179968 -99999.99 -99999.99 -99999.99 -99999.99
11/2/2021 4:30:00 AM -99999.99 -179968 -99999.99 -99999.99 -99999.99 -99999.99
11/2/2021 4:45:00 AM -99999.99 -179968 -99999.99 -99999.99 -99999.99 -99999.99
11/2/2021 5:00:00 AM -99999.99 -179968 -99999.99 -99999.99 -99999.99 -99999.99
11/2/2021 5:15:00 AM -99999.99 -179968 -99999.99 -99999.99 -99999.99 -99999.99
11/2/2021 5:30:00 AM -99999.99 -179968 -99999.99 -99999.99 -99999.99 -99999.99
11/2/2021 5:45:00 AM -99999.99 -179968 -99999.99 -99999.99 -99999.99 -99999.99
11/2/2021 6:00:00 AM -99999.99 -179968 -99999.99 -99999.99 -99999.99 -99999.99
11/2/2021 6:15:00 AM -99999.99 -179968 -99999.99 -99999.99 -99999.99 -99999.99
11/2/2021 6:30:00 AM -99999.99 -179968 -99999.99 -99999.99 -99999.99 -99999.99
11/2/2021 6:45:00 AM -99999.99 -179968 -99999.99 -99999.99 -99999.99 -99999.99
11/2/2021 7:00:00 AM -99999.99 -179968 -99999.99 -99999.99 -99999.99 -99999.99
11/2/2021 7:15:00 AM -99999.99 -179968 -99999.99 -99999.99 -99999.99 -99999.99
11/2/2021 7:30:00 AM -99999.99 -179968 -99999.99 -99999.99 -99999.99 -99999.99
11/2/2021 7:45:00 AM -99999.99 -179968 -99999.99 -99999.99 -99999.99 -99999.99
11/2/2021 8:00:00 AM -99999.99 -179968 -99999.99 -99999.99 -99999.99 -99999.99
11/2/2021 8:15:00 AM -99999.99 -179968 -99999.99 -99999.99 -99999.99 -99999.99
11/2/2021 8:30:00 AM -99999.99 -179968 -99999.99 -99999.99 -99999.99 -99999.99
11/2/2021 8:45:00 AM -99999.99 -179968 -99999.99 -99999.99 -99999.99 -99999.99
11/2/2021 9:00:00 AM -99999.99 -179968 -99999.99 -99999.99 -99999.99 -99999.99
11/2/2021 9:15:00 AM -99999.99 -179968 -99999.99 -99999.99 -99999.99 -99999.99
11/2/2021 9:30:00 AM 10.36 50.648 0.296 7.31 11.99 10.53
11/2/2021 9:45:00 AM 10.35 50.63 0.294 7.38 11.6 10.54
11/2/2021 10:00:00 AM 10.35 50.63 0.294 7.32 12.87 10.57
11/2/2021 10:15:00 AM 10.36 50.648 0.294 7.43 10.65 10.6
11/2/2021 10:30:00 AM 10.37 50.666 0.294 7.4 10.47 10.64
11/2/2021 10:45:00 AM 10.39 50.702 0.295 7.39 11.86 10.67
11/2/2021 11:00:00 AM 10.41 50.738 0.296 7.37 10.26 10.72
11/2/2021 11:15:00 AM 10.46 50.828 0.296 7.48 10.32 10.77
11/2/2021 11:30:00 AM 10.48 50.864 0.296 7.44 10.86 10.8
11/2/2021 11:45:00 AM 10.48 50.864 0.296 7.34 9.85 10.82
11/2/2021 12:00:00 PM 10.51 50.918 0.297 7.39 10.14 10.85
11/2/2021 12:15:00 PM 10.57 51.026 0.297 7.41 9.79 10.88
11/2/2021 12:30:00 PM 10.65 51.17 0.298 7.44 9.65 10.91
11/2/2021 12:45:00 PM 10.68 51.224 0.298 7.4 9.65 10.92
11/2/2021 1:00:00 PM 10.7 51.26 0.298 7.44 9.8 10.92
11/2/2021 1:15:00 PM 10.71 51.278 0.299 7.42 9.43 10.94
11/2/2021 1:30:00 PM 10.74 51.332 0.299 7.44 8.76 10.94
11/2/2021 1:45:00 PM 10.75 51.35 0.3 7.41 9.72 10.94
11/2/2021 2:00:00 PM 10.76 51.368 0.3 7.39 9.29 10.92
11/2/2021 2:15:00 PM 10.76 51.368 0.3 7.43 10.21 10.93
11/2/2021 2:30:00 PM 10.78 51.404 0.3 7.43 9.09 10.93
11/2/2021 2:45:00 PM 10.81 51.458 0.301 7.42 9.84 10.92
11/2/2021 3:00:00 PM 10.83 51.494 0.302 7.43 10.47 10.92
11/2/2021 3:15:00 PM 10.87 51.566 0.303 7.42 9.38 10.91
11/2/2021 3:30:00 PM 10.9 51.62 0.302 7.42 9.67 10.92
11/2/2021 3:45:00 PM 10.9 51.62 0.304 7.41 10.35 10.91
11/2/2021 4:00:00 PM 10.91 51.638 0.304 7.43 9 10.92
11/2/2021 4:15:00 PM 10.93 51.674 0.304 7.42 9.71 10.91
11/2/2021 4:30:00 PM 10.93 51.674 0.304 7.49 10.15 10.9
11/2/2021 4:45:00 PM 10.93 51.674 0.305 7.43 9.9 10.87
11/2/2021 5:00:00 PM 10.91 51.638 0.305 7.42 8.89 10.85
11/2/2021 5:15:00 PM 10.91 51.638 0.306 7.43 9.19 10.83
11/2/2021 5:30:00 PM 10.92 51.656 0.307 7.43 8.43 10.79
11/2/2021 5:45:00 PM 10.91 51.638 0.307 7.44 8.17 10.78
11/2/2021 6:00:00 PM 10.89 51.602 0.307 7.41 8.8 10.74
11/2/2021 6:15:00 PM 10.87 51.566 0.307 7.42 10.44 10.71
11/2/2021 6:30:00 PM 10.85 51.53 0.308 7.39 8.58 10.68
11/2/2021 6:45:00 PM 10.84 51.512 0.308 7.4 8.24 10.66
11/2/2021 7:00:00 PM 10.83 51.494 0.309 7.41 9.56 10.62
11/2/2021 7:15:00 PM 10.81 51.458 0.309 7.41 10.22 10.6
11/2/2021 7:30:00 PM 10.8 51.44 0.31 7.41 8.75 10.57
11/2/2021 7:45:00 PM 10.79 51.422 0.31 7.4 10.38 10.56
11/2/2021 8:00:00 PM 10.78 51.404 0.31 7.39 10.22 10.54
11/2/2021 8:15:00 PM 10.77 51.386 0.31 7.41 8.93 10.53
11/2/2021 8:30:00 PM 10.76 51.368 0.31 7.4 9.74 10.52
11/2/2021 8:45:00 PM 10.75 51.35 0.311 7.4 10.85 10.5
11/2/2021 9:00:00 PM 10.74 51.332 0.311 7.4 9.79 10.49
11/2/2021 9:15:00 PM 10.72 51.296 0.311 7.4 9.13 10.49
11/2/2021 9:30:00 PM 10.71 51.278 0.311 7.4 9.95 10.49
11/2/2021 9:45:00 PM 10.7 51.26 0.312 7.4 9.69 10.49
11/2/2021 10:00:00 PM 10.69 51.242 0.312 7.39 9.71 10.48
11/2/2021 10:15:00 PM 10.68 51.224 0.312 7.39 9.25 10.48
11/2/2021 10:30:00 PM 10.66 51.188 0.313 7.38 10.18 10.47
11/2/2021 10:45:00 PM 10.65 51.17 0.313 7.38 10.87 10.47
11/2/2021 11:00:00 PM 10.64 51.152 0.314 7.39 9.48 10.47
11/2/2021 11:15:00 PM 10.62 51.116 0.313 7.38 10.8 10.48
11/2/2021 11:30:00 PM 10.6 51.08 0.314 7.39 9.67 10.47
11/2/2021 11:45:00 PM 10.57 51.026 0.314 7.38 10.34 10.48
11/3/2021 12:00:00 AM 10.55 50.99 0.315 7.38 10.57 10.48
11/3/2021 12:15:00 AM 10.52 50.936 0.315 7.35 9.91 10.48
11/3/2021 12:30:00 AM 10.49 50.882 0.315 7.38 9.17 10.48
11/3/2021 12:45:00 AM 10.47 50.846 0.315 7.37 10.21 10.49
11/3/2021 1:00:00 AM 10.45 50.81 0.316 7.37 8.58 10.49
11/3/2021 1:15:00 AM 10.42 50.756 0.316 7.37 9.75 10.49
11/3/2021 1:30:00 AM 10.39 50.702 0.317 7.38 8.86 10.49
11/3/2021 1:45:00 AM 10.37 50.666 0.317 7.36 10.29 10.49
11/3/2021 2:00:00 AM 10.34 50.612 0.318 7.38 8.21 10.49
11/3/2021 2:15:00 AM 10.31 50.558 0.318 7.36 9.66 10.5
11/3/2021 2:30:00 AM 10.28 50.504 0.318 7.38 8.51 10.5
11/3/2021 2:45:00 AM 10.25 50.45 0.318 7.37 9.97 10.51
11/3/2021 3:00:00 AM 10.23 50.414 0.319 7.38 8.92 10.52
11/3/2021 3:15:00 AM 10.2 50.36 0.319 7.38 9.91 10.52
11/3/2021 3:30:00 AM 10.18 50.324 0.32 7.38 8.14 10.53
11/3/2021 3:45:00 AM 10.15 50.27 0.32 7.38 8.57 10.53
11/3/2021 4:00:00 AM 10.13 50.234 0.32 7.39 9.47 10.54
11/3/2021 4:15:00 AM 10.1 50.18 0.321 7.37 11.27 10.56
11/3/2021 4:30:00 AM 10.08 50.144 0.321 7.38 9.51 10.56
11/3/2021 4:45:00 AM 10.05 50.09 0.321 7.34 10.36 10.58
11/3/2021 5:00:00 AM 10.03 50.054 0.321 7.38 9.29 10.58
11/3/2021 5:15:00 AM 10 50 0.322 7.38 9.21 10.59
11/3/2021 5:30:00 AM 9.98 49.964 0.322 7.38 8.71 10.59
11/3/2021 5:45:00 AM 9.96 49.928 0.322 7.38 8.45 10.6
11/3/2021 6:00:00 AM 9.94 49.892 0.323 7.37 10 10.61
11/3/2021 6:15:00 AM 9.92 49.856 0.323 7.38 8.51 10.62
11/3/2021 6:30:00 AM 9.9 49.82 0.323 7.38 8.93 10.62
11/3/2021 6:45:00 AM 9.88 49.784 0.324 7.38 8.46 10.63
11/3/2021 7:00:00 AM 9.87 49.766 0.324 7.38 8.7 10.62
11/3/2021 7:15:00 AM 9.85 49.73 0.324 7.39 8.68 10.63
11/3/2021 7:30:00 AM 9.84 49.712 0.325 7.39 8.49 10.63
11/3/2021 7:45:00 AM 9.82 49.676 0.325 7.38 8.48 10.63
11/3/2021 8:00:00 AM 9.8 49.64 0.325 7.38 8.64 10.64
11/3/2021 8:15:00 AM 9.79 49.622 0.326 7.39 8.54 10.64
11/3/2021 8:30:00 AM 9.77 49.586 0.326 7.39 9.5 10.65
11/3/2021 8:45:00 AM 9.75 49.55 0.326 7.38 9.54 10.66
11/3/2021 9:00:00 AM 9.73 49.514 0.326 7.39 8.12 10.67
11/3/2021 9:15:00 AM 9.71 49.478 0.327 7.39 7.94 10.69
11/3/2021 9:30:00 AM 9.7 49.46 0.327 7.38 8.21 10.71
11/3/2021 9:45:00 AM 9.7 49.46 0.327 7.39 7.64 10.74
11/3/2021 10:00:00 AM 9.69 49.442 0.327 7.39 8.66 10.75
11/3/2021 10:15:00 AM 9.69 49.442 0.328 7.44 9.19 10.8
11/3/2021 10:30:00 AM 9.7 49.46 0.328 7.4 7.39 10.82
11/3/2021 10:45:00 AM 9.71 49.478 0.329 7.4 8.66 10.86
11/3/2021 11:00:00 AM 9.71 49.478 0.329 7.39 8.68 10.89
11/3/2021 11:15:00 AM 9.71 49.478 0.329 7.41 7.15 10.92
11/3/2021 11:30:00 AM 9.75 49.55 0.33 7.42 7 10.97
11/3/2021 11:45:00 AM 9.79 49.622 0.33 7.44 6.87 11.03
11/3/2021 12:00:00 PM 9.88 49.784 0.33 7.48 8.23 11.1
11/3/2021 12:15:00 PM 9.94 49.892 0.331 7.44 7 11.15
11/3/2021 12:30:00 PM 10.02 50.036 0.332 7.5 8.51 11.18
11/3/2021 12:45:00 PM 10.06 50.108 0.332 7.56 6.82 11.21
11/3/2021 1:00:00 PM 10.11 50.198 0.332 7.53 8.6 11.22
11/3/2021 1:15:00 PM 10.14 50.252 0.332 7.54 8.14 11.24
11/3/2021 1:30:00 PM 10.23 50.414 0.333 7.47 6.85 11.25
11/3/2021 1:45:00 PM 10.22 50.396 0.333 7.46 8.01 11.25
11/3/2021 2:00:00 PM 10.21 50.378 0.334 7.46 6.4 11.24
11/3/2021 2:15:00 PM 10.23 50.414 0.333 7.45 8.2 11.24
11/3/2021 2:30:00 PM 10.32 50.576 0.334 7.47 6.21 11.27
11/3/2021 2:45:00 PM 10.34 50.612 0.335 7.46 7.82 11.25
11/3/2021 3:00:00 PM 10.36 50.648 0.334 7.47 6.09 11.25
11/3/2021 3:15:00 PM 10.4 50.72 0.335 7.47 6.33 11.26
11/3/2021 3:30:00 PM 10.44 50.792 0.335 7.48 6.36 11.27
11/3/2021 3:45:00 PM 10.45 50.81 0.335 7.47 6.17 11.27
11/3/2021 4:00:00 PM 10.48 50.864 0.335 7.47 6.31 11.26
11/3/2021 4:15:00 PM 10.49 50.882 0.336 7.47 7.67 11.25
11/3/2021 4:30:00 PM 10.49 50.882 0.336 7.47 6.39 11.23
11/3/2021 4:45:00 PM 10.48 50.864 0.337 7.47 7.59 11.21
11/3/2021 5:00:00 PM 10.48 50.864 0.337 7.48 6.12 11.18
11/3/2021 5:15:00 PM 10.49 50.882 0.337 7.47 6.31 11.15
11/3/2021 5:30:00 PM 10.49 50.882 0.338 7.47 6.1 11.13
11/3/2021 5:45:00 PM 10.48 50.864 0.338 7.46 6.12 11.07
11/3/2021 6:00:00 PM 10.46 50.828 0.338 7.47 5.89 11.03
11/3/2021 6:15:00 PM 10.45 50.81 0.338 7.45 7.37 10.97
11/3/2021 6:30:00 PM 10.43 50.774 0.338 7.45 6.22 10.94
11/3/2021 6:45:00 PM 10.41 50.738 0.339 7.45 6.29 10.89
11/3/2021 7:00:00 PM 10.39 50.702 0.339 7.44 6.23 10.85
11/3/2021 7:15:00 PM 10.37 50.666 0.34 7.43 6.27 10.8
11/3/2021 7:30:00 PM 10.35 50.63 0.34 7.42 7.47 10.77
11/3/2021 7:45:00 PM 10.32 50.576 0.34 7.43 6.38 10.75
11/3/2021 8:00:00 PM 10.3 50.54 0.34 7.43 6.29 10.72
11/3/2021 8:15:00 PM 10.28 50.504 0.34 7.42 8.2 10.71
11/3/2021 8:30:00 PM 10.26 50.468 0.341 7.42 6.79 10.69
11/3/2021 8:45:00 PM 10.24 50.432 0.341 7.42 8.71 10.68
11/3/2021 9:00:00 PM 10.21 50.378 0.342 7.42 7.15 10.67
11/3/2021 9:15:00 PM 10.19 50.342 0.342 7.41 8.42 10.67
11/3/2021 9:30:00 PM 10.17 50.306 0.342 7.42 7.57 10.66
11/3/2021 9:45:00 PM 10.16 50.288 0.342 7.41 9.01 10.66
11/3/2021 10:00:00 PM 10.14 50.252 0.343 7.42 6.77 10.65
11/3/2021 10:15:00 PM 10.13 50.234 0.343 7.41 8.42 10.64
11/3/2021 10:30:00 PM 10.11 50.198 0.343 7.41 6.71 10.65
11/3/2021 10:45:00 PM 10.1 50.18 0.343 7.4 8.5 10.65
11/3/2021 11:00:00 PM 10.08 50.144 0.344 7.41 7.58 10.65
11/3/2021 11:15:00 PM 10.07 50.126 0.344 7.4 8.25 10.64
11/3/2021 11:30:00 PM 10.04 50.072 0.344 7.4 6.81 10.64
11/3/2021 11:45:00 PM 10.02 50.036 0.345 7.41 6.92 10.65
11/4/2021 12:00:00 AM 9.99 49.982 0.345 7.4 6.9 10.65
11/4/2021 12:15:00 AM 9.96 49.928 0.345 7.4 6.98 10.66
11/4/2021 12:30:00 AM 9.93 49.874 0.345 7.39 8.19 10.66
11/4/2021 12:45:00 AM 9.89 49.802 0.345 7.38 6.41 10.66
11/4/2021 1:00:00 AM 9.85 49.73 0.346 7.4 7.05 10.66
11/4/2021 1:15:00 AM 9.82 49.676 0.346 7.39 6.48 10.66
11/4/2021 1:30:00 AM 9.78 49.604 0.346 7.38 6.64 10.66
11/4/2021 1:45:00 AM 9.75 49.55 0.347 7.38 6.51 10.66
11/4/2021 2:00:00 AM 9.72 49.496 0.347 7.38 6.36 10.66
11/4/2021 2:15:00 AM 9.68 49.424 0.348 7.38 6.34 10.67
11/4/2021 2:30:00 AM 9.65 49.37 0.348 7.38 6.59 10.67
11/4/2021 2:45:00 AM 9.61 49.298 0.348 7.38 7.2 10.69
11/4/2021 3:00:00 AM 9.58 49.244 0.349 7.38 6.92 10.69
11/4/2021 3:15:00 AM 9.54 49.172 0.349 7.38 6.47 10.69
11/4/2021 3:30:00 AM 9.51 49.118 0.349 7.38 8.45 10.71
11/4/2021 3:45:00 AM 9.47 49.046 0.35 7.38 6.7 10.71
11/4/2021 4:00:00 AM 9.44 48.992 0.35 7.38 6.59 10.71
11/4/2021 4:15:00 AM 9.41 48.938 0.35 7.37 6.39 10.72
11/4/2021 4:30:00 AM 9.38 48.884 0.35 7.38 6.25 10.73
11/4/2021 4:45:00 AM 9.36 48.848 0.351 7.37 8.03 10.74
11/4/2021 5:00:00 AM 9.34 48.812 0.351 7.35 6.89 10.75
11/4/2021 5:15:00 AM 9.32 48.776 0.352 7.38 6.67 10.75
11/4/2021 5:30:00 AM 9.3 48.74 0.352 7.37 7.03 10.75
11/4/2021 5:45:00 AM 9.28 48.704 0.353 7.38 6.27 10.75
11/4/2021 6:00:00 AM 9.25 48.65 0.353 7.34 6.6 10.76
11/4/2021 6:15:00 AM 9.23 48.614 0.354 7.38 7.03 10.77
11/4/2021 6:30:00 AM 9.21 48.578 0.354 7.39 6.33 10.77
11/4/2021 6:45:00 AM 9.19 48.542 0.354 7.37 7.6 10.78
11/4/2021 7:00:00 AM 9.16 48.488 0.354 7.39 6.41 10.78
11/4/2021 7:15:00 AM 9.14 48.452 0.354 7.38 6.38 10.79
11/4/2021 7:30:00 AM 9.12 48.416 0.355 7.38 6.57 10.8
11/4/2021 7:45:00 AM 9.1 48.38 0.355 7.38 6.87 10.81
11/4/2021 8:00:00 AM 9.09 48.362 0.355 7.34 6.81 10.82
11/4/2021 8:15:00 AM 9.07 48.326 0.355 7.39 9.48 10.83
11/4/2021 8:30:00 AM 9.06 48.308 0.355 7.39 6.64 10.85
11/4/2021 8:45:00 AM 9.05 48.29 0.356 7.39 5.96 10.86
11/4/2021 9:00:00 AM 9.04 48.272 0.356 7.39 6.15 10.89
11/4/2021 9:15:00 AM 9.04 48.272 0.356 7.4 5.99 10.92
11/4/2021 9:30:00 AM 9.04 48.272 0.357 7.4 5.96 10.95
11/4/2021 9:45:00 AM 9.05 48.29 0.357 7.4 5.77 10.99
11/4/2021 10:00:00 AM 9.06 48.308 0.357 7.41 6.01 11.03
11/4/2021 10:15:00 AM 9.09 48.362 0.358 7.42 5.67 11.07
11/4/2021 10:30:00 AM 9.13 48.434 0.358 7.42 6.94 11.12
11/4/2021 10:45:00 AM 9.12 48.416 0.358 7.43 5.92 11.14
11/4/2021 11:00:00 AM 9.11 48.398 0.358 7.43 7.14 11.16
11/4/2021 11:15:00 AM 9.11 48.398 0.358 7.42 5.84 11.2
11/4/2021 11:30:00 AM 9.15 48.47 0.359 7.43 7.2 11.25
11/4/2021 11:45:00 AM 9.19 48.542 0.359 7.44 7.52 11.3
11/4/2021 12:00:00 PM 9.26 48.668 0.359 7.41 5.82 11.35
11/4/2021 12:15:00 PM 9.28 48.704 0.36 7.46 5.62 11.37
11/4/2021 12:30:00 PM 9.35 48.83 0.36 7.46 5.57 11.41
11/4/2021 12:45:00 PM 9.36 48.848 0.361 7.46 5.84 11.4
11/4/2021 1:00:00 PM 9.39 48.902 0.36 7.46 7.17 11.43
11/4/2021 1:15:00 PM 9.48 49.064 0.361 7.45 6.12 11.46
11/4/2021 1:30:00 PM 9.58 49.244 0.362 7.47 5.95 11.48
11/4/2021 1:45:00 PM 9.6 49.28 0.362 7.47 7.54 11.46
11/4/2021 2:00:00 PM 9.62 49.316 0.362 7.48 5.97 11.46
11/4/2021 2:15:00 PM 9.63 49.334 0.363 7.47 7.1 11.45
11/4/2021 2:30:00 PM 9.66 49.388 0.363 7.49 6.02 11.45
11/4/2021 2:45:00 PM 9.7 49.46 0.363 7.49 6.21 11.48
11/4/2021 3:00:00 PM 9.73 49.514 0.363 7.48 7.25 11.48
11/4/2021 3:15:00 PM 9.74 49.532 0.364 7.49 5.83 11.47
11/4/2021 3:30:00 PM 9.74 49.532 0.364 7.49 5.92 11.47
11/4/2021 3:45:00 PM 9.77 49.586 0.364 7.49 6.09 11.49
11/4/2021 4:00:00 PM 9.8 49.64 0.365 7.5 6.2 11.48
11/4/2021 4:15:00 PM 9.8 49.64 0.365 7.49 6.01 11.46
11/4/2021 4:30:00 PM 9.81 49.658 0.365 7.5 6.36 11.43
11/4/2021 4:45:00 PM 9.82 49.676 0.365 7.48 7.42 11.41
11/4/2021 5:00:00 PM 9.83 49.694 0.366 7.5 6.03 11.38
11/4/2021 5:15:00 PM 9.85 49.73 0.366 7.49 6.23 11.35
11/4/2021 5:30:00 PM 9.86 49.748 0.366 7.49 6.31 11.29
11/4/2021 5:45:00 PM 9.87 49.766 0.367 7.48 6.32 11.24
11/4/2021 6:00:00 PM 9.88 49.784 0.367 7.48 6.11 11.2
11/4/2021 6:15:00 PM 9.88 49.784 0.367 7.48 6.03 11.16
11/4/2021 6:30:00 PM 9.87 49.766 0.368 7.47 6.09 11.1
11/4/2021 6:45:00 PM 9.86 49.748 0.368 7.47 6.23 11.05
11/4/2021 7:00:00 PM 9.86 49.748 0.368 7.46 6.19 11
11/4/2021 7:15:00 PM 9.86 49.748 0.368 7.46 7.43 10.97
11/4/2021 7:30:00 PM 9.85 49.73 0.369 7.43 5.74 10.93
11/4/2021 7:45:00 PM 9.84 49.712 0.37 7.45 5.74 10.89
11/4/2021 8:00:00 PM 9.82 49.676 0.37 7.44 5.79 10.86
11/4/2021 8:15:00 PM 9.8 49.64 0.37 7.44 5.8 10.83
11/4/2021 8:30:00 PM 9.78 49.604 0.37 7.43 7.22 10.81
11/4/2021 8:45:00 PM 9.76 49.568 0.37 7.44 5.7 10.79
11/4/2021 9:00:00 PM 9.74 49.532 0.37 7.42 7.67 10.77
11/4/2021 9:15:00 PM 9.73 49.514 0.37 7.42 5.84 10.76
11/4/2021 9:30:00 PM 9.71 49.478 0.37 7.44 5.53 10.74
11/4/2021 9:45:00 PM 9.7 49.46 0.371 7.43 5.86 10.72
11/4/2021 10:00:00 PM 9.68 49.424 0.371 7.43 6.03 10.72
11/4/2021 10:15:00 PM 9.66 49.388 0.371 7.42 7.18 10.72
11/4/2021 10:30:00 PM 9.64 49.352 0.371 7.42 5.65 10.71
11/4/2021 10:45:00 PM 9.61 49.298 0.372 7.42 5.69 10.71
11/4/2021 11:00:00 PM 9.59 49.262 0.371 7.42 5.66 10.71
11/4/2021 11:15:00 PM 9.57 49.226 0.372 7.42 7.26 10.72
11/4/2021 11:30:00 PM 9.55 49.19 0.372 7.42 5.71 10.71
11/4/2021 11:45:00 PM 9.52 49.136 0.372 7.41 7.43 10.7
11/5/2021 12:00:00 AM 9.5 49.1 0.373 7.42 6.32 10.72
11/5/2021 12:15:00 AM 9.48 49.064 0.373 7.38 5.7 10.71
11/5/2021 12:30:00 AM 9.46 49.028 0.373 7.42 5.38 10.73
11/5/2021 12:45:00 AM 9.43 48.974 0.373 7.41 5.45 10.71
11/5/2021 1:00:00 AM 9.41 48.938 0.374 7.41 5.12 10.73
11/5/2021 1:15:00 AM 9.39 48.902 0.374 7.41 7.91 10.73
11/5/2021 1:30:00 AM 9.36 48.848 0.374 7.41 6.21 10.72
11/5/2021 1:45:00 AM 9.33 48.794 0.375 7.4 7.18 10.74
11/5/2021 2:00:00 AM 9.3 48.74 0.374 7.4 7.01 10.73
11/5/2021 2:15:00 AM 9.26 48.668 0.375 7.41 5.87 10.73
11/5/2021 2:30:00 AM 9.23 48.614 0.375 7.41 5.2 10.74
11/5/2021 2:45:00 AM 9.2 48.56 0.376 7.43 5.33 10.74
11/5/2021 3:00:00 AM 9.17 48.506 0.376 7.42 5.23 10.74
11/5/2021 3:15:00 AM 9.14 48.452 0.376 7.41 5.16 10.75
11/5/2021 3:30:00 AM 9.11 48.398 0.376 7.42 5.48 10.75
11/5/2021 3:45:00 AM 9.08 48.344 0.376 7.41 5.17 10.76
11/5/2021 4:00:00 AM 9.05 48.29 0.377 7.44 6.01 10.77
11/5/2021 4:15:00 AM 9.02 48.236 0.377 7.41 5.81 10.78
11/5/2021 4:30:00 AM 8.98 48.164 0.377 7.41 5.54 10.79
11/5/2021 4:45:00 AM 8.94 48.092 0.377 7.41 5.5 10.8
11/5/2021 5:00:00 AM 8.9 48.02 0.377 7.41 5.42 10.81
11/5/2021 5:15:00 AM 8.86 47.948 0.377 7.41 6.23 10.82
11/5/2021 5:30:00 AM 8.83 47.894 0.377 7.42 6.05 10.83
11/5/2021 5:45:00 AM 8.79 47.822 0.378 7.41 6.15 10.84
11/5/2021 6:00:00 AM 8.76 47.768 0.378 7.41 5.54 10.85
11/5/2021 6:15:00 AM 8.73 47.714 0.378 7.39 5.21 10.86
11/5/2021 6:30:00 AM 8.69 47.642 0.379 7.39 5.35 10.86
11/5/2021 6:45:00 AM 8.65 47.57 0.379 7.39 5.41 10.87
11/5/2021 7:00:00 AM 8.61 47.498 0.379 7.39 5.24 10.87
11/5/2021 7:15:00 AM 8.57 47.426 0.379 7.37 5.34 10.89
11/5/2021 7:30:00 AM 8.54 47.372 0.379 7.39 5.29 10.9
11/5/2021 7:45:00 AM 8.5 47.3 0.379 7.39 5.31 10.91
11/5/2021 8:00:00 AM 8.47 47.246 0.379 7.39 5.38 10.94
11/5/2021 8:15:00 AM 8.43 47.174 0.38 7.39 5.17 10.95
11/5/2021 8:30:00 AM 8.41 47.138 0.38 7.39 5.11 10.97
11/5/2021 8:45:00 AM 8.37 47.066 0.38 7.39 5.13 11
11/5/2021 9:00:00 AM 8.35 47.03 0.38 7.39 5.02 11.02
11/5/2021 9:15:00 AM 8.32 46.976 0.38 7.39 5.05 11.04
11/5/2021 9:30:00 AM 8.3 46.94 0.38 7.39 4.8 11.09
11/5/2021 9:45:00 AM 8.28 46.904 0.381 7.4 5.17 11.1
11/5/2021 10:00:00 AM 8.26 46.868 0.381 7.4 4.83 11.15
11/5/2021 10:15:00 AM 8.25 46.85 0.381 7.44 4.66 11.18
11/5/2021 10:30:00 AM 8.26 46.868 0.381 7.42 5.86 11.22
11/5/2021 10:45:00 AM 8.28 46.904 0.382 7.45 4.83 11.25
11/5/2021 11:00:00 AM 8.29 46.922 0.382 7.45 4.79 11.29
11/5/2021 11:15:00 AM 8.31 46.958 0.382 7.45 5 11.33
11/5/2021 11:30:00 AM 8.34 47.012 0.382 7.45 5.36 11.37
11/5/2021 11:45:00 AM 8.38 47.084 0.382 7.44 4.57 11.41
11/5/2021 12:00:00 PM 8.41 47.138 0.383 7.44 4.71 11.44
11/5/2021 12:15:00 PM 8.47 47.246 0.383 7.45 4.69 11.48
11/5/2021 12:30:00 PM 8.57 47.426 0.384 7.46 4.41 11.54
11/5/2021 12:45:00 PM 8.7 47.66 0.384 7.47 4.81 11.6
11/5/2021 1:00:00 PM 8.83 47.894 0.385 7.48 4.59 11.66
11/5/2021 1:15:00 PM 8.95 48.11 0.385 7.49 4.74 11.7
11/5/2021 1:30:00 PM 9.06 48.308 0.385 7.5 4.67 11.71
11/5/2021 1:45:00 PM 9.17 48.506 0.386 7.5 4.64 11.74
11/5/2021 2:00:00 PM 9.27 48.686 0.386 7.51 4.72 11.79
11/5/2021 2:15:00 PM 9.36 48.848 0.386 7.52 4.77 11.82
11/5/2021 2:30:00 PM 9.45 49.01 0.387 7.52 4.44 11.82
11/5/2021 2:45:00 PM 9.52 49.136 0.388 7.52 4.47 11.81
11/5/2021 3:00:00 PM 9.59 49.262 0.388 7.54 4.32 11.79
11/5/2021 3:15:00 PM 9.64 49.352 0.388 7.54 4.14 11.79
11/5/2021 3:30:00 PM 9.68 49.424 0.389 7.54 4.38 11.76
11/5/2021 3:45:00 PM 9.71 49.478 0.389 7.54 4.39 11.74
11/5/2021 4:00:00 PM 9.73 49.514 0.389 7.54 4.17 11.71
11/5/2021 4:15:00 PM 9.74 49.532 0.39 7.54 4.07 11.68
11/5/2021 4:30:00 PM 9.75 49.55 0.39 7.54 4.19 11.65
11/5/2021 4:45:00 PM 9.74 49.532 0.39 7.55 4.22 11.61
11/5/2021 5:00:00 PM 9.73 49.514 0.39 7.54 4.16 11.57
11/5/2021 5:15:00 PM 9.71 49.478 0.391 7.53 4.99 11.51
11/5/2021 5:30:00 PM 9.69 49.442 0.391 7.53 4.31 11.47
11/5/2021 5:45:00 PM 9.68 49.424 0.391 7.53 4.26 11.41
11/5/2021 6:00:00 PM 9.67 49.406 0.391 7.52 4.14 11.36
11/5/2021 6:15:00 PM 9.66 49.388 0.391 7.52 4.25 11.3
11/5/2021 6:30:00 PM 9.64 49.352 0.392 7.51 4.2 11.26
11/5/2021 6:45:00 PM 9.63 49.334 0.392 7.49 5.58 11.2
11/5/2021 7:00:00 PM 9.61 49.298 0.393 7.52 4.28 11.16
11/5/2021 7:15:00 PM 9.6 49.28 0.393 7.5 4.46 11.12
11/5/2021 7:30:00 PM 9.58 49.244 0.394 7.49 4.17 11.06
11/5/2021 7:45:00 PM 9.56 49.208 0.394 7.49 4.18 11.03
11/5/2021 8:00:00 PM 9.54 49.172 0.394 7.49 4.4 11
11/5/2021 8:15:00 PM 9.52 49.136 0.395 7.49 4.42 10.96
11/5/2021 8:30:00 PM 9.5 49.1 0.395 7.49 4.32 10.93
11/5/2021 8:45:00 PM 9.48 49.064 0.395 7.48 4.93 10.91
11/5/2021 9:00:00 PM 9.47 49.046 0.395 7.47 5.31 10.89
11/5/2021 9:15:00 PM 9.46 49.028 0.395 7.47 4.98 10.87
11/5/2021 9:30:00 PM 9.45 49.01 0.395 7.47 4.7 10.86
11/5/2021 9:45:00 PM 9.43 48.974 0.395 7.47 4.98 10.84
11/5/2021 10:00:00 PM 9.42 48.956 0.396 7.46 5.16 10.81
11/5/2021 10:15:00 PM 9.4 48.92 0.396 7.47 5.42 10.81
11/5/2021 10:30:00 PM 9.38 48.884 0.396 7.46 4.89 10.79
11/5/2021 10:45:00 PM 9.37 48.866 0.397 7.45 5.12 10.77
11/5/2021 11:00:00 PM 9.35 48.83 0.397 7.45 4.88 10.78
11/5/2021 11:15:00 PM 9.34 48.812 0.397 7.45 4.84 10.77
11/5/2021 11:30:00 PM 9.32 48.776 0.397 7.44 6.09 10.76
11/5/2021 11:45:00 PM 9.3 48.74 0.397 7.46 4.78 10.76
11/6/2021 12:00:00 AM 9.28 48.704 0.397 7.45 4.67 10.76
11/6/2021 12:15:00 AM 9.27 48.686 0.397 7.45 4.51 10.75
11/6/2021 12:30:00 AM 9.25 48.65 0.398 7.45 4.58 10.74
11/6/2021 12:45:00 AM 9.22 48.596 0.398 7.45 4.84 10.74
11/6/2021 1:00:00 AM 9.21 48.578 0.398 7.45 4.66 10.74
11/6/2021 1:15:00 AM 9.18 48.524 0.398 7.45 4.51 10.74
11/6/2021 1:30:00 AM 9.15 48.47 0.398 7.45 4.6 10.75
11/6/2021 1:45:00 AM 9.13 48.434 0.398 7.45 4.7 10.74
11/6/2021 2:00:00 AM 9.1 48.38 0.398 7.45 4.67 10.75
11/6/2021 2:15:00 AM 9.07 48.326 0.399 7.45 4.72 10.76
11/6/2021 2:30:00 AM 9.05 48.29 0.399 7.45 5.33 10.76
11/6/2021 2:45:00 AM 9.02 48.236 0.399 7.44 4.91 10.77
11/6/2021 3:00:00 AM 8.99 48.182 0.399 7.44 5.61 10.78
11/6/2021 3:15:00 AM 8.96 48.128 0.399 7.44 4.72 10.79
11/6/2021 3:30:00 AM 8.92 48.056 0.399 7.44 4.44 10.8
11/6/2021 3:45:00 AM 8.89 48.002 0.4 7.44 4.5 10.81
11/6/2021 4:00:00 AM 8.85 47.93 0.4 7.44 4.41 10.82
11/6/2021 4:15:00 AM 8.81 47.858 0.4 7.45 4.52 10.83
11/6/2021 4:30:00 AM 8.78 47.804 0.4 7.44 4.65 10.84
11/6/2021 4:45:00 AM 8.74 47.732 0.4 7.44 4.72 10.85
11/6/2021 5:00:00 AM 8.69 47.642 0.401 7.46 4.5 10.85
11/6/2021 5:15:00 AM 8.66 47.588 0.401 7.44 4.72 10.85
11/6/2021 5:30:00 AM 8.62 47.516 0.401 7.44 4.64 10.86
11/6/2021 5:45:00 AM 8.58 47.444 0.402 7.44 4.88 10.86
11/6/2021 6:00:00 AM 8.55 47.39 0.402 7.44 5.52 10.88
11/6/2021 6:15:00 AM 8.51 47.318 0.402 7.44 5.11 10.89
11/6/2021 6:30:00 AM 8.47 47.246 0.403 7.43 4.92 10.91
11/6/2021 6:45:00 AM 8.44 47.192 0.403 7.43 4.64 10.91
11/6/2021 7:00:00 AM 8.4 47.12 0.403 7.43 4.68 10.93
11/6/2021 7:15:00 AM 8.37 47.066 0.403 7.43 5.01 10.95
11/6/2021 7:30:00 AM 8.33 46.994 0.404 7.43 4.74 10.96
11/6/2021 7:45:00 AM 8.29 46.922 0.404 7.43 4.84 10.98
11/6/2021 8:00:00 AM 8.26 46.868 0.404 7.43 4.74 10.99
11/6/2021 8:15:00 AM 8.23 46.814 0.404 7.43 4.62 11.01
11/6/2021 8:30:00 AM 8.21 46.778 0.404 7.43 4.92 11.03
11/6/2021 8:45:00 AM 8.19 46.742 0.404 7.4 4.45 11.06
11/6/2021 9:00:00 AM 8.16 46.688 0.404 7.44 4.51 11.08
11/6/2021 9:15:00 AM 8.14 46.652 0.404 7.44 4.62 11.11
11/6/2021 9:30:00 AM 8.13 46.634 0.404 7.43 4.76 11.15
11/6/2021 9:45:00 AM 8.13 46.634 0.405 7.44 4.72 11.19
11/6/2021 10:00:00 AM 8.12 46.616 0.405 7.45 4.36 11.23
11/6/2021 10:15:00 AM 8.1 46.58 0.405 7.45 4.17 11.26
11/6/2021 10:30:00 AM 8.1 46.58 0.405 7.45 4.21 11.3
11/6/2021 10:45:00 AM 8.12 46.616 0.406 7.45 4.09 11.35
11/6/2021 11:00:00 AM 8.14 46.652 0.406 7.46 4.07 11.4
11/6/2021 11:15:00 AM 8.15 46.67 0.406 7.46 3.91 11.44
11/6/2021 11:30:00 AM 8.18 46.724 0.406 7.47 4.08 11.5
11/6/2021 11:45:00 AM 8.24 46.832 0.407 7.47 4.03 11.56
11/6/2021 12:00:00 PM 8.3 46.94 0.407 7.48 3.87 11.62
11/6/2021 12:15:00 PM 8.36 47.048 0.407 7.48 3.95 11.67
11/6/2021 12:30:00 PM 8.45 47.21 0.408 7.5 3.89 11.71
11/6/2021 12:45:00 PM 8.55 47.39 0.408 7.51 5.98 11.75
11/6/2021 1:00:00 PM 8.67 47.606 0.409 7.51 4.12 11.8
11/6/2021 1:15:00 PM 8.77 47.786 0.409 7.52 3.98 11.85
11/6/2021 1:30:00 PM 8.86 47.948 0.41 7.54 3.98 11.88
11/6/2021 1:45:00 PM 8.94 48.092 0.41 7.54 3.97 11.91
11/6/2021 2:00:00 PM 9.04 48.272 0.411 7.55 3.83 11.93
11/6/2021 2:15:00 PM 9.14 48.452 0.411 7.55 3.75 11.92
11/6/2021 2:30:00 PM 9.24 48.632 0.411 7.55 3.84 11.93
11/6/2021 2:45:00 PM 9.33 48.794 0.412 7.56 3.82 11.96
11/6/2021 3:00:00 PM 9.41 48.938 0.412 7.56 3.56 11.95
11/6/2021 3:15:00 PM 9.49 49.082 0.413 7.57 3.85 11.93
11/6/2021 3:30:00 PM 9.55 49.19 0.412 7.55 3.61 11.92
11/6/2021 3:45:00 PM 9.6 49.28 0.413 7.57 3.62 11.86
11/6/2021 4:00:00 PM 9.64 49.352 0.413 7.58 3.59 11.84
11/6/2021 4:15:00 PM 9.66 49.388 0.413 7.58 3.5 11.8
11/6/2021 4:30:00 PM 9.67 49.406 0.414 7.58 3.62 11.75
11/6/2021 4:45:00 PM 9.67 49.406 0.414 7.56 3.6 11.71
11/6/2021 5:00:00 PM 9.66 49.388 0.414 7.57 3.78 11.66
11/6/2021 5:15:00 PM 9.64 49.352 0.414 7.57 3.84 11.59
11/6/2021 5:30:00 PM 9.62 49.316 0.415 7.56 3.93 11.54
11/6/2021 5:45:00 PM 9.6 49.28 0.415 7.56 3.63 11.49
11/6/2021 6:00:00 PM 9.58 49.244 0.415 7.56 3.68 11.43
11/6/2021 6:15:00 PM 9.56 49.208 0.416 7.56 3.58 11.36
11/6/2021 6:30:00 PM 9.54 49.172 0.416 7.55 3.87 11.31
11/6/2021 6:45:00 PM 9.51 49.118 0.416 7.51 4.82 11.25
11/6/2021 7:00:00 PM 9.49 49.082 0.416 7.53 4.01 11.19
11/6/2021 7:15:00 PM 9.46 49.028 0.416 7.53 3.79 11.15
11/6/2021 7:30:00 PM 9.43 48.974 0.417 7.53 3.7 11.11
11/6/2021 7:45:00 PM 9.4 48.92 0.417 7.52 4.21 11.06
11/6/2021 8:00:00 PM 9.38 48.884 0.417 7.51 3.97 11.03
11/6/2021 8:15:00 PM 9.35 48.83 0.417 7.51 3.86 10.97
11/6/2021 8:30:00 PM 9.33 48.794 0.418 7.5 3.96 10.96
11/6/2021 8:45:00 PM 9.31 48.758 0.418 7.5 3.91 10.92
11/6/2021 9:00:00 PM 9.28 48.704 0.418 7.5 4.36 10.9
11/6/2021 9:15:00 PM 9.26 48.668 0.418 7.49 4.4 10.87
11/6/2021 9:30:00 PM 9.23 48.614 0.418 7.49 4.51 10.84
11/6/2021 9:45:00 PM 9.21 48.578 0.418 7.48 4.21 10.82
11/6/2021 10:00:00 PM 9.19 48.542 0.418 7.47 4.35 10.81
11/6/2021 10:15:00 PM 9.15 48.47 0.418 7.49 4.22 10.8
11/6/2021 10:30:00 PM 9.13 48.434 0.419 7.48 4.33 10.78
11/6/2021 10:45:00 PM 9.1 48.38 0.418 7.48 4.24 10.78
11/6/2021 11:00:00 PM 9.07 48.326 0.419 7.5 4.17 10.78
11/6/2021 11:15:00 PM 9.04 48.272 0.419 7.48 3.95 10.77
11/6/2021 11:30:00 PM 9.02 48.236 0.42 7.48 4.34 10.77
11/6/2021 11:45:00 PM 8.99 48.182 0.419 7.49 4.33 10.78
11/7/2021 12:00:00 AM 8.97 48.146 0.419 7.49 4.65 10.77
11/7/2021 12:15:00 AM 8.94 48.092 0.419 7.48 4.67 10.77
11/7/2021 12:30:00 AM 8.92 48.056 0.42 7.47 4.27 10.77
11/7/2021 12:45:00 AM 8.89 48.002 0.42 7.47 3.94 10.77
11/7/2021 1:00:00 AM 8.87 47.966 0.42 7.47 3.95 10.78
11/7/2021 1:15:00 AM 8.84 47.912 0.42 7.48 3.93 10.78
11/7/2021 1:30:00 AM 8.81 47.858 0.42 7.47 4.09 10.78
11/7/2021 1:45:00 AM 8.79 47.822 0.42 7.46 4.54 10.78
11/7/2021 2:00:00 AM 8.76 47.768 0.421 7.47 4.54 10.76
11/7/2021 2:15:00 AM 8.74 47.732 0.421 7.46 4.03 10.78
11/7/2021 2:30:00 AM 8.71 47.678 0.421 7.46 4.31 10.77
11/7/2021 2:45:00 AM 8.68 47.624 0.421 7.46 4.08 10.78
11/7/2021 3:00:00 AM 8.65 47.57 0.421 7.46 4.32 10.77
11/7/2021 3:15:00 AM 8.62 47.516 0.422 7.46 4.16 10.77
11/7/2021 3:30:00 AM 8.59 47.462 0.422 7.46 4.56 10.77
11/7/2021 3:45:00 AM 8.55 47.39 0.422 7.46 4.45 10.78
11/7/2021 4:00:00 AM 8.52 47.336 0.422 7.46 4.61 10.79
11/7/2021 4:15:00 AM 8.48 47.264 0.422 7.46 4.49 10.81
11/7/2021 4:30:00 AM 8.29 46.922 0.422 7.45 4.26 10.87
11/7/2021 4:45:00 AM 8.25 46.85 0.423 7.45 4.06 10.87
11/7/2021 5:00:00 AM 8.21 46.778 0.423 7.45 4.26 10.86
11/7/2021 5:15:00 AM 8.17 46.706 0.424 7.45 3.91 10.87
11/7/2021 5:30:00 AM 8.13 46.634 0.423 7.45 4.26 10.9
11/7/2021 5:45:00 AM 8.09 46.562 0.424 7.45 4.36 10.9
11/7/2021 6:00:00 AM 8.06 46.508 0.424 7.44 4.3 10.91
11/7/2021 6:15:00 AM 8.03 46.454 0.424 7.44 4.97 10.91
11/7/2021 6:30:00 AM 7.99 46.382 0.424 7.44 4.4 10.92
11/7/2021 6:45:00 AM 7.96 46.328 0.424 7.44 4.42 10.94
11/7/2021 7:00:00 AM 7.93 46.274 0.424 7.44 4.44 10.95
11/7/2021 7:15:00 AM 7.91 46.238 0.424 7.44 4.72 10.97
11/7/2021 7:30:00 AM 7.88 46.184 0.424 7.44 4.47 10.99
11/7/2021 7:45:00 AM 7.85 46.13 0.424 7.44 4.79 11.03
11/7/2021 8:00:00 AM 7.82 46.076 0.424 7.44 4.12 11.05
11/7/2021 8:15:00 AM 7.79 46.022 0.424 7.43 4.21 11.08
11/7/2021 8:30:00 AM 7.77 45.986 0.424 7.45 4.54 11.11
11/7/2021 8:45:00 AM 7.76 45.968 0.424 7.45 4.24 11.14
11/7/2021 9:00:00 AM 7.74 45.932 0.424 7.45 4.29 11.17
11/7/2021 9:15:00 AM 7.73 45.914 0.424 7.45 4.37 11.22
11/7/2021 9:30:00 AM 7.74 45.932 0.425 7.42 4.44 11.27
11/7/2021 9:45:00 AM 7.77 45.986 0.425 7.46 4.37 11.32
11/7/2021 10:00:00 AM 7.79 46.022 0.425 7.47 4 11.36
11/7/2021 10:15:00 AM 7.81 46.058 0.425 7.47 4.03 11.41
11/7/2021 10:30:00 AM 7.84 46.112 0.425 7.48 4.01 11.45
11/7/2021 10:45:00 AM 7.89 46.202 0.426 7.49 4.15 11.49
11/7/2021 11:00:00 AM 7.95 46.31 0.426 7.49 3.96 11.52
11/7/2021 11:15:00 AM 7.99 46.382 0.426 7.5 3.98 11.56
11/7/2021 11:30:00 AM 8.05 46.49 0.426 7.5 3.71 11.62
11/7/2021 11:45:00 AM 8.15 46.67 0.427 7.51 3.57 11.69
11/7/2021 12:00:00 PM 8.27 46.886 0.427 7.52 3.58 11.77
11/7/2021 12:15:00 PM 8.42 47.156 0.428 7.53 3.72 11.83
11/7/2021 12:30:00 PM 8.56 47.408 0.428 7.55 3.71 11.88
11/7/2021 12:45:00 PM 8.69 47.642 0.428 7.55 3.61 11.91
11/7/2021 1:00:00 PM 8.82 47.876 0.429 7.56 3.41 11.96
11/7/2021 1:15:00 PM 8.94 48.092 0.429 7.57 3.55 11.99
11/7/2021 1:30:00 PM 9.05 48.29 0.429 7.57 3.82 11.99
11/7/2021 1:45:00 PM 9.15 48.47 0.429 7.58 3.54 12
11/7/2021 2:00:00 PM 9.24 48.632 0.43 7.59 3.4 12.01
11/7/2021 2:15:00 PM 9.33 48.794 0.43 7.59 3.39 12.01
11/7/2021 2:30:00 PM 9.41 48.938 0.431 7.59 3.59 11.99
11/7/2021 2:45:00 PM 9.48 49.064 0.431 7.59 3.55 11.96
11/7/2021 3:00:00 PM 9.54 49.172 0.432 7.6 3.38 11.9
11/7/2021 3:15:00 PM 9.58 49.244 0.432 7.58 4.98 11.85
11/7/2021 3:30:00 PM 9.61 49.298 0.432 7.56 3.52 11.81
11/7/2021 3:45:00 PM 9.62 49.316 0.433 7.59 3.5 11.77
11/7/2021 4:00:00 PM 9.62 49.316 0.433 7.59 3.54 11.71
11/7/2021 4:15:00 PM 9.6 49.28 0.433 7.59 3.48 11.65
11/7/2021 4:30:00 PM 9.59 49.262 0.433 7.59 3.7 11.59
11/7/2021 4:45:00 PM 9.58 49.244 0.434 7.58 3.54 11.53
11/7/2021 5:00:00 PM 9.57 49.226 0.433 7.58 3.57 11.48
11/7/2021 5:15:00 PM 9.55 49.19 0.434 7.54 4.33 11.39
11/7/2021 5:30:00 PM 9.54 49.172 0.434 7.56 3.61 11.32
11/7/2021 5:45:00 PM 9.52 49.136 0.435 7.56 3.77 11.27
11/7/2021 6:00:00 PM 9.5 49.1 0.435 7.56 4.01 11.21
11/7/2021 6:15:00 PM 9.48 49.064 0.435 7.55 4.41 11.16
11/7/2021 6:30:00 PM 9.45 49.01 0.435 7.55 4.14 11.1
11/7/2021 6:45:00 PM 9.43 48.974 0.435 7.54 3.6 11.06
11/7/2021 7:00:00 PM 9.42 48.956 0.435 7.53 3.52 10.99
11/7/2021 7:15:00 PM 9.39 48.902 0.435 7.53 3.89 10.95
11/7/2021 7:30:00 PM 9.38 48.884 0.436 7.53 3.71 10.9
11/7/2021 7:45:00 PM 9.36 48.848 0.436 7.5 3.54 10.87
11/7/2021 8:00:00 PM 9.34 48.812 0.436 7.52 3.64 10.84
11/7/2021 8:15:00 PM 9.32 48.776 0.437 7.51 3.45 10.81
11/7/2021 8:30:00 PM 9.31 48.758 0.437 7.51 4.03 10.79
11/7/2021 8:45:00 PM 9.29 48.722 0.437 7.51 4.32 10.76
11/7/2021 9:00:00 PM 9.27 48.686 0.437 7.51 4.46 10.73
11/7/2021 9:15:00 PM 9.25 48.65 0.437 7.5 4.85 10.71
11/7/2021 9:30:00 PM 9.24 48.632 0.437 7.5 4.59 10.7
11/7/2021 9:45:00 PM 9.21 48.578 0.437 7.5 4.65 10.73
11/7/2021 10:00:00 PM 9.2 48.56 0.437 7.49 4.3 10.71
11/7/2021 10:15:00 PM 9.18 48.524 0.437 7.49 4.34 10.7
11/7/2021 10:30:00 PM 9.17 48.506 0.438 7.49 4.31 10.69
11/7/2021 10:45:00 PM 9.15 48.47 0.438 7.5 4.05 10.68
11/7/2021 11:00:00 PM 9.13 48.434 0.438 7.49 4.07 10.68
11/7/2021 11:15:00 PM 9.12 48.416 0.438 7.49 4.29 10.67
11/7/2021 11:30:00 PM 9.11 48.398 0.439 7.49 4.15 10.66
11/7/2021 11:45:00 PM 9.09 48.362 0.439 7.49 4.13 10.67
11/8/2021 12:00:00 AM 9.08 48.344 0.439 7.48 4.04 10.66
11/8/2021 12:15:00 AM 9.07 48.326 0.439 7.49 4.26 10.65
11/8/2021 12:30:00 AM 9.06 48.308 0.439 7.48 5.54 10.64
11/8/2021 12:45:00 AM 9.04 48.272 0.439 7.48 4.02 10.67
11/8/2021 1:00:00 AM 9.02 48.236 0.439 7.49 3.87 10.66
11/8/2021 1:15:00 AM 9.02 48.236 0.439 7.48 3.99 10.65
11/8/2021 1:30:00 AM 9 48.2 0.439 7.48 4.58 10.65
11/8/2021 1:45:00 AM 8.99 48.182 0.439 7.48 4.15 10.65
11/8/2021 2:00:00 AM 8.97 48.146 0.439 7.48 4.41 10.67
11/8/2021 2:15:00 AM 8.96 48.128 0.439 7.48 4.56 10.67
11/8/2021 2:30:00 AM 8.94 48.092 0.439 7.48 4.36 10.67
11/8/2021 2:45:00 AM 8.93 48.074 0.439 7.48 4.08 10.67
11/8/2021 3:00:00 AM 8.91 48.038 0.439 7.45 4.05 10.68
11/8/2021 3:15:00 AM 8.89 48.002 0.439 7.48 3.95 10.68
11/8/2021 3:30:00 AM 8.86 47.948 0.439 7.48 3.96 10.69
11/8/2021 3:45:00 AM 8.84 47.912 0.439 7.48 3.84 10.69
11/8/2021 4:00:00 AM 8.82 47.876 0.44 7.48 3.89 10.7
11/8/2021 4:15:00 AM 8.79 47.822 0.44 7.48 4.11 10.72
11/8/2021 4:30:00 AM 8.76 47.768 0.44 7.48 4.29 10.72
11/8/2021 4:45:00 AM 8.73 47.714 0.44 7.48 4.21 10.72
11/8/2021 5:00:00 AM 8.71 47.678 0.44 7.48 4.51 10.71
11/8/2021 5:15:00 AM 8.68 47.624 0.44 7.48 4.32 10.73
11/8/2021 5:30:00 AM 8.65 47.57 0.44 7.48 4.15 10.74
11/8/2021 5:45:00 AM 8.62 47.516 0.44 7.48 4.27 10.73
11/8/2021 6:00:00 AM 8.59 47.462 0.441 7.48 4.35 10.74
11/8/2021 6:15:00 AM 8.56 47.408 0.441 7.45 4.4 10.76
11/8/2021 6:30:00 AM 8.54 47.372 0.441 7.48 4.45 10.75
11/8/2021 6:45:00 AM 8.51 47.318 0.442 7.47 4.43 10.76
11/8/2021 7:00:00 AM 8.48 47.264 0.441 7.48 4.48 10.79
11/8/2021 7:15:00 AM 8.46 47.228 0.442 7.47 4.7 10.8
11/8/2021 7:30:00 AM 8.44 47.192 0.442 7.49 4.68 10.8
11/8/2021 7:45:00 AM 8.43 47.174 0.442 7.48 6.27 10.84
11/8/2021 8:00:00 AM 8.41 47.138 0.442 7.48 5.28 10.87
11/8/2021 8:15:00 AM 8.39 47.102 0.442 7.49 4.56 10.91
11/8/2021 8:30:00 AM 8.38 47.084 0.442 7.48 4.1 10.93
11/8/2021 8:45:00 AM 8.38 47.084 0.442 7.49 3.99 10.95
11/8/2021 9:00:00 AM 8.37 47.066 0.442 7.49 4.41 11
11/8/2021 9:15:00 AM 8.37 47.066 0.443 7.49 4.26 11.03
11/8/2021 9:30:00 AM 8.39 47.102 0.443 7.49 4.24 11.08
11/8/2021 9:45:00 AM 8.43 47.174 0.443 7.5 4.09 11.14
11/8/2021 10:00:00 AM 8.47 47.246 0.443 7.5 4.08 11.18
11/8/2021 10:15:00 AM 8.5 47.3 0.443 7.51 4.13 11.23
11/8/2021 10:30:00 AM 8.55 47.39 0.444 7.51 4.22 11.26
11/8/2021 10:45:00 AM 8.6 47.48 0.444 7.52 4.28 11.31
11/8/2021 11:00:00 AM 8.67 47.606 0.444 7.53 4.09 11.38
11/8/2021 11:15:00 AM 8.73 47.714 0.444 7.53 3.79 11.42
11/8/2021 11:30:00 AM 8.8 47.84 0.444 7.54 3.91 11.49
11/8/2021 11:45:00 AM 8.9 48.02 0.444 7.54 3.8 11.55
11/8/2021 12:00:00 PM 9.03 48.254 0.444 7.55 4.04 11.61
11/8/2021 12:15:00 PM 9.18 48.524 0.444 7.56 4.36 11.69
11/8/2021 12:30:00 PM 9.33 48.794 0.445 7.57 4.24 11.76
11/8/2021 12:45:00 PM 9.48 49.064 0.445 7.59 4.34 11.83
11/8/2021 1:00:00 PM 9.63 49.334 0.446 7.59 5.35 11.85
11/8/2021 1:15:00 PM 9.77 49.586 0.447 7.6 3.88 11.9
11/8/2021 1:30:00 PM 9.89 49.802 0.447 7.59 5.61 11.92
11/8/2021 1:45:00 PM 10.01 50.018 0.447 7.6 3.97 11.96
11/8/2021 2:00:00 PM 10.1 50.18 0.447 7.63 4.01 11.94
11/8/2021 2:15:00 PM 10.2 50.36 0.448 7.62 5.56 11.92
11/8/2021 2:30:00 PM 10.29 50.522 0.448 7.62 3.26 11.91
11/8/2021 2:45:00 PM 10.37 50.666 0.448 7.64 3.65 11.91
11/8/2021 3:00:00 PM 10.44 50.792 0.448 7.66 3.24 11.9
11/8/2021 3:15:00 PM 10.49 50.882 0.448 7.65 3.34 11.85
11/8/2021 3:30:00 PM 10.53 50.954 0.448 7.65 3.29 11.81
11/8/2021 3:45:00 PM 10.55 50.99 0.449 7.64 4.69 11.74
11/8/2021 4:00:00 PM 10.55 50.99 0.449 7.64 4.78 11.69
11/8/2021 4:15:00 PM 10.54 50.972 0.449 7.64 3.2 11.62
11/8/2021 4:30:00 PM 10.53 50.954 0.449 7.64 3.26 11.54
11/8/2021 4:45:00 PM 10.51 50.918 0.449 7.62 4.84 11.46
11/8/2021 5:00:00 PM 10.5 50.9 0.45 7.62 3.17 11.38
11/8/2021 5:15:00 PM 10.48 50.864 0.45 7.62 3.4 11.3
11/8/2021 5:30:00 PM 10.47 50.846 0.45 7.61 3.34 11.22
11/8/2021 5:45:00 PM 10.45 50.81 0.45 7.61 5.09 11.15
11/8/2021 6:00:00 PM 10.43 50.774 0.45 7.6 3.72 11.07
11/8/2021 6:15:00 PM 10.41 50.738 0.451 7.59 5.08 11.01
11/8/2021 6:30:00 PM 10.38 50.684 0.451 7.58 3.7 10.94
11/8/2021 6:45:00 PM 10.35 50.63 0.451 7.58 5.24 10.86
11/8/2021 7:00:00 PM 10.33 50.594 0.451 7.57 3.44 10.81
11/8/2021 7:15:00 PM 10.31 50.558 0.452 7.56 5.08 10.74
11/8/2021 7:30:00 PM 10.29 50.522 0.452 7.55 5.52 10.7
11/8/2021 7:45:00 PM 10.26 50.468 0.452 7.54 5.19 10.66
11/8/2021 8:00:00 PM 10.24 50.432 0.452 7.52 3.58 10.63
11/8/2021 8:15:00 PM 10.22 50.396 0.452 7.54 5.92 10.59
11/8/2021 8:30:00 PM 10.2 50.36 0.453 7.54 3.59 10.57
11/8/2021 8:45:00 PM 10.18 50.324 0.453 7.53 5.27 10.53
11/8/2021 9:00:00 PM 10.16 50.288 0.453 7.53 3.91 10.52
11/8/2021 9:15:00 PM 10.14 50.252 0.452 7.53 5.51 10.51
11/8/2021 9:30:00 PM 10.11 50.198 0.453 7.53 3.9 10.5
11/8/2021 9:45:00 PM 10.09 50.162 0.453 7.52 5.29 10.47
11/8/2021 10:00:00 PM 10.07 50.126 0.453 7.52 4.05 10.47
11/8/2021 10:15:00 PM 10.05 50.09 0.453 7.52 3.56 10.47
11/8/2021 10:30:00 PM 10.02 50.036 0.453 7.52 4.11 10.47
11/8/2021 10:45:00 PM 10 50 0.454 7.52 3.56 10.46
11/8/2021 11:00:00 PM 9.97 49.946 0.454 7.51 3.78 10.45
11/8/2021 11:15:00 PM 9.94 49.892 0.453 7.52 3.86 10.45
11/8/2021 11:30:00 PM 9.92 49.856 0.454 7.51 3.94 10.45
11/8/2021 11:45:00 PM 9.9 49.82 0.454 7.51 3.66 10.44
11/9/2021 12:00:00 AM 9.88 49.784 0.454 7.51 3.7 10.44
11/9/2021 12:15:00 AM 9.85 49.73 0.454 7.51 3.74 10.45
11/9/2021 12:30:00 AM 9.83 49.694 0.454 7.51 3.66 10.43
11/9/2021 12:45:00 AM 9.82 49.676 0.454 7.49 5.11 10.42
11/9/2021 1:00:00 AM 9.79 49.622 0.454 7.5 3.6 10.42
11/9/2021 1:15:00 AM 9.77 49.586 0.455 7.49 5.39 10.41
11/9/2021 1:30:00 AM 9.75 49.55 0.455 7.5 3.57 10.41
11/9/2021 1:45:00 AM 9.73 49.514 0.455 7.5 3.8 10.42
11/9/2021 2:00:00 AM 9.72 49.496 0.455 7.5 3.8 10.41
11/9/2021 2:15:00 AM 9.7 49.46 0.455 7.5 4.04 10.41
11/9/2021 2:30:00 AM 9.68 49.424 0.455 7.49 3.87 10.42
11/9/2021 2:45:00 AM 9.67 49.406 0.455 7.49 5.32 10.4
11/9/2021 3:00:00 AM 9.64 49.352 0.456 7.5 3.95 10.41
11/9/2021 3:15:00 AM 9.63 49.334 0.456 7.5 4.02 10.42
11/9/2021 3:30:00 AM 9.61 49.298 0.456 7.5 3.68 10.43
11/9/2021 3:45:00 AM 9.59 49.262 0.456 7.5 3.81 10.44
11/9/2021 4:00:00 AM 9.57 49.226 0.457 7.49 3.83 10.44
11/9/2021 4:15:00 AM 9.55 49.19 0.457 7.5 4 10.44
11/9/2021 4:30:00 AM 9.52 49.136 0.457 7.49 5.22 10.45
11/9/2021 4:45:00 AM 9.49 49.082 0.458 7.49 3.93 10.47
11/9/2021 5:00:00 AM 9.46 49.028 0.458 7.49 4.27 10.47
11/9/2021 5:15:00 AM 9.43 48.974 0.458 7.49 5.16 10.48
11/9/2021 5:30:00 AM 9.4 48.92 0.458 7.48 3.9 10.49
11/9/2021 5:45:00 AM 9.37 48.866 0.458 7.49 3.92 10.5
11/9/2021 6:00:00 AM 9.34 48.812 0.458 7.5 3.91 10.51
11/9/2021 6:15:00 AM 9.32 48.776 0.459 7.49 3.92 10.51
11/9/2021 6:30:00 AM 9.29 48.722 0.458 7.49 4.22 10.52
11/9/2021 6:45:00 AM 9.26 48.668 0.459 7.49 4.37 10.52
11/9/2021 7:00:00 AM 9.23 48.614 0.458 7.5 4.04 10.55
11/9/2021 7:15:00 AM 9.2 48.56 0.459 7.5 3.87 10.55
11/9/2021 7:30:00 AM 9.18 48.524 0.459 7.5 5.64 10.57
11/9/2021 7:45:00 AM 9.16 48.488 0.459 7.49 3.92 10.6
11/9/2021 8:00:00 AM 9.14 48.452 0.459 7.5 3.7 10.64
11/9/2021 8:15:00 AM 9.13 48.434 0.459 7.5 3.58 10.67
11/9/2021 8:30:00 AM 9.12 48.416 0.459 7.5 3.64 10.71
11/9/2021 8:45:00 AM 9.11 48.398 0.459 7.5 5.12 10.74
11/9/2021 9:00:00 AM 9.11 48.398 0.459 7.51 3.62 10.81
11/9/2021 9:15:00 AM 9.12 48.416 0.459 7.51 3.45 10.86
11/9/2021 9:30:00 AM 9.14 48.452 0.46 7.52 3.42 10.92
11/9/2021 9:45:00 AM 9.17 48.506 0.46 7.53 3.52 11.01
11/9/2021 10:00:00 AM 9.22 48.596 0.46 7.53 3.48 11.07
11/9/2021 10:15:00 AM 9.26 48.668 0.46 7.54 3.44 11.15
11/9/2021 10:30:00 AM 9.31 48.758 0.461 7.54 3.45 11.21
11/9/2021 10:45:00 AM 9.37 48.866 0.461 7.55 3.48 11.29
11/9/2021 11:00:00 AM 9.45 49.01 0.461 7.56 3.42 11.36
11/9/2021 11:15:00 AM 9.52 49.136 0.461 7.57 3.26 11.41
11/9/2021 11:30:00 AM 9.61 49.298 0.462 7.57 4.68 11.47
11/9/2021 11:45:00 AM 9.71 49.478 0.461 7.58 3.15 11.56
11/9/2021 12:00:00 PM 9.79 49.622 0.461 7.6 3.37 11.63
11/9/2021 12:15:00 PM 9.89 49.802 0.462 7.6 2.93 11.72
11/9/2021 12:30:00 PM 10.01 50.018 0.462 7.62 3.01 11.81
11/9/2021 12:45:00 PM 10.19 50.342 0.462 7.63 3.3 11.88
11/9/2021 1:00:00 PM 10.32 50.576 0.462 7.64 2.96 11.94
11/9/2021 1:15:00 PM 10.43 50.774 0.462 7.65 2.91 12
11/9/2021 1:30:00 PM 10.54 50.972 0.463 7.66 3.07 12.04
11/9/2021 1:45:00 PM 10.64 51.152 0.463 7.67 3.56 12.06
11/9/2021 2:00:00 PM 10.73 51.314 0.463 7.68 3.01 12.05
11/9/2021 2:15:00 PM 10.82 51.476 0.464 7.68 3.05 12.06
11/9/2021 2:30:00 PM 10.91 51.638 0.463 7.69 3 12.05
11/9/2021 2:45:00 PM 10.98 51.764 0.463 7.7 2.88 12.04
11/9/2021 3:00:00 PM 11.02 51.836 0.463 7.7 2.92 11.96
11/9/2021 3:15:00 PM 11.07 51.926 0.463 7.69 4.73 11.91
11/9/2021 3:30:00 PM 11.09 51.962 0.465 7.69 2.85 11.84
11/9/2021 3:45:00 PM 11.12 52.016 0.465 7.68 4.79 11.75
11/9/2021 4:00:00 PM 11.14 52.052 0.465 7.68 3.32 11.68
11/9/2021 4:15:00 PM 11.15 52.07 0.465 7.68 3.04 11.61
11/9/2021 4:30:00 PM 11.16 52.088 0.465 7.67 4.5 11.5
11/9/2021 4:45:00 PM 11.16 52.088 0.465 7.66 4.77 11.38
11/9/2021 5:00:00 PM 11.16 52.088 0.465 7.65 2.97 11.31
11/9/2021 5:15:00 PM 11.15 52.07 0.466 7.63 4.77 11.2
11/9/2021 5:30:00 PM 11.15 52.07 0.466 7.62 5.1 11.1
11/9/2021 5:45:00 PM 11.14 52.052 0.466 7.62 3.31 11.02
11/9/2021 6:00:00 PM 11.13 52.034 0.466 7.61 4.87 10.94
11/9/2021 6:15:00 PM 11.13 52.034 0.466 7.59 3.24 10.87
11/9/2021 6:30:00 PM 11.12 52.016 0.466 7.6 4.94 10.79
11/9/2021 6:45:00 PM 11.12 52.016 0.467 7.58 3.25 10.73
11/9/2021 7:00:00 PM 11.11 51.998 0.467 7.59 4.95 10.66
11/9/2021 7:15:00 PM 11.11 51.998 0.467 7.57 3.09 10.61
11/9/2021 7:30:00 PM 11.11 51.998 0.467 7.58 3.19 10.55
11/9/2021 7:45:00 PM 11.12 52.016 0.467 7.57 4.64 10.5
11/9/2021 8:00:00 PM 11.12 52.016 0.467 7.57 3.26 10.47
11/9/2021 8:15:00 PM 11.12 52.016 0.467 7.56 3.26 10.42
11/9/2021 8:30:00 PM 11.13 52.034 0.468 7.55 4.72 10.38
11/9/2021 8:45:00 PM 11.14 52.052 0.467 7.56 3.21 10.34
11/9/2021 9:00:00 PM 11.14 52.052 0.468 7.54 5.6 10.3
11/9/2021 9:15:00 PM 11.14 52.052 0.468 7.54 3.31 10.28
11/9/2021 9:30:00 PM 11.15 52.07 0.468 7.53 4.88 10.25
11/9/2021 9:45:00 PM 11.16 52.088 0.468 7.54 3.4 10.22
11/9/2021 10:00:00 PM 11.16 52.088 0.468 7.54 3.48 10.21
11/9/2021 10:15:00 PM 11.17 52.106 0.468 7.53 4.9 10.18
11/9/2021 10:30:00 PM 11.17 52.106 0.468 7.53 3.8 10.18
11/9/2021 10:45:00 PM 11.18 52.124 0.469 7.52 5.58 10.15
11/9/2021 11:00:00 PM 11.18 52.124 0.469 7.52 5.75 10.13
11/9/2021 11:15:00 PM 11.18 52.124 0.469 7.53 4.06 10.14
11/9/2021 11:30:00 PM 11.18 52.124 0.469 7.53 3.88 10.12
11/9/2021 11:45:00 PM 11.19 52.142 0.469 7.52 5.18 10.11
11/10/2021 12:00:00 AM 11.19 52.142 0.469 7.5 3.63 10.11
11/10/2021 12:15:00 AM 11.19 52.142 0.469 7.53 3.73 10.09
11/10/2021 12:30:00 AM 11.19 52.142 0.47 7.52 3.59 10.08
11/10/2021 12:45:00 AM 11.19 52.142 0.47 7.52 4.88 10.06
11/10/2021 1:00:00 AM 11.19 52.142 0.47 7.51 5.24 10.06
11/10/2021 1:15:00 AM 11.2 52.16 0.47 7.51 5.15 10.06
11/10/2021 1:30:00 AM 11.2 52.16 0.47 7.52 3.77 10.05
11/10/2021 1:45:00 AM 11.2 52.16 0.47 7.52 5.39 10.04
11/10/2021 2:00:00 AM 11.21 52.178 0.471 7.52 4.1 10.03
11/10/2021 2:15:00 AM 11.21 52.178 0.471 7.52 4.47 10.03
11/10/2021 2:30:00 AM 11.22 52.196 0.471 7.51 5.27 10.02
11/10/2021 2:45:00 AM 11.23 52.214 0.471 7.51 5.02 10.02
11/10/2021 3:00:00 AM 11.24 52.232 0.471 7.52 3.6 10.01
11/10/2021 3:15:00 AM 11.25 52.25 0.472 7.52 5.11 9.99
11/10/2021 3:30:00 AM 11.26 52.268 0.472 7.51 5.24 9.97
11/10/2021 3:45:00 AM 11.26 52.268 0.472 7.51 5.41 9.98
11/10/2021 4:00:00 AM 11.27 52.286 0.472 7.52 3.89 9.98
11/10/2021 4:15:00 AM 11.28 52.304 0.473 7.52 5.11 9.96
11/10/2021 4:30:00 AM 11.28 52.304 0.473 7.52 3.63 9.96
11/10/2021 4:45:00 AM 11.29 52.322 0.473 7.52 4.87 9.95
11/10/2021 5:00:00 AM 11.29 52.322 0.473 7.52 3.51 9.95
11/10/2021 5:15:00 AM 11.29 52.322 0.474 7.52 4.87 9.95
11/10/2021 5:30:00 AM 11.29 52.322 0.474 7.53 3.71 9.95
11/10/2021 5:45:00 AM 11.3 52.34 0.474 7.52 5.44 9.96
11/10/2021 6:00:00 AM 11.29 52.322 0.474 7.52 3.86 9.96
11/10/2021 6:15:00 AM 11.29 52.322 0.474 7.52 4.96 9.95
11/10/2021 6:30:00 AM 11.29 52.322 0.474 7.53 3.49 9.96
11/10/2021 6:45:00 AM 11.29 52.322 0.475 7.52 5.16 9.96
11/10/2021 7:00:00 AM 11.29 52.322 0.475 7.53 3.93 9.96
11/10/2021 7:15:00 AM 11.29 52.322 0.475 7.52 5.41 9.97
11/10/2021 7:30:00 AM 11.28 52.304 0.475 7.52 5.46 9.99
11/10/2021 7:45:00 AM 11.26 52.268 0.475 7.53 3.61 10.03
11/10/2021 8:00:00 AM 11.25 52.25 0.475 7.53 5.25 10.05
11/10/2021 8:15:00 AM 11.24 52.232 0.475 7.54 3.83 10.09
11/10/2021 8:30:00 AM 11.23 52.214 0.475 7.54 3.97 10.13
11/10/2021 8:45:00 AM 11.22 52.196 0.475 7.54 4.82 10.19
11/10/2021 9:00:00 AM 11.22 52.196 0.476 7.55 3.68 10.27
11/10/2021 9:15:00 AM 11.21 52.178 0.476 7.56 3.31 10.31
11/10/2021 9:30:00 AM 11.21 52.178 0.476 7.56 3.15 10.38
11/10/2021 9:45:00 AM 11.22 52.196 0.476 7.57 3.2 10.47
11/10/2021 10:00:00 AM 11.27 52.286 0.476 7.58 4.64 10.59
11/10/2021 10:15:00 AM 11.28 52.304 0.476 7.58 3.26 10.68
11/10/2021 10:30:00 AM 11.28 52.304 0.476 7.59 4.56 10.73
11/10/2021 10:45:00 AM 11.31 52.358 0.477 7.59 5.34 10.81
11/10/2021 11:00:00 AM 11.37 52.466 0.476 7.6 4.56 10.9
11/10/2021 11:15:00 AM 11.44 52.592 0.476 7.63 3.09 11.05
11/10/2021 11:30:00 AM 11.5 52.7 0.476 7.63 4.34 11.13
11/10/2021 11:45:00 AM 11.56 52.808 0.477 7.65 3.22 11.23
11/10/2021 12:00:00 PM 11.63 52.934 0.477 7.65 4.85 11.32
11/10/2021 12:15:00 PM 11.69 53.042 0.477 7.66 4.59 11.41
11/10/2021 12:30:00 PM 11.76 53.168 0.477 7.68 4.79 11.49
11/10/2021 12:45:00 PM 11.84 53.312 0.478 7.68 3.76 11.55
11/10/2021 1:00:00 PM 11.9 53.42 0.478 7.7 4.55 11.61
11/10/2021 1:15:00 PM 11.97 53.546 0.478 7.7 4.41 11.68
11/10/2021 1:30:00 PM 12.05 53.69 0.478 7.72 4.32 11.74
11/10/2021 1:45:00 PM 12.1 53.78 0.478 7.73 4.63 11.78
11/10/2021 2:00:00 PM 12.14 53.852 0.478 7.73 6.96 11.8
11/10/2021 2:15:00 PM 12.19 53.942 0.479 7.73 4.46 11.83
11/10/2021 2:30:00 PM 12.23 54.014 0.479 7.74 3.47 11.82
11/10/2021 2:45:00 PM 12.26 54.068 0.48 7.74 4.64 11.81
11/10/2021 3:00:00 PM 12.29 54.122 0.48 7.75 4.56 11.78
11/10/2021 3:15:00 PM 12.31 54.158 0.48 7.75 4.63 11.74
11/10/2021 3:30:00 PM 12.31 54.158 0.48 7.75 4.49 11.72
11/10/2021 3:45:00 PM 12.3 54.14 0.48 7.75 4.62 11.65
11/10/2021 4:00:00 PM 12.27 54.086 0.48 7.74 4.46 11.57
11/10/2021 4:15:00 PM 12.23 54.014 0.48 7.74 4.56 11.5
11/10/2021 4:30:00 PM 12.18 53.924 0.48 7.74 3 11.4
11/10/2021 4:45:00 PM 12.12 53.816 0.48 7.73 2.82 11.3
11/10/2021 5:00:00 PM 12.06 53.708 0.48 7.72 2.72 11.2
11/10/2021 5:15:00 PM 11.99 53.582 0.48 7.71 2.96 11.1
11/10/2021 5:30:00 PM 11.93 53.474 0.48 7.69 4.72 11.01
11/10/2021 5:45:00 PM 11.87 53.366 0.48 7.69 3.03 10.94
11/10/2021 6:00:00 PM 11.81 53.258 0.48 7.68 3.2 10.86
11/10/2021 6:15:00 PM 11.74 53.132 0.48 7.66 4.58 10.77
11/10/2021 6:30:00 PM 11.68 53.024 0.48 7.66 4.57 10.69
11/10/2021 6:45:00 PM 11.61 52.898 0.48 7.64 5.19 10.62
11/10/2021 7:00:00 PM 11.55 52.79 0.48 7.64 3.25 10.55
11/10/2021 7:15:00 PM 11.48 52.664 0.481 7.63 3.13 10.48
11/10/2021 7:30:00 PM 11.43 52.574 0.481 7.62 4.5 10.42
11/10/2021 7:45:00 PM 11.36 52.448 0.481 7.61 4.7 10.38
11/10/2021 8:00:00 PM 11.31 52.358 0.481 7.61 3.44 10.34
11/10/2021 8:15:00 PM 11.25 52.25 0.481 7.61 3.2 10.31
11/10/2021 8:30:00 PM 11.2 52.16 0.481 7.6 4.78 10.29
11/10/2021 8:45:00 PM 11.14 52.052 0.481 7.6 3.67 10.26
11/10/2021 9:00:00 PM 11.09 51.962 0.481 7.59 3.71 10.24
11/10/2021 9:15:00 PM 11.04 51.872 0.481 7.59 3.81 10.21
11/10/2021 9:30:00 PM 10.99 51.782 0.481 7.59 3.78 10.21
11/10/2021 9:45:00 PM 10.95 51.71 0.481 7.58 3.41 10.18
11/10/2021 10:00:00 PM 10.9 51.62 0.481 7.57 4.91 10.17
11/10/2021 10:15:00 PM 10.85 51.53 0.481 7.57 3.52 10.16
11/10/2021 10:30:00 PM 10.8 51.44 0.481 7.56 4.84 10.16
11/10/2021 10:45:00 PM 10.75 51.35 0.481 7.57 3.37 10.16
11/10/2021 11:00:00 PM 10.7 51.26 0.482 7.57 3.39 10.17
11/10/2021 11:15:00 PM 10.64 51.152 0.482 7.55 4.98 10.17
11/10/2021 11:30:00 PM 10.6 51.08 0.482 7.56 3.3 10.18
11/10/2021 11:45:00 PM 10.55 50.99 0.482 7.56 3.4 10.17
11/11/2021 12:00:00 AM 10.51 50.918 0.482 7.55 3.43 10.18
11/11/2021 12:15:00 AM 10.45 50.81 0.482 7.55 3.54 10.18
11/11/2021 12:30:00 AM 10.4 50.72 0.482 7.55 5.33 10.2
11/11/2021 12:45:00 AM 10.36 50.648 0.482 7.55 3.42 10.2
11/11/2021 1:00:00 AM 10.31 50.558 0.482 7.54 3.62 10.21
11/11/2021 1:15:00 AM 10.26 50.468 0.482 7.54 3.74 10.21
11/11/2021 1:30:00 AM 10.21 50.378 0.482 7.53 3.56 10.22
11/11/2021 1:45:00 AM 10.16 50.288 0.482 7.52 5 10.23
11/11/2021 2:00:00 AM 10.11 50.198 0.482 7.53 4.87 10.25
11/11/2021 2:15:00 AM 10.06 50.108 0.482 7.52 3.51 10.26
11/11/2021 2:30:00 AM 10.02 50.036 0.482 7.53 3.69 10.28
11/11/2021 2:45:00 AM 9.97 49.946 0.482 7.51 4.97 10.28
11/11/2021 3:00:00 AM 9.93 49.874 0.482 7.51 3.36 10.32
11/11/2021 3:15:00 AM 9.88 49.784 0.482 7.51 5.01 10.31
11/11/2021 3:30:00 AM 9.84 49.712 0.482 7.51 5.34 10.32
11/11/2021 3:45:00 AM 9.8 49.64 0.482 7.51 3.35 10.32
11/11/2021 4:00:00 AM 9.76 49.568 0.483 7.5 5.18 10.32
11/11/2021 4:15:00 AM 9.72 49.496 0.483 7.49 3.38 10.33
11/11/2021 4:30:00 AM 9.68 49.424 0.483 7.51 3.56 10.35
11/11/2021 4:45:00 AM 9.64 49.352 0.483 7.51 3.64 10.36
11/11/2021 5:00:00 AM 9.63 49.334 0.483 7.51 3.73 10.36
11/11/2021 5:15:00 AM 9.59 49.262 0.484 7.51 3.8 10.37
11/11/2021 5:30:00 AM 9.55 49.19 0.484 7.51 3.77 10.38
11/11/2021 5:45:00 AM 9.52 49.136 0.484 7.51 4.97 10.39
11/11/2021 6:00:00 AM 9.49 49.082 0.484 7.51 3.69 10.4
11/11/2021 6:15:00 AM 9.45 49.01 0.484 7.51 3.57 10.42
11/11/2021 6:30:00 AM 9.41 48.938 0.484 7.51 3.5 10.43
11/11/2021 6:45:00 AM 9.39 48.902 0.485 7.51 3.54 10.44
11/11/2021 7:00:00 AM 9.37 48.866 0.485 7.52 3.64 10.45
11/11/2021 7:15:00 AM 9.35 48.83 0.485 7.52 3.33 10.47
11/11/2021 7:30:00 AM 9.34 48.812 0.486 7.52 3.57 10.5
11/11/2021 7:45:00 AM 9.34 48.812 0.486 7.53 3.32 10.54
11/11/2021 8:00:00 AM 9.33 48.794 0.486 7.53 3.32 10.6
11/11/2021 8:15:00 AM 9.32 48.776 0.486 7.54 3.1 10.66
11/11/2021 8:30:00 AM 9.3 48.74 0.486 7.54 3.02 10.72
11/11/2021 8:45:00 AM 9.3 48.74 0.487 7.52 3.83 10.77
11/11/2021 9:00:00 AM 9.29 48.722 0.487 7.55 3.32 10.83
11/11/2021 9:15:00 AM 9.29 48.722 0.487 7.56 3.2 10.91
11/11/2021 9:30:00 AM 9.3 48.74 0.487 7.57 3.11 11.01
11/11/2021 9:45:00 AM 9.32 48.776 0.488 7.58 3.01 11.12
11/11/2021 10:00:00 AM 9.34 48.812 0.487 7.59 2.98 11.21
11/11/2021 10:15:00 AM 9.35 48.83 0.488 7.6 3.02 11.3
11/11/2021 10:30:00 AM 9.37 48.866 0.488 7.61 3.1 11.37
11/11/2021 10:45:00 AM 9.4 48.92 0.488 7.62 3.08 11.49
11/11/2021 11:00:00 AM 9.44 48.992 0.488 7.62 3.37 11.58
11/11/2021 11:15:00 AM 9.48 49.064 0.489 7.64 3.64 11.68
11/11/2021 11:30:00 AM 9.55 49.19 0.489 7.65 3.41 11.78
11/11/2021 11:45:00 AM 9.6 49.28 0.489 7.66 3.2 11.84
11/11/2021 12:00:00 PM 9.65 49.37 0.489 7.67 4.66 11.93
11/11/2021 12:15:00 PM 9.72 49.496 0.489 7.67 3.01 12.04
11/11/2021 12:30:00 PM 9.83 49.694 0.489 7.71 3.24 12.19
11/11/2021 12:45:00 PM 9.9 49.82 0.49 7.72 3.18 12.27
11/11/2021 1:00:00 PM 9.96 49.928 0.49 7.73 3.14 12.35
11/11/2021 1:15:00 PM 10.03 50.054 0.49 7.74 3.2 12.4
11/11/2021 1:30:00 PM 10.1 50.18 0.49 7.75 3.09 12.47
11/11/2021 1:45:00 PM 10.17 50.306 0.49 7.76 3.46 12.51
11/11/2021 2:00:00 PM 10.23 50.414 0.49 7.76 4.84 12.5
11/11/2021 2:15:00 PM 10.3 50.54 0.49 7.78 4.58 12.54
11/11/2021 2:30:00 PM 10.34 50.612 0.49 7.78 2.87 12.52
11/11/2021 2:45:00 PM 10.39 50.702 0.491 7.79 2.82 12.49
11/11/2021 3:00:00 PM 10.43 50.774 0.491 7.79 2.88 12.49
11/11/2021 3:15:00 PM 10.47 50.846 0.491 7.79 2.91 12.46
11/11/2021 3:30:00 PM 10.51 50.918 0.491 7.78 4.39 12.41
11/11/2021 3:45:00 PM 10.53 50.954 0.492 7.79 2.69 12.36
11/11/2021 4:00:00 PM 10.56 51.008 0.492 7.78 3.17 12.29
11/11/2021 4:15:00 PM 10.58 51.044 0.492 7.78 2.61 12.2
11/11/2021 4:30:00 PM 10.59 51.062 0.492 7.76 4.74 12.09
11/11/2021 4:45:00 PM 10.61 51.098 0.493 7.76 2.61 11.97
11/11/2021 5:00:00 PM 10.62 51.116 0.493 7.75 2.68 11.84
11/11/2021 5:15:00 PM 10.62 51.116 0.493 7.74 2.6 11.75
11/11/2021 5:30:00 PM 10.63 51.134 0.493 7.73 4.48 11.63
11/11/2021 5:45:00 PM 10.63 51.134 0.494 7.73 2.73 11.53
11/11/2021 6:00:00 PM 10.63 51.134 0.494 7.72 2.75 11.43
11/11/2021 6:15:00 PM 10.63 51.134 0.494 7.7 4.47 11.32
11/11/2021 6:30:00 PM 10.62 51.116 0.494 7.7 4.44 11.22
11/11/2021 6:45:00 PM 10.62 51.116 0.495 7.69 2.81 11.12
11/11/2021 7:00:00 PM 10.61 51.098 0.495 7.67 4.34 11.02
11/11/2021 7:15:00 PM 10.6 51.08 0.495 7.66 2.81 10.94
11/11/2021 7:30:00 PM 10.6 51.08 0.495 7.66 2.82 10.86
11/11/2021 7:45:00 PM 10.59 51.062 0.495 7.65 2.8 10.78
11/11/2021 8:00:00 PM 10.59 51.062 0.495 7.65 2.85 10.72
11/11/2021 8:15:00 PM 10.59 51.062 0.496 7.64 2.88 10.66
11/11/2021 8:30:00 PM 10.6 51.08 0.496 7.63 2.99 10.61
11/11/2021 8:45:00 PM 10.6 51.08 0.496 7.63 3.19 10.55
11/11/2021 9:00:00 PM 10.6 51.08 0.497 7.62 3.14 10.49
11/11/2021 9:15:00 PM 10.61 51.098 0.497 7.62 3.1 10.45
11/11/2021 9:30:00 PM 10.62 51.116 0.497 7.61 3.22 10.41
11/11/2021 9:45:00 PM 10.64 51.152 0.497 7.6 4.94 10.37
11/11/2021 10:00:00 PM 10.66 51.188 0.497 7.6 4.97 10.34
11/11/2021 10:15:00 PM 10.67 51.206 0.498 7.59 3.52 10.29
11/11/2021 10:30:00 PM 10.69 51.242 0.498 7.59 4.99 10.27
11/11/2021 10:45:00 PM 10.71 51.278 0.498 7.59 5.24 10.24
11/11/2021 11:00:00 PM 10.73 51.314 0.498 7.59 3.5 10.22
11/11/2021 11:15:00 PM 10.75 51.35 0.498 7.59 5 10.19
11/11/2021 11:30:00 PM 10.76 51.368 0.498 7.59 3.44 10.17
11/11/2021 11:45:00 PM 10.78 51.404 0.498 7.59 3.6 10.15
11/12/2021 12:00:00 AM 10.8 51.44 0.498 7.58 3.71 10.13
11/12/2021 12:15:00 AM 10.83 51.494 0.497 7.58 5.59 10.12
11/12/2021 12:30:00 AM 10.86 51.548 0.497 7.58 3.6 10.11
11/12/2021 12:45:00 AM 10.88 51.584 0.498 7.58 3.24 10.09
11/12/2021 1:00:00 AM 10.91 51.638 0.498 7.57 4.9 10.07
11/12/2021 1:15:00 AM 10.93 51.674 0.498 7.57 3.34 10.06
11/12/2021 1:30:00 AM 10.96 51.728 0.498 7.57 3.33 10.06
11/12/2021 1:45:00 AM 10.98 51.764 0.498 7.57 3.42 10.03
11/12/2021 2:00:00 AM 11.01 51.818 0.498 7.57 4.89 10.03
11/12/2021 2:15:00 AM 11.03 51.854 0.498 7.57 4.97 10.02
11/12/2021 2:30:00 AM 11.05 51.89 0.499 7.54 3.97 10
11/12/2021 2:45:00 AM 11.07 51.926 0.499 7.56 5.18 10
11/12/2021 3:00:00 AM 11.09 51.962 0.499 7.55 3.71 9.98
11/12/2021 3:15:00 AM 11.12 52.016 0.499 7.57 3.84 9.98
11/12/2021 3:30:00 AM 11.14 52.052 0.498 7.57 4.05 9.97
11/12/2021 3:45:00 AM 11.18 52.124 0.498 7.57 5.43 9.97
11/12/2021 4:00:00 AM 11.21 52.178 0.497 7.57 4.04 9.95
11/12/2021 4:15:00 AM 11.25 52.25 0.496 7.58 4.38 9.98
11/12/2021 4:30:00 AM 11.29 52.322 0.495 7.58 5.54 9.96
11/12/2021 4:45:00 AM 11.32 52.376 0.494 7.57 6.98 9.95
11/12/2021 5:00:00 AM 11.34 52.412 0.494 7.57 6.01 9.93
11/12/2021 5:15:00 AM 11.4 52.52 0.485 7.58 29.27 9.99
11/12/2021 5:30:00 AM 11.41 52.538 0.484 7.57 20.51 9.97
11/12/2021 5:45:00 AM 11.41 52.538 0.485 7.57 17.29 9.94
11/12/2021 6:00:00 AM 11.43 52.574 0.484 7.57 24.96 9.93
11/12/2021 6:15:00 AM 11.45 52.61 0.481 7.56 30.63 9.92
11/12/2021 6:30:00 AM 11.47 52.646 0.478 7.55 32.12 9.92
11/12/2021 6:45:00 AM 11.47 52.646 0.476 7.56 35.25 9.9
11/12/2021 7:00:00 AM 11.48 52.664 0.473 7.53 32.05 9.89
11/12/2021 7:15:00 AM 11.49 52.682 0.47 7.55 34.65 9.88
11/12/2021 7:30:00 AM 11.5 52.7 0.466 7.54 38.26 9.88
11/12/2021 7:45:00 AM 11.52 52.736 0.46 7.55 43.83 9.9
11/12/2021 8:00:00 AM 11.54 52.772 0.455 7.55 34.62 9.92
11/12/2021 8:15:00 AM 11.56 52.808 0.45 7.55 34.78 9.94
11/12/2021 8:30:00 AM 11.57 52.826 0.446 7.54 35.36 9.95
11/12/2021 8:45:00 AM 11.58 52.844 0.442 7.54 32.07 9.93
11/12/2021 9:00:00 AM 11.59 52.862 0.435 7.52 34.87 9.94
11/12/2021 9:15:00 AM 11.59 52.862 0.425 7.51 35.55 9.94
11/12/2021 9:30:00 AM 11.61 52.898 0.417 7.5 37.81 9.92
11/12/2021 9:45:00 AM 11.6 52.88 0.405 7.49 42.74 9.92
11/12/2021 10:00:00 AM 11.57 52.826 0.386 7.47 62.58 9.96
11/12/2021 10:15:00 AM 11.53 52.754 0.366 7.45 79.53 9.99
11/12/2021 10:30:00 AM 11.52 52.736 0.343 7.43 86.29 10.05
11/12/2021 10:45:00 AM 11.53 52.754 0.323 7.43 102.43 10.14
11/12/2021 11:00:00 AM 11.5 52.7 0.309 7.43 94.73 10.19
11/12/2021 11:15:00 AM 11.46 52.628 0.285 7.41 93.15 10.24
11/12/2021 11:30:00 AM 11.48 52.664 0.256 7.38 94.87 10.29
11/12/2021 11:45:00 AM 11.52 52.736 0.23 7.37 121.17 10.38
11/12/2021 12:00:00 PM 11.42 52.556 0.211 7.34 119.53 10.51
11/12/2021 12:15:00 PM 11.28 52.304 0.196 7.31 164.85 10.63
11/12/2021 12:30:00 PM 11.2 52.16 0.186 7.29 181.66 10.7
11/12/2021 12:45:00 PM 11.18 52.124 0.179 7.26 190.97 10.73
11/12/2021 1:00:00 PM 11.19 52.142 0.172 7.26 204.59 10.74
11/12/2021 1:15:00 PM 11.23 52.214 0.168 7.25 173.31 10.71
11/12/2021 1:30:00 PM 11.27 52.286 0.166 7.26 153.26 10.72
11/12/2021 1:45:00 PM 11.3 52.34 0.165 7.25 155.41 10.7
11/12/2021 2:00:00 PM 11.33 52.394 0.162 7.24 135.2 10.7
11/12/2021 2:15:00 PM 11.36 52.448 0.162 7.24 121.93 10.69
11/12/2021 2:30:00 PM 11.38 52.484 0.163 7.24 118.59 10.68
11/12/2021 2:45:00 PM 11.39 52.502 0.164 7.25 121.05 10.65
11/12/2021 3:00:00 PM 11.4 52.52 0.165 7.25 97.91 10.63
11/12/2021 3:15:00 PM 11.41 52.538 0.166 7.24 95.95 10.62
11/12/2021 3:30:00 PM 11.42 52.556 0.168 7.26 89.01 10.6
11/12/2021 3:45:00 PM 11.43 52.574 0.169 7.24 76.81 10.57
11/12/2021 4:00:00 PM 11.44 52.592 0.171 7.24 75.76 10.56
11/12/2021 4:15:00 PM 11.45 52.61 0.172 7.25 75.16 10.55
11/12/2021 4:30:00 PM 11.45 52.61 0.173 7.26 63.61 10.52
11/12/2021 4:45:00 PM 11.44 52.592 0.174 7.23 63.24 10.52
11/12/2021 5:00:00 PM 11.43 52.574 0.176 7.25 53.48 10.5
11/12/2021 5:15:00 PM 11.42 52.556 0.177 7.23 52.89 10.49
11/12/2021 5:30:00 PM 11.4 52.52 0.178 7.24 49.57 10.48
11/12/2021 5:45:00 PM 11.38 52.484 0.18 7.24 53.97 10.46
11/12/2021 6:00:00 PM 11.37 52.466 0.182 7.25 45.54 10.45
11/12/2021 6:15:00 PM 11.34 52.412 0.183 7.23 48.7 10.45
11/12/2021 6:30:00 PM 11.32 52.376 0.186 7.23 45.44 10.41
11/12/2021 6:45:00 PM 11.29 52.322 0.187 7.23 41.4 10.43
11/12/2021 7:00:00 PM 11.25 52.25 0.189 7.25 37.71 10.43
11/12/2021 7:15:00 PM 11.21 52.178 0.191 7.25 36.14 10.42
11/12/2021 7:30:00 PM 11.17 52.106 0.194 7.25 34.63 10.41
11/12/2021 7:45:00 PM 11.13 52.034 0.196 7.25 35.24 10.41
11/12/2021 8:00:00 PM 11.08 51.944 0.198 7.24 34.76 10.38
11/12/2021 8:15:00 PM 11.04 51.872 0.2 7.24 33.55 10.38
11/12/2021 8:30:00 PM 10.99 51.782 0.203 7.24 35.39 10.39
11/12/2021 8:45:00 PM 10.94 51.692 0.205 7.25 34.13 10.37
11/12/2021 9:00:00 PM 10.88 51.584 0.208 7.25 31.23 10.38
11/12/2021 9:15:00 PM 10.82 51.476 0.21 7.25 29.81 10.4
11/12/2021 9:30:00 PM 10.76 51.368 0.212 7.26 29.05 10.41
11/12/2021 9:45:00 PM 10.7 51.26 0.215 7.24 26.7 10.42
11/12/2021 10:00:00 PM 10.64 51.152 0.217 7.25 26.44 10.44
11/12/2021 10:15:00 PM 10.58 51.044 0.219 7.25 25.65 10.46
11/12/2021 10:30:00 PM 10.52 50.936 0.221 7.26 26.81 10.45
11/12/2021 10:45:00 PM 10.46 50.828 0.223 7.26 24.22 10.44
11/12/2021 11:00:00 PM 10.39 50.702 0.225 7.25 26.01 10.47
11/12/2021 11:15:00 PM 10.33 50.594 0.227 7.25 24.58 10.48
11/12/2021 11:30:00 PM 10.27 50.486 0.229 7.24 20.84 10.49
11/12/2021 11:45:00 PM 10.2 50.36 0.231 7.24 22.61 10.51
11/13/2021 12:00:00 AM 10.14 50.252 0.232 7.24 21.83 10.52
11/13/2021 12:15:00 AM 10.09 50.162 0.234 7.24 20.96 10.53
11/13/2021 12:30:00 AM 10.03 50.054 0.236 7.24 20.13 10.55
11/13/2021 12:45:00 AM 9.97 49.946 0.237 7.24 20.04 10.56
11/13/2021 1:00:00 AM 9.91 49.838 0.239 7.24 19.33 10.57
11/13/2021 1:15:00 AM 9.86 49.748 0.24 7.25 17.61 10.57
11/13/2021 1:30:00 AM 9.81 49.658 0.241 7.24 17.48 10.58
11/13/2021 1:45:00 AM 9.76 49.568 0.242 7.24 16.35 10.59
11/13/2021 2:00:00 AM 9.7 49.46 0.243 7.24 17.53 10.62
11/13/2021 2:15:00 AM 9.65 49.37 0.244 7.26 16.64 10.64
11/13/2021 2:30:00 AM 9.61 49.298 0.246 7.25 15.18 10.65
11/13/2021 2:45:00 AM 9.56 49.208 0.247 7.26 16.92 10.67
11/13/2021 3:00:00 AM 9.52 49.136 0.248 7.26 16.89 10.66
11/13/2021 3:15:00 AM 9.48 49.064 0.25 7.25 15.35 10.67
11/13/2021 3:30:00 AM 9.44 48.992 0.251 7.25 14.75 10.69
11/13/2021 3:45:00 AM 9.4 48.92 0.252 7.27 13.05 10.66
11/13/2021 4:00:00 AM 9.37 48.866 0.253 7.27 13.32 10.7
11/13/2021 4:15:00 AM 9.34 48.812 0.254 7.27 15.38 10.71
11/13/2021 4:30:00 AM 9.3 48.74 0.256 7.27 14.27 10.7
11/13/2021 4:45:00 AM 9.28 48.704 0.257 7.28 14.25 10.68
11/13/2021 5:00:00 AM 9.25 48.65 0.258 7.28 12.84 10.7
11/13/2021 5:15:00 AM 9.23 48.614 0.259 7.28 12.25 10.71
11/13/2021 5:30:00 AM 9.21 48.578 0.26 7.29 14.6 10.72
11/13/2021 5:45:00 AM 9.2 48.56 0.261 7.29 11.4 10.69
11/13/2021 6:00:00 AM 9.17 48.506 0.263 7.29 11.77 10.72
11/13/2021 6:15:00 AM 9.15 48.47 0.264 7.3 12.05 10.73
11/13/2021 6:30:00 AM 9.13 48.434 0.265 7.3 12.07 10.73
11/13/2021 6:45:00 AM 9.11 48.398 0.266 7.3 28.88 10.75
11/13/2021 7:00:00 AM 9.09 48.362 0.267 7.3 17.39 10.74
11/13/2021 7:15:00 AM 9.08 48.344 0.269 7.3 10.09 10.73
11/13/2021 7:30:00 AM 9.07 48.326 0.27 7.3 11.37 10.74
11/13/2021 7:45:00 AM 9.06 48.308 0.271 7.31 17.98 10.77
11/13/2021 8:00:00 AM 9.05 48.29 0.272 7.31 10.81 10.78
11/13/2021 8:15:00 AM 9.05 48.29 0.273 7.31 10.28 10.77
11/13/2021 8:30:00 AM 9.05 48.29 0.275 7.32 10.2 10.8
11/13/2021 8:45:00 AM 9.05 48.29 0.276 7.33 9.71 10.84
11/13/2021 9:00:00 AM 9.06 48.308 0.277 7.33 9.42 10.85
11/13/2021 9:15:00 AM 9.07 48.326 0.278 7.32 9.63 10.86
11/13/2021 9:30:00 AM 9.07 48.326 0.279 7.34 9.43 10.88
11/13/2021 9:45:00 AM 9.08 48.344 0.28 7.35 9.41 10.92
11/13/2021 10:00:00 AM 9.1 48.38 0.281 7.35 8.85 10.95
11/13/2021 10:15:00 AM 9.11 48.398 0.281 7.36 10.21 11
11/13/2021 10:30:00 AM 9.14 48.452 0.283 7.37 8.75 11.05
11/13/2021 10:45:00 AM 9.16 48.488 0.283 7.38 8.1 11.1
11/13/2021 11:00:00 AM 9.18 48.524 0.284 7.39 8.06 11.13
11/13/2021 11:15:00 AM 9.2 48.56 0.285 7.39 8.08 11.18
11/13/2021 11:30:00 AM 9.21 48.578 0.286 7.39 8.74 11.16
11/13/2021 11:45:00 AM 9.21 48.578 0.287 7.4 8.34 11.2
11/13/2021 12:00:00 PM 9.22 48.596 0.288 7.4 8.17 11.25
11/13/2021 12:15:00 PM 9.24 48.632 0.289 7.41 8.26 11.27
11/13/2021 12:30:00 PM 9.26 48.668 0.29 7.42 8.23 11.31
11/13/2021 12:45:00 PM 9.28 48.704 0.291 7.43 7.88 11.34
11/13/2021 1:00:00 PM 9.29 48.722 0.291 7.43 8.04 11.33
11/13/2021 1:15:00 PM 9.31 48.758 0.292 7.43 7.44 11.36
11/13/2021 1:30:00 PM 9.33 48.794 0.293 7.44 7.2 11.41
11/13/2021 1:45:00 PM 9.37 48.866 0.294 7.44 8.7 11.46
11/13/2021 2:00:00 PM 9.4 48.92 0.294 7.46 7.67 11.51
11/13/2021 2:15:00 PM 9.45 49.01 0.295 7.46 9.16 11.53
11/13/2021 2:30:00 PM 9.45 49.01 0.296 7.46 7.77 11.49
11/13/2021 2:45:00 PM 9.45 49.01 0.297 7.47 6.88 11.48
11/13/2021 3:00:00 PM 9.46 49.028 0.297 7.47 6.89 11.51
11/13/2021 3:15:00 PM 9.47 49.046 0.298 7.48 6.71 11.49
11/13/2021 3:30:00 PM 9.46 49.028 0.299 7.48 9.89 11.49
11/13/2021 3:45:00 PM 9.45 49.01 0.3 7.47 6.78 11.45
11/13/2021 4:00:00 PM 9.44 48.992 0.301 7.47 8.77 11.41
11/13/2021 4:15:00 PM 9.44 48.992 0.301 7.47 6.72 11.39
11/13/2021 4:30:00 PM 9.42 48.956 0.302 7.47 6.52 11.36
11/13/2021 4:45:00 PM 9.4 48.92 0.303 7.47 6.73 11.31
11/13/2021 5:00:00 PM 9.39 48.902 0.303 7.46 6.95 11.26
11/13/2021 5:15:00 PM 9.38 48.884 0.304 7.45 8.09 11.19
11/13/2021 5:30:00 PM 9.37 48.866 0.304 7.45 6.33 11.18
11/13/2021 5:45:00 PM 9.35 48.83 0.305 7.45 6.89 11.1
11/13/2021 6:00:00 PM 9.32 48.776 0.305 7.45 6.58 11.09
11/13/2021 6:15:00 PM 9.31 48.758 0.306 7.44 6.33 11.03
11/13/2021 6:30:00 PM 9.3 48.74 0.306 7.44 6.44 11.01
11/13/2021 6:45:00 PM 9.29 48.722 0.307 7.44 6.27 10.96
11/13/2021 7:00:00 PM 9.28 48.704 0.307 7.44 6.33 10.95
11/13/2021 7:15:00 PM 9.26 48.668 0.308 7.43 6.57 10.92
11/13/2021 7:30:00 PM 9.25 48.65 0.308 7.43 6.51 10.9
11/13/2021 7:45:00 PM 9.24 48.632 0.308 7.41 6.7 10.87
11/13/2021 8:00:00 PM 9.22 48.596 0.308 7.43 6.75 10.86
11/13/2021 8:15:00 PM 9.21 48.578 0.309 7.42 6.51 10.85
11/13/2021 8:30:00 PM 9.21 48.578 0.309 7.42 6.6 10.84
11/13/2021 8:45:00 PM 9.2 48.56 0.309 7.42 6.66 10.84
11/13/2021 9:00:00 PM 9.19 48.542 0.309 7.42 6.94 10.83
11/13/2021 9:15:00 PM 9.18 48.524 0.309 7.42 6.42 10.83
11/13/2021 9:30:00 PM 9.18 48.524 0.31 7.42 6.52 10.82
11/13/2021 9:45:00 PM 9.17 48.506 0.31 7.42 6.58 10.81
11/13/2021 10:00:00 PM 9.17 48.506 0.31 7.41 8.17 10.81
11/13/2021 10:15:00 PM 9.16 48.488 0.31 7.42 6.33 10.82
11/13/2021 10:30:00 PM 9.16 48.488 0.311 7.41 6.91 10.8
11/13/2021 10:45:00 PM 9.15 48.47 0.31 7.4 8.08 10.79
11/13/2021 11:00:00 PM 9.14 48.452 0.311 7.41 6.69 10.8
11/13/2021 11:15:00 PM 9.14 48.452 0.311 7.38 6.63 10.81
11/13/2021 11:30:00 PM 9.13 48.434 0.311 7.41 6.75 10.81
11/13/2021 11:45:00 PM 9.13 48.434 0.31 7.41 6.65 10.81
11/14/2021 12:00:00 AM 9.12 48.416 0.31 7.4 8.11 10.8
11/14/2021 12:15:00 AM 9.11 48.398 0.31 7.4 6.2 10.8
11/14/2021 12:30:00 AM 9.1 48.38 0.31 7.41 6.32 10.79
11/14/2021 12:45:00 AM 9.09 48.362 0.31 7.41 6.6 10.8
11/14/2021 1:00:00 AM 9.08 48.344 0.31 7.41 6.85 10.81
11/14/2021 1:15:00 AM 9.07 48.326 0.311 7.41 6.45 10.81
11/14/2021 1:30:00 AM 9.06 48.308 0.311 7.41 6.09 10.81
11/14/2021 1:45:00 AM 9.05 48.29 0.311 7.41 6.26 10.81
11/14/2021 2:00:00 AM 9.04 48.272 0.311 7.4 6.55 10.82
11/14/2021 2:15:00 AM 9.03 48.254 0.312 7.4 5.92 10.82
11/14/2021 2:30:00 AM 9.01 48.218 0.312 7.4 6.33 10.81
11/14/2021 2:45:00 AM 9.01 48.218 0.312 7.4 6.24 10.82
11/14/2021 3:00:00 AM 9.01 48.218 0.313 7.4 6.14 10.82
11/14/2021 3:15:00 AM 9 48.2 0.313 7.4 6.27 10.82
11/14/2021 3:30:00 AM 9 48.2 0.314 7.4 6.16 10.82
11/14/2021 3:45:00 AM 9 48.2 0.314 7.4 6.18 10.81
11/14/2021 4:00:00 AM 8.99 48.182 0.315 7.4 6.22 10.81
11/14/2021 4:15:00 AM 8.99 48.182 0.315 7.4 6.23 10.81
11/14/2021 4:30:00 AM 8.98 48.164 0.316 7.4 5.74 10.82
11/14/2021 4:45:00 AM 8.97 48.146 0.316 7.4 6.12 10.81
11/14/2021 5:00:00 AM 8.97 48.146 0.316 7.4 5.82 10.8
11/14/2021 5:15:00 AM 8.97 48.146 0.317 7.4 5.75 10.81
11/14/2021 5:30:00 AM 8.96 48.128 0.317 7.4 6.26 10.83
11/14/2021 5:45:00 AM 8.95 48.11 0.318 7.4 5.99 10.82
11/14/2021 6:00:00 AM 8.95 48.11 0.318 7.4 5.83 10.82
11/14/2021 6:15:00 AM 8.94 48.092 0.319 7.4 6.22 10.82
11/14/2021 6:30:00 AM 8.93 48.074 0.319 7.4 6.55 10.82
11/14/2021 6:45:00 AM 8.92 48.056 0.319 7.4 6.03 10.83
11/14/2021 7:00:00 AM 8.91 48.038 0.32 7.4 6.16 10.83
11/14/2021 7:15:00 AM 8.9 48.02 0.32 7.41 5.68 10.82
11/14/2021 7:30:00 AM 8.9 48.02 0.321 7.41 5.96 10.84
11/14/2021 7:45:00 AM 8.89 48.002 0.321 7.4 8.74 10.84
11/14/2021 8:00:00 AM 8.89 48.002 0.321 7.41 5.92 10.86
11/14/2021 8:15:00 AM 8.88 47.984 0.322 7.4 5.26 10.85
11/14/2021 8:30:00 AM 8.88 47.984 0.322 7.4 5.46 10.91
11/14/2021 8:45:00 AM 8.88 47.984 0.322 7.41 5.81 10.93
11/14/2021 9:00:00 AM 8.88 47.984 0.322 7.42 5.61 11
11/14/2021 9:15:00 AM 8.88 47.984 0.323 7.4 5.22 11
11/14/2021 9:30:00 AM 8.88 47.984 0.323 7.42 14.08 11.01
11/14/2021 9:45:00 AM 8.88 47.984 0.323 7.43 4.92 11.08
11/14/2021 10:00:00 AM 8.89 48.002 0.323 7.44 5.02 11.16
11/14/2021 10:15:00 AM 8.9 48.02 0.324 7.45 5.19 11.25
11/14/2021 10:30:00 AM 8.93 48.074 0.324 7.45 4.93 11.34
11/14/2021 10:45:00 AM 8.95 48.11 0.324 7.46 5.01 11.4
11/14/2021 11:00:00 AM 8.98 48.164 0.325 7.47 5.07 11.48
11/14/2021 11:15:00 AM 9.01 48.218 0.325 7.49 4.84 11.55
11/14/2021 11:30:00 AM 9.03 48.254 0.325 7.49 4.8 11.62
11/14/2021 11:45:00 AM 9.08 48.344 0.325 7.49 4.65 11.72
11/14/2021 12:00:00 PM 9.12 48.416 0.325 7.52 4.69 11.8
11/14/2021 12:15:00 PM 9.15 48.47 0.326 7.53 4.36 11.89
11/14/2021 12:30:00 PM 9.18 48.524 0.326 7.54 4.37 11.91
11/14/2021 12:45:00 PM 9.21 48.578 0.326 7.55 4.48 11.96
11/14/2021 1:00:00 PM 9.25 48.65 0.326 7.56 4.63 12.03
11/14/2021 1:15:00 PM 9.26 48.668 0.326 7.57 4.47 12.02
11/14/2021 1:30:00 PM 9.28 48.704 0.327 7.57 4.79 12.03
11/14/2021 1:45:00 PM 9.3 48.74 0.327 7.57 4.63 12.04
11/14/2021 2:00:00 PM 9.32 48.776 0.327 7.57 4.53 12.07
11/14/2021 2:15:00 PM 9.34 48.812 0.328 7.58 4.45 12.09
11/14/2021 2:30:00 PM 9.35 48.83 0.328 7.59 4.58 12.08
11/14/2021 2:45:00 PM 9.36 48.848 0.328 7.59 4.68 12.03
11/14/2021 3:00:00 PM 9.36 48.848 0.328 7.55 4.79 11.97
11/14/2021 3:15:00 PM 9.36 48.848 0.328 7.58 4.31 11.92
11/14/2021 3:30:00 PM 9.36 48.848 0.328 7.58 4.42 11.86
11/14/2021 3:45:00 PM 9.35 48.83 0.329 7.57 4.38 11.8
11/14/2021 4:00:00 PM 9.33 48.794 0.329 7.57 4.33 11.73
11/14/2021 4:15:00 PM 9.32 48.776 0.329 7.56 4.24 11.65
11/14/2021 4:30:00 PM 9.3 48.74 0.329 7.55 4.21 11.57
11/14/2021 4:45:00 PM 9.29 48.722 0.329 7.54 4.94 11.48
11/14/2021 5:00:00 PM 9.28 48.704 0.33 7.53 4.63 11.41
11/14/2021 5:15:00 PM 9.27 48.686 0.33 7.53 4.35 11.35
11/14/2021 5:30:00 PM 9.26 48.668 0.33 7.47 4.58 11.27
11/14/2021 5:45:00 PM 9.25 48.65 0.33 7.51 4.33 11.21
11/14/2021 6:00:00 PM 9.24 48.632 0.33 7.51 4.6 11.17
11/14/2021 6:15:00 PM 9.22 48.596 0.331 7.5 4.35 11.11
11/14/2021 6:30:00 PM 9.21 48.578 0.331 7.5 4.64 11.07
11/14/2021 6:45:00 PM 9.2 48.56 0.331 7.49 4.59 11.04
11/14/2021 7:00:00 PM 9.19 48.542 0.331 7.49 4.84 11
11/14/2021 7:15:00 PM 9.17 48.506 0.331 7.48 4.71 10.96
11/14/2021 7:30:00 PM 9.16 48.488 0.331 7.48 4.66 10.95
11/14/2021 7:45:00 PM 9.15 48.47 0.331 7.48 4.66 10.92
11/14/2021 8:00:00 PM 9.14 48.452 0.331 7.47 4.71 10.9
11/14/2021 8:15:00 PM 9.13 48.434 0.331 7.47 5.21 10.87
11/14/2021 8:30:00 PM 9.12 48.416 0.331 7.46 5.13 10.85
11/14/2021 8:45:00 PM 9.11 48.398 0.332 7.46 5.17 10.85
11/14/2021 9:00:00 PM 9.1 48.38 0.332 7.46 5.43 10.83
11/14/2021 9:15:00 PM 9.09 48.362 0.332 7.46 5.19 10.82
11/14/2021 9:30:00 PM 9.08 48.344 0.332 7.45 5.29 10.8
11/14/2021 9:45:00 PM 9.07 48.326 0.332 7.45 5.04 10.79
11/14/2021 10:00:00 PM 9.06 48.308 0.332 7.45 4.78 10.8
11/14/2021 10:15:00 PM 9.04 48.272 0.333 7.45 4.76 10.79
11/14/2021 10:30:00 PM 9.03 48.254 0.333 7.45 5.13 10.8
11/14/2021 10:45:00 PM 9.02 48.236 0.333 7.44 4.92 10.78
11/14/2021 11:00:00 PM 9.01 48.218 0.333 7.44 4.92 10.76
11/14/2021 11:15:00 PM 8.99 48.182 0.333 7.44 4.87 10.77
11/14/2021 11:30:00 PM 8.98 48.164 0.333 7.44 5.08 10.78
11/14/2021 11:45:00 PM 8.96 48.128 0.333 7.44 5.05 10.77
11/15/2021 12:00:00 AM 8.94 48.092 0.333 7.44 4.91 10.78
11/15/2021 12:15:00 AM 8.92 48.056 0.334 7.44 5.35 10.79
11/15/2021 12:30:00 AM 8.91 48.038 0.334 7.44 5.2 10.79
11/15/2021 12:45:00 AM 8.89 48.002 0.334 7.44 5.54 10.79
11/15/2021 1:00:00 AM 8.87 47.966 0.334 7.44 4.7 10.79
11/15/2021 1:15:00 AM 8.85 47.93 0.334 7.43 4.9 10.78
11/15/2021 1:30:00 AM 8.82 47.876 0.334 7.44 4.94 10.79
11/15/2021 1:45:00 AM 8.79 47.822 0.334 7.44 4.73 10.8
11/15/2021 2:00:00 AM 8.77 47.786 0.334 7.43 4.77 10.79
11/15/2021 2:15:00 AM 8.76 47.768 0.334 7.43 4.76 10.79